<?xml version="1.0" encoding="UTF-8" standalone="no" ?>
<gpx xmlns="http://www.topografix.com/GPX/1/1" xmlns:xsi="http://www.w3.org/2001/XMLSchema-instance" xsi:schemaLocation="http://www.topografix.com/GPX/1/1 http://www.topografix.com/GPX/1/1/gpx.xsd" version="1.1" creator="VisuGPX - https://www.visugpx.com">
  <metadata>
    <name>ChaumotRando-SeineEtMarne-14-01-30-ForêtEtEnrochementDeFontainebleau</name>
    <desc><![CDATA[Rando en boucles, avec départ et arrivée à la Maison Forestière du Carrefour de Maintenon.
Rando en forêt de Fontainebleau et parmi les rochers d'Avon, de Bouligny, des Demoiselles et du Mont Morillon.
Les boucles fort bien sont balisées d'un trait bleu, mais pas les sentiers qui les rejoignent, d'où carte obligatoire et prudence de rigueur.



]]></desc>
  </metadata>
  <wpt lat="48.39647" lon="2.70211">
    <ele>76</ele>
    <name><![CDATA[001]]></name>
  </wpt>
  <wpt lat="48.39408" lon="2.72859">
    <ele>83.3</ele>
    <name><![CDATA[002]]></name>
  </wpt>
  <wpt lat="48.39271" lon="2.72881">
    <ele>97.5</ele>
    <name><![CDATA[003]]></name>
  </wpt>
  <wpt lat="48.3942" lon="2.71935">
    <ele>100.4</ele>
    <name><![CDATA[004]]></name>
  </wpt>
  <wpt lat="48.39468" lon="2.71231">
    <ele>81</ele>
    <name><![CDATA[005]]></name>
  </wpt>
  <wpt lat="48.38859" lon="2.71382">
    <ele>92.4</ele>
    <name><![CDATA[006]]></name>
  </wpt>
  <wpt lat="48.38451" lon="2.71412">
    <ele>86.2</ele>
    <name><![CDATA[007]]></name>
  </wpt>
  <wpt lat="48.38383" lon="2.70787">
    <ele>128.4</ele>
    <name><![CDATA[008]]></name>
  </wpt>
  <wpt lat="48.38508" lon="2.69356">
    <ele>111.6</ele>
    <name><![CDATA[009]]></name>
  </wpt>
  <wpt lat="48.38557" lon="2.68766">
    <ele>81.9</ele>
    <name><![CDATA[010]]></name>
  </wpt>
  <wpt lat="48.37884" lon="2.68211">
    <ele>86</ele>
    <name><![CDATA[011]]></name>
  </wpt>
  <wpt lat="48.37975" lon="2.67113">
    <ele>102.8</ele>
    <name><![CDATA[012]]></name>
  </wpt>
  <wpt lat="48.38581" lon="2.67467">
    <ele>93.8</ele>
    <name><![CDATA[013]]></name>
  </wpt>
  <wpt lat="48.38603" lon="2.68147">
    <ele>102.8</ele>
    <name><![CDATA[014]]></name>
  </wpt>
  <wpt lat="48.38625" lon="2.68329">
    <ele>93.2</ele>
    <name><![CDATA[015]]></name>
  </wpt>
  <wpt lat="48.38511" lon="2.6937">
    <ele>113.1</ele>
    <name><![CDATA[016]]></name>
  </wpt>
  <wpt lat="48.38651" lon="2.69862">
    <ele>81</ele>
    <name><![CDATA[017]]></name>
  </wpt>
  <trk>
    <name><![CDATA[FontainebleauPiste30Jan14]]></name>
    <trkseg>
      <trkpt lat="48.39647" lon="2.70208">
        <ele>172</ele>
        <time>2014-01-30T08:25:05Z</time>
      </trkpt>
      <trkpt lat="48.39645" lon="2.70214">
        <ele>77</ele>
        <time>2014-01-30T08:34:40Z</time>
      </trkpt>
      <trkpt lat="48.39644" lon="2.70213">
        <ele>77</ele>
        <time>2014-01-30T08:35:28Z</time>
      </trkpt>
      <trkpt lat="48.3964" lon="2.70226">
        <ele>77</ele>
        <time>2014-01-30T08:35:37Z</time>
      </trkpt>
      <trkpt lat="48.39633" lon="2.70237">
        <ele>77</ele>
        <time>2014-01-30T08:35:46Z</time>
      </trkpt>
      <trkpt lat="48.39624" lon="2.70243">
        <ele>77</ele>
        <time>2014-01-30T08:35:56Z</time>
      </trkpt>
      <trkpt lat="48.39614" lon="2.70245">
        <ele>78</ele>
        <time>2014-01-30T08:36:05Z</time>
      </trkpt>
      <trkpt lat="48.39604" lon="2.70247">
        <ele>78</ele>
        <time>2014-01-30T08:36:14Z</time>
      </trkpt>
      <trkpt lat="48.39594" lon="2.7025">
        <ele>78</ele>
        <time>2014-01-30T08:36:24Z</time>
      </trkpt>
      <trkpt lat="48.39585" lon="2.70254">
        <ele>78</ele>
        <time>2014-01-30T08:36:36Z</time>
      </trkpt>
      <trkpt lat="48.39576" lon="2.70255">
        <ele>78</ele>
        <time>2014-01-30T08:36:44Z</time>
      </trkpt>
      <trkpt lat="48.39568" lon="2.70259">
        <ele>78</ele>
        <time>2014-01-30T08:36:52Z</time>
      </trkpt>
      <trkpt lat="48.39559" lon="2.70262">
        <ele>78</ele>
        <time>2014-01-30T08:37:01Z</time>
      </trkpt>
      <trkpt lat="48.3955" lon="2.70265">
        <ele>78</ele>
        <time>2014-01-30T08:37:10Z</time>
      </trkpt>
      <trkpt lat="48.3954" lon="2.70269">
        <ele>78</ele>
        <time>2014-01-30T08:37:19Z</time>
      </trkpt>
      <trkpt lat="48.39531" lon="2.70273">
        <ele>79</ele>
        <time>2014-01-30T08:37:27Z</time>
      </trkpt>
      <trkpt lat="48.39522" lon="2.7028">
        <ele>78</ele>
        <time>2014-01-30T08:39:03Z</time>
      </trkpt>
      <trkpt lat="48.39528" lon="2.70292">
        <ele>78</ele>
        <time>2014-01-30T08:39:11Z</time>
      </trkpt>
      <trkpt lat="48.39532" lon="2.70305">
        <ele>78</ele>
        <time>2014-01-30T08:39:24Z</time>
      </trkpt>
      <trkpt lat="48.39535" lon="2.70319">
        <ele>78</ele>
        <time>2014-01-30T08:39:31Z</time>
      </trkpt>
      <trkpt lat="48.39538" lon="2.70332">
        <ele>78</ele>
        <time>2014-01-30T08:39:38Z</time>
      </trkpt>
      <trkpt lat="48.39541" lon="2.70344">
        <ele>78</ele>
        <time>2014-01-30T08:39:45Z</time>
      </trkpt>
      <trkpt lat="48.39543" lon="2.70359">
        <ele>78</ele>
        <time>2014-01-30T08:39:52Z</time>
      </trkpt>
      <trkpt lat="48.39546" lon="2.70371">
        <ele>78</ele>
        <time>2014-01-30T08:39:59Z</time>
      </trkpt>
      <trkpt lat="48.39549" lon="2.70386">
        <ele>77</ele>
        <time>2014-01-30T08:40:07Z</time>
      </trkpt>
      <trkpt lat="48.39551" lon="2.70398">
        <ele>78</ele>
        <time>2014-01-30T08:40:14Z</time>
      </trkpt>
      <trkpt lat="48.39553" lon="2.70412">
        <ele>78</ele>
        <time>2014-01-30T08:40:22Z</time>
      </trkpt>
      <trkpt lat="48.39556" lon="2.70425">
        <ele>78</ele>
        <time>2014-01-30T08:40:29Z</time>
      </trkpt>
      <trkpt lat="48.3956" lon="2.7044">
        <ele>78</ele>
        <time>2014-01-30T08:40:38Z</time>
      </trkpt>
      <trkpt lat="48.39563" lon="2.70455">
        <ele>78</ele>
        <time>2014-01-30T08:40:46Z</time>
      </trkpt>
      <trkpt lat="48.39568" lon="2.70468">
        <ele>78</ele>
        <time>2014-01-30T08:40:54Z</time>
      </trkpt>
      <trkpt lat="48.39569" lon="2.70476">
        <ele>78</ele>
        <time>2014-01-30T08:41:30Z</time>
      </trkpt>
      <trkpt lat="48.39576" lon="2.70484">
        <ele>78</ele>
        <time>2014-01-30T08:41:37Z</time>
      </trkpt>
      <trkpt lat="48.39579" lon="2.70497">
        <ele>78</ele>
        <time>2014-01-30T08:41:44Z</time>
      </trkpt>
      <trkpt lat="48.39581" lon="2.7051">
        <ele>77</ele>
        <time>2014-01-30T08:41:51Z</time>
      </trkpt>
      <trkpt lat="48.39583" lon="2.70524">
        <ele>78</ele>
        <time>2014-01-30T08:41:58Z</time>
      </trkpt>
      <trkpt lat="48.39583" lon="2.70537">
        <ele>78</ele>
        <time>2014-01-30T08:42:05Z</time>
      </trkpt>
      <trkpt lat="48.39584" lon="2.70552">
        <ele>78</ele>
        <time>2014-01-30T08:42:13Z</time>
      </trkpt>
      <trkpt lat="48.39587" lon="2.70567">
        <ele>78</ele>
        <time>2014-01-30T08:42:21Z</time>
      </trkpt>
      <trkpt lat="48.39589" lon="2.70583">
        <ele>78</ele>
        <time>2014-01-30T08:42:29Z</time>
      </trkpt>
      <trkpt lat="48.39592" lon="2.70596">
        <ele>78</ele>
        <time>2014-01-30T08:42:36Z</time>
      </trkpt>
      <trkpt lat="48.39593" lon="2.70611">
        <ele>78</ele>
        <time>2014-01-30T08:42:44Z</time>
      </trkpt>
      <trkpt lat="48.39595" lon="2.70626">
        <ele>78</ele>
        <time>2014-01-30T08:42:52Z</time>
      </trkpt>
      <trkpt lat="48.39597" lon="2.70642">
        <ele>78</ele>
        <time>2014-01-30T08:43:00Z</time>
      </trkpt>
      <trkpt lat="48.396" lon="2.70658">
        <ele>78</ele>
        <time>2014-01-30T08:43:09Z</time>
      </trkpt>
      <trkpt lat="48.39599" lon="2.70674">
        <ele>78</ele>
        <time>2014-01-30T08:43:17Z</time>
      </trkpt>
      <trkpt lat="48.39597" lon="2.70689">
        <ele>78</ele>
        <time>2014-01-30T08:43:25Z</time>
      </trkpt>
      <trkpt lat="48.39596" lon="2.70702">
        <ele>78</ele>
        <time>2014-01-30T08:43:32Z</time>
      </trkpt>
      <trkpt lat="48.39595" lon="2.70717">
        <ele>78</ele>
        <time>2014-01-30T08:43:40Z</time>
      </trkpt>
      <trkpt lat="48.39594" lon="2.70733">
        <ele>78</ele>
        <time>2014-01-30T08:43:48Z</time>
      </trkpt>
      <trkpt lat="48.39594" lon="2.7075">
        <ele>78</ele>
        <time>2014-01-30T08:44:01Z</time>
      </trkpt>
      <trkpt lat="48.39594" lon="2.70765">
        <ele>78</ele>
        <time>2014-01-30T08:44:08Z</time>
      </trkpt>
      <trkpt lat="48.39594" lon="2.70778">
        <ele>78</ele>
        <time>2014-01-30T08:44:15Z</time>
      </trkpt>
      <trkpt lat="48.39593" lon="2.70794">
        <ele>78</ele>
        <time>2014-01-30T08:44:23Z</time>
      </trkpt>
      <trkpt lat="48.39592" lon="2.70808">
        <ele>78</ele>
        <time>2014-01-30T08:44:31Z</time>
      </trkpt>
      <trkpt lat="48.39592" lon="2.70824">
        <ele>78</ele>
        <time>2014-01-30T08:44:39Z</time>
      </trkpt>
      <trkpt lat="48.39592" lon="2.70839">
        <ele>78</ele>
        <time>2014-01-30T08:44:47Z</time>
      </trkpt>
      <trkpt lat="48.39588" lon="2.70856">
        <ele>79</ele>
        <time>2014-01-30T08:44:56Z</time>
      </trkpt>
      <trkpt lat="48.39584" lon="2.70872">
        <ele>78</ele>
        <time>2014-01-30T08:45:06Z</time>
      </trkpt>
      <trkpt lat="48.39582" lon="2.70888">
        <ele>79</ele>
        <time>2014-01-30T08:45:15Z</time>
      </trkpt>
      <trkpt lat="48.3958" lon="2.70902">
        <ele>79</ele>
        <time>2014-01-30T08:45:24Z</time>
      </trkpt>
      <trkpt lat="48.39581" lon="2.70918">
        <ele>79</ele>
        <time>2014-01-30T08:45:35Z</time>
      </trkpt>
      <trkpt lat="48.39581" lon="2.70934">
        <ele>78</ele>
        <time>2014-01-30T08:46:01Z</time>
      </trkpt>
      <trkpt lat="48.3958" lon="2.70951">
        <ele>78</ele>
        <time>2014-01-30T08:46:09Z</time>
      </trkpt>
      <trkpt lat="48.39579" lon="2.70967">
        <ele>79</ele>
        <time>2014-01-30T08:46:17Z</time>
      </trkpt>
      <trkpt lat="48.39577" lon="2.70983">
        <ele>78</ele>
        <time>2014-01-30T08:46:25Z</time>
      </trkpt>
      <trkpt lat="48.39576" lon="2.70997">
        <ele>78</ele>
        <time>2014-01-30T08:46:33Z</time>
      </trkpt>
      <trkpt lat="48.39573" lon="2.71018">
        <ele>79</ele>
        <time>2014-01-30T08:46:43Z</time>
      </trkpt>
      <trkpt lat="48.39569" lon="2.71035">
        <ele>78</ele>
        <time>2014-01-30T08:46:52Z</time>
      </trkpt>
      <trkpt lat="48.39565" lon="2.71051">
        <ele>79</ele>
        <time>2014-01-30T08:47:02Z</time>
      </trkpt>
      <trkpt lat="48.39563" lon="2.7107">
        <ele>79</ele>
        <time>2014-01-30T08:47:11Z</time>
      </trkpt>
      <trkpt lat="48.39561" lon="2.71086">
        <ele>78</ele>
        <time>2014-01-30T08:47:20Z</time>
      </trkpt>
      <trkpt lat="48.3956" lon="2.71108">
        <ele>79</ele>
        <time>2014-01-30T08:47:32Z</time>
      </trkpt>
      <trkpt lat="48.39561" lon="2.71128">
        <ele>78</ele>
        <time>2014-01-30T08:47:42Z</time>
      </trkpt>
      <trkpt lat="48.3956" lon="2.71144">
        <ele>78</ele>
        <time>2014-01-30T08:47:50Z</time>
      </trkpt>
      <trkpt lat="48.3956" lon="2.71161">
        <ele>78</ele>
        <time>2014-01-30T08:48:00Z</time>
      </trkpt>
      <trkpt lat="48.3956" lon="2.7118">
        <ele>78</ele>
        <time>2014-01-30T08:48:13Z</time>
      </trkpt>
      <trkpt lat="48.39561" lon="2.71193">
        <ele>77</ele>
        <time>2014-01-30T08:49:17Z</time>
      </trkpt>
      <trkpt lat="48.39561" lon="2.71211">
        <ele>78</ele>
        <time>2014-01-30T08:49:26Z</time>
      </trkpt>
      <trkpt lat="48.3956" lon="2.71232">
        <ele>78</ele>
        <time>2014-01-30T08:49:36Z</time>
      </trkpt>
      <trkpt lat="48.39557" lon="2.7125">
        <ele>78</ele>
        <time>2014-01-30T08:49:44Z</time>
      </trkpt>
      <trkpt lat="48.39555" lon="2.71268">
        <ele>78</ele>
        <time>2014-01-30T08:49:53Z</time>
      </trkpt>
      <trkpt lat="48.39554" lon="2.7128">
        <ele>78</ele>
        <time>2014-01-30T08:50:01Z</time>
      </trkpt>
      <trkpt lat="48.39551" lon="2.71296">
        <ele>78</ele>
        <time>2014-01-30T08:50:11Z</time>
      </trkpt>
      <trkpt lat="48.39549" lon="2.71313">
        <ele>78</ele>
        <time>2014-01-30T08:50:20Z</time>
      </trkpt>
      <trkpt lat="48.39549" lon="2.71328">
        <ele>78</ele>
        <time>2014-01-30T08:50:29Z</time>
      </trkpt>
      <trkpt lat="48.39545" lon="2.71344">
        <ele>78</ele>
        <time>2014-01-30T08:50:38Z</time>
      </trkpt>
      <trkpt lat="48.39544" lon="2.71356">
        <ele>78</ele>
        <time>2014-01-30T08:50:59Z</time>
      </trkpt>
      <trkpt lat="48.39543" lon="2.71373">
        <ele>78</ele>
        <time>2014-01-30T08:51:09Z</time>
      </trkpt>
      <trkpt lat="48.39546" lon="2.7139">
        <ele>77</ele>
        <time>2014-01-30T08:51:17Z</time>
      </trkpt>
      <trkpt lat="48.39545" lon="2.71406">
        <ele>78</ele>
        <time>2014-01-30T08:51:26Z</time>
      </trkpt>
      <trkpt lat="48.39544" lon="2.71422">
        <ele>78</ele>
        <time>2014-01-30T08:51:34Z</time>
      </trkpt>
      <trkpt lat="48.39542" lon="2.71436">
        <ele>78</ele>
        <time>2014-01-30T08:51:42Z</time>
      </trkpt>
      <trkpt lat="48.39541" lon="2.71451">
        <ele>77</ele>
        <time>2014-01-30T08:51:51Z</time>
      </trkpt>
      <trkpt lat="48.39541" lon="2.71467">
        <ele>78</ele>
        <time>2014-01-30T08:52:00Z</time>
      </trkpt>
      <trkpt lat="48.3954" lon="2.71483">
        <ele>78</ele>
        <time>2014-01-30T08:52:08Z</time>
      </trkpt>
      <trkpt lat="48.39539" lon="2.71497">
        <ele>78</ele>
        <time>2014-01-30T08:52:16Z</time>
      </trkpt>
      <trkpt lat="48.39537" lon="2.71513">
        <ele>78</ele>
        <time>2014-01-30T08:52:24Z</time>
      </trkpt>
      <trkpt lat="48.39537" lon="2.71528">
        <ele>78</ele>
        <time>2014-01-30T08:52:32Z</time>
      </trkpt>
      <trkpt lat="48.39535" lon="2.7154">
        <ele>78</ele>
        <time>2014-01-30T08:52:39Z</time>
      </trkpt>
      <trkpt lat="48.39535" lon="2.71554">
        <ele>78</ele>
        <time>2014-01-30T08:52:47Z</time>
      </trkpt>
      <trkpt lat="48.39534" lon="2.71567">
        <ele>78</ele>
        <time>2014-01-30T08:52:54Z</time>
      </trkpt>
      <trkpt lat="48.39534" lon="2.71581">
        <ele>78</ele>
        <time>2014-01-30T08:53:01Z</time>
      </trkpt>
      <trkpt lat="48.39532" lon="2.71595">
        <ele>78</ele>
        <time>2014-01-30T08:53:08Z</time>
      </trkpt>
      <trkpt lat="48.3953" lon="2.71608">
        <ele>78</ele>
        <time>2014-01-30T08:53:15Z</time>
      </trkpt>
      <trkpt lat="48.3953" lon="2.71621">
        <ele>78</ele>
        <time>2014-01-30T08:53:23Z</time>
      </trkpt>
      <trkpt lat="48.39528" lon="2.71635">
        <ele>78</ele>
        <time>2014-01-30T08:53:33Z</time>
      </trkpt>
      <trkpt lat="48.39529" lon="2.71646">
        <ele>77</ele>
        <time>2014-01-30T08:55:30Z</time>
      </trkpt>
      <trkpt lat="48.39529" lon="2.7166">
        <ele>77</ele>
        <time>2014-01-30T08:55:38Z</time>
      </trkpt>
      <trkpt lat="48.39528" lon="2.71673">
        <ele>78</ele>
        <time>2014-01-30T08:55:45Z</time>
      </trkpt>
      <trkpt lat="48.39528" lon="2.71687">
        <ele>77</ele>
        <time>2014-01-30T08:55:53Z</time>
      </trkpt>
      <trkpt lat="48.39528" lon="2.71704">
        <ele>77</ele>
        <time>2014-01-30T08:56:02Z</time>
      </trkpt>
      <trkpt lat="48.39528" lon="2.7172">
        <ele>77</ele>
        <time>2014-01-30T08:56:11Z</time>
      </trkpt>
      <trkpt lat="48.39528" lon="2.71739">
        <ele>77</ele>
        <time>2014-01-30T08:56:20Z</time>
      </trkpt>
      <trkpt lat="48.39528" lon="2.71754">
        <ele>77</ele>
        <time>2014-01-30T08:56:28Z</time>
      </trkpt>
      <trkpt lat="48.39527" lon="2.71768">
        <ele>77</ele>
        <time>2014-01-30T08:56:35Z</time>
      </trkpt>
      <trkpt lat="48.39526" lon="2.71784">
        <ele>77</ele>
        <time>2014-01-30T08:56:43Z</time>
      </trkpt>
      <trkpt lat="48.39528" lon="2.71799">
        <ele>77</ele>
        <time>2014-01-30T08:56:51Z</time>
      </trkpt>
      <trkpt lat="48.39528" lon="2.71815">
        <ele>78</ele>
        <time>2014-01-30T08:57:01Z</time>
      </trkpt>
      <trkpt lat="48.39526" lon="2.71831">
        <ele>78</ele>
        <time>2014-01-30T08:57:09Z</time>
      </trkpt>
      <trkpt lat="48.39524" lon="2.71846">
        <ele>78</ele>
        <time>2014-01-30T08:57:17Z</time>
      </trkpt>
      <trkpt lat="48.39522" lon="2.71861">
        <ele>77</ele>
        <time>2014-01-30T08:57:25Z</time>
      </trkpt>
      <trkpt lat="48.39519" lon="2.71877">
        <ele>78</ele>
        <time>2014-01-30T08:57:33Z</time>
      </trkpt>
      <trkpt lat="48.39518" lon="2.71892">
        <ele>78</ele>
        <time>2014-01-30T08:57:41Z</time>
      </trkpt>
      <trkpt lat="48.39514" lon="2.71906">
        <ele>78</ele>
        <time>2014-01-30T08:57:48Z</time>
      </trkpt>
      <trkpt lat="48.39512" lon="2.71922">
        <ele>77</ele>
        <time>2014-01-30T08:57:56Z</time>
      </trkpt>
      <trkpt lat="48.3951" lon="2.71939">
        <ele>78</ele>
        <time>2014-01-30T08:58:06Z</time>
      </trkpt>
      <trkpt lat="48.39511" lon="2.71954">
        <ele>78</ele>
        <time>2014-01-30T08:58:23Z</time>
      </trkpt>
      <trkpt lat="48.3951" lon="2.71973">
        <ele>78</ele>
        <time>2014-01-30T08:58:33Z</time>
      </trkpt>
      <trkpt lat="48.39508" lon="2.71991">
        <ele>78</ele>
        <time>2014-01-30T08:58:42Z</time>
      </trkpt>
      <trkpt lat="48.39507" lon="2.72009">
        <ele>78</ele>
        <time>2014-01-30T08:58:51Z</time>
      </trkpt>
      <trkpt lat="48.39505" lon="2.72025">
        <ele>78</ele>
        <time>2014-01-30T08:58:59Z</time>
      </trkpt>
      <trkpt lat="48.39504" lon="2.72039">
        <ele>78</ele>
        <time>2014-01-30T08:59:07Z</time>
      </trkpt>
      <trkpt lat="48.39503" lon="2.72054">
        <ele>78</ele>
        <time>2014-01-30T08:59:16Z</time>
      </trkpt>
      <trkpt lat="48.39502" lon="2.72076">
        <ele>78</ele>
        <time>2014-01-30T08:59:26Z</time>
      </trkpt>
      <trkpt lat="48.39499" lon="2.72099">
        <ele>78</ele>
        <time>2014-01-30T08:59:36Z</time>
      </trkpt>
      <trkpt lat="48.39496" lon="2.72113">
        <ele>78</ele>
        <time>2014-01-30T08:59:44Z</time>
      </trkpt>
      <trkpt lat="48.39493" lon="2.7213">
        <ele>78</ele>
        <time>2014-01-30T08:59:54Z</time>
      </trkpt>
      <trkpt lat="48.3949" lon="2.72148">
        <ele>78</ele>
        <time>2014-01-30T09:00:04Z</time>
      </trkpt>
      <trkpt lat="48.39489" lon="2.72165">
        <ele>78</ele>
        <time>2014-01-30T09:00:13Z</time>
      </trkpt>
      <trkpt lat="48.39489" lon="2.72182">
        <ele>78</ele>
        <time>2014-01-30T09:00:21Z</time>
      </trkpt>
      <trkpt lat="48.39487" lon="2.72196">
        <ele>78</ele>
        <time>2014-01-30T09:00:29Z</time>
      </trkpt>
      <trkpt lat="48.39485" lon="2.72213">
        <ele>80</ele>
        <time>2014-01-30T09:19:41Z</time>
      </trkpt>
      <trkpt lat="48.39485" lon="2.72222">
        <ele>80</ele>
        <time>2014-01-30T09:20:59Z</time>
      </trkpt>
      <trkpt lat="48.39481" lon="2.72241">
        <ele>80</ele>
        <time>2014-01-30T09:21:18Z</time>
      </trkpt>
      <trkpt lat="48.39479" lon="2.72259">
        <ele>79</ele>
        <time>2014-01-30T09:21:26Z</time>
      </trkpt>
      <trkpt lat="48.39477" lon="2.72276">
        <ele>79</ele>
        <time>2014-01-30T09:21:35Z</time>
      </trkpt>
      <trkpt lat="48.39475" lon="2.7229">
        <ele>79</ele>
        <time>2014-01-30T09:21:43Z</time>
      </trkpt>
      <trkpt lat="48.39474" lon="2.72305">
        <ele>79</ele>
        <time>2014-01-30T09:21:53Z</time>
      </trkpt>
      <trkpt lat="48.39474" lon="2.72322">
        <ele>79</ele>
        <time>2014-01-30T09:22:09Z</time>
      </trkpt>
      <trkpt lat="48.39474" lon="2.72336">
        <ele>79</ele>
        <time>2014-01-30T09:22:16Z</time>
      </trkpt>
      <trkpt lat="48.39473" lon="2.72354">
        <ele>79</ele>
        <time>2014-01-30T09:22:25Z</time>
      </trkpt>
      <trkpt lat="48.39471" lon="2.7237">
        <ele>79</ele>
        <time>2014-01-30T09:22:33Z</time>
      </trkpt>
      <trkpt lat="48.3947" lon="2.72386">
        <ele>80</ele>
        <time>2014-01-30T09:22:41Z</time>
      </trkpt>
      <trkpt lat="48.39468" lon="2.72397">
        <ele>79</ele>
        <time>2014-01-30T09:22:48Z</time>
      </trkpt>
      <trkpt lat="48.39469" lon="2.72411">
        <ele>79</ele>
        <time>2014-01-30T09:23:13Z</time>
      </trkpt>
      <trkpt lat="48.39466" lon="2.72429">
        <ele>80</ele>
        <time>2014-01-30T09:23:22Z</time>
      </trkpt>
      <trkpt lat="48.39465" lon="2.72442">
        <ele>80</ele>
        <time>2014-01-30T09:23:30Z</time>
      </trkpt>
      <trkpt lat="48.39461" lon="2.72455">
        <ele>80</ele>
        <time>2014-01-30T09:23:37Z</time>
      </trkpt>
      <trkpt lat="48.3946" lon="2.72469">
        <ele>80</ele>
        <time>2014-01-30T09:23:45Z</time>
      </trkpt>
      <trkpt lat="48.39459" lon="2.72484">
        <ele>80</ele>
        <time>2014-01-30T09:23:53Z</time>
      </trkpt>
      <trkpt lat="48.39456" lon="2.725">
        <ele>80</ele>
        <time>2014-01-30T09:24:01Z</time>
      </trkpt>
      <trkpt lat="48.39455" lon="2.72517">
        <ele>80</ele>
        <time>2014-01-30T09:24:09Z</time>
      </trkpt>
      <trkpt lat="48.39452" lon="2.72534">
        <ele>80</ele>
        <time>2014-01-30T09:24:18Z</time>
      </trkpt>
      <trkpt lat="48.39451" lon="2.72549">
        <ele>80</ele>
        <time>2014-01-30T09:24:26Z</time>
      </trkpt>
      <trkpt lat="48.39448" lon="2.72566">
        <ele>81</ele>
        <time>2014-01-30T09:24:35Z</time>
      </trkpt>
      <trkpt lat="48.39447" lon="2.72586">
        <ele>80</ele>
        <time>2014-01-30T09:24:45Z</time>
      </trkpt>
      <trkpt lat="48.39445" lon="2.72604">
        <ele>81</ele>
        <time>2014-01-30T09:24:53Z</time>
      </trkpt>
      <trkpt lat="48.39442" lon="2.72622">
        <ele>80</ele>
        <time>2014-01-30T09:25:02Z</time>
      </trkpt>
      <trkpt lat="48.39441" lon="2.72642">
        <ele>80</ele>
        <time>2014-01-30T09:25:11Z</time>
      </trkpt>
      <trkpt lat="48.39437" lon="2.72656">
        <ele>81</ele>
        <time>2014-01-30T09:25:20Z</time>
      </trkpt>
      <trkpt lat="48.39434" lon="2.72672">
        <ele>80</ele>
        <time>2014-01-30T09:25:28Z</time>
      </trkpt>
      <trkpt lat="48.39433" lon="2.72687">
        <ele>80</ele>
        <time>2014-01-30T09:25:35Z</time>
      </trkpt>
      <trkpt lat="48.3943" lon="2.72704">
        <ele>81</ele>
        <time>2014-01-30T09:25:44Z</time>
      </trkpt>
      <trkpt lat="48.39429" lon="2.7272">
        <ele>80</ele>
        <time>2014-01-30T09:25:52Z</time>
      </trkpt>
      <trkpt lat="48.39427" lon="2.72736">
        <ele>80</ele>
        <time>2014-01-30T09:26:02Z</time>
      </trkpt>
      <trkpt lat="48.39424" lon="2.72751">
        <ele>81</ele>
        <time>2014-01-30T09:26:10Z</time>
      </trkpt>
      <trkpt lat="48.39423" lon="2.72771">
        <ele>81</ele>
        <time>2014-01-30T09:26:19Z</time>
      </trkpt>
      <trkpt lat="48.39421" lon="2.72785">
        <ele>81</ele>
        <time>2014-01-30T09:26:27Z</time>
      </trkpt>
      <trkpt lat="48.39418" lon="2.72799">
        <ele>80</ele>
        <time>2014-01-30T09:26:35Z</time>
      </trkpt>
      <trkpt lat="48.39417" lon="2.72815">
        <ele>81</ele>
        <time>2014-01-30T09:26:44Z</time>
      </trkpt>
      <trkpt lat="48.39416" lon="2.72832">
        <ele>81</ele>
        <time>2014-01-30T09:26:52Z</time>
      </trkpt>
      <trkpt lat="48.39414" lon="2.72845">
        <ele>80</ele>
        <time>2014-01-30T09:26:59Z</time>
      </trkpt>
      <trkpt lat="48.39415" lon="2.72857">
        <ele>81</ele>
        <time>2014-01-30T09:27:08Z</time>
      </trkpt>
      <trkpt lat="48.39413" lon="2.72859">
        <ele>80</ele>
        <time>2014-01-30T09:27:38Z</time>
      </trkpt>
      <trkpt lat="48.39404" lon="2.72858">
        <ele>80</ele>
        <time>2014-01-30T09:29:00Z</time>
      </trkpt>
      <trkpt lat="48.39392" lon="2.72858">
        <ele>81</ele>
        <time>2014-01-30T09:29:09Z</time>
      </trkpt>
      <trkpt lat="48.39382" lon="2.72861">
        <ele>82</ele>
        <time>2014-01-30T09:29:17Z</time>
      </trkpt>
      <trkpt lat="48.39375" lon="2.72868">
        <ele>82</ele>
        <time>2014-01-30T09:29:25Z</time>
      </trkpt>
      <trkpt lat="48.39364" lon="2.72875">
        <ele>83</ele>
        <time>2014-01-30T09:29:34Z</time>
      </trkpt>
      <trkpt lat="48.39357" lon="2.72883">
        <ele>84</ele>
        <time>2014-01-30T09:29:42Z</time>
      </trkpt>
      <trkpt lat="48.39349" lon="2.72886">
        <ele>85</ele>
        <time>2014-01-30T09:29:51Z</time>
      </trkpt>
      <trkpt lat="48.39341" lon="2.72894">
        <ele>87</ele>
        <time>2014-01-30T09:30:00Z</time>
      </trkpt>
      <trkpt lat="48.39332" lon="2.72898">
        <ele>89</ele>
        <time>2014-01-30T09:30:12Z</time>
      </trkpt>
      <trkpt lat="48.39321" lon="2.72902">
        <ele>90</ele>
        <time>2014-01-30T09:30:23Z</time>
      </trkpt>
      <trkpt lat="48.3931" lon="2.72904">
        <ele>92</ele>
        <time>2014-01-30T09:30:34Z</time>
      </trkpt>
      <trkpt lat="48.39301" lon="2.72906">
        <ele>95</ele>
        <time>2014-01-30T09:30:47Z</time>
      </trkpt>
      <trkpt lat="48.3929" lon="2.72902">
        <ele>97</ele>
        <time>2014-01-30T09:31:00Z</time>
      </trkpt>
      <trkpt lat="48.39281" lon="2.72897">
        <ele>99</ele>
        <time>2014-01-30T09:31:12Z</time>
      </trkpt>
      <trkpt lat="48.39273" lon="2.7289">
        <ele>99</ele>
        <time>2014-01-30T09:31:26Z</time>
      </trkpt>
      <trkpt lat="48.3927" lon="2.72879">
        <ele>99</ele>
        <time>2014-01-30T09:32:01Z</time>
      </trkpt>
      <trkpt lat="48.39269" lon="2.7287">
        <ele>98</ele>
        <time>2014-01-30T09:32:30Z</time>
      </trkpt>
      <trkpt lat="48.39267" lon="2.72857">
        <ele>97</ele>
        <time>2014-01-30T09:32:48Z</time>
      </trkpt>
      <trkpt lat="48.3927" lon="2.72844">
        <ele>98</ele>
        <time>2014-01-30T09:33:11Z</time>
      </trkpt>
      <trkpt lat="48.39273" lon="2.72823">
        <ele>98</ele>
        <time>2014-01-30T09:33:22Z</time>
      </trkpt>
      <trkpt lat="48.39276" lon="2.7281">
        <ele>98</ele>
        <time>2014-01-30T09:33:34Z</time>
      </trkpt>
      <trkpt lat="48.3928" lon="2.72798">
        <ele>98</ele>
        <time>2014-01-30T09:33:56Z</time>
      </trkpt>
      <trkpt lat="48.39278" lon="2.72782">
        <ele>99</ele>
        <time>2014-01-30T09:34:07Z</time>
      </trkpt>
      <trkpt lat="48.39281" lon="2.72776">
        <ele>100</ele>
        <time>2014-01-30T09:34:19Z</time>
      </trkpt>
      <trkpt lat="48.39285" lon="2.72769">
        <ele>101</ele>
        <time>2014-01-30T09:34:31Z</time>
      </trkpt>
      <trkpt lat="48.39283" lon="2.72755">
        <ele>103</ele>
        <time>2014-01-30T09:34:44Z</time>
      </trkpt>
      <trkpt lat="48.39285" lon="2.7274">
        <ele>105</ele>
        <time>2014-01-30T09:34:58Z</time>
      </trkpt>
      <trkpt lat="48.39285" lon="2.72728">
        <ele>104</ele>
        <time>2014-01-30T09:35:25Z</time>
      </trkpt>
      <trkpt lat="48.39281" lon="2.72715">
        <ele>104</ele>
        <time>2014-01-30T09:35:35Z</time>
      </trkpt>
      <trkpt lat="48.39283" lon="2.727">
        <ele>103</ele>
        <time>2014-01-30T09:35:46Z</time>
      </trkpt>
      <trkpt lat="48.3929" lon="2.72688">
        <ele>103</ele>
        <time>2014-01-30T09:35:56Z</time>
      </trkpt>
      <trkpt lat="48.39297" lon="2.72675">
        <ele>103</ele>
        <time>2014-01-30T09:36:16Z</time>
      </trkpt>
      <trkpt lat="48.39299" lon="2.72661">
        <ele>103</ele>
        <time>2014-01-30T09:36:33Z</time>
      </trkpt>
      <trkpt lat="48.39303" lon="2.72662">
        <ele>103</ele>
        <time>2014-01-30T09:38:32Z</time>
      </trkpt>
      <trkpt lat="48.39308" lon="2.72656">
        <ele>103</ele>
        <time>2014-01-30T09:39:38Z</time>
      </trkpt>
      <trkpt lat="48.39307" lon="2.72642">
        <ele>103</ele>
        <time>2014-01-30T09:39:49Z</time>
      </trkpt>
      <trkpt lat="48.39305" lon="2.72627">
        <ele>103</ele>
        <time>2014-01-30T09:39:58Z</time>
      </trkpt>
      <trkpt lat="48.39308" lon="2.72615">
        <ele>105</ele>
        <time>2014-01-30T09:40:08Z</time>
      </trkpt>
      <trkpt lat="48.39315" lon="2.72605">
        <ele>107</ele>
        <time>2014-01-30T09:40:21Z</time>
      </trkpt>
      <trkpt lat="48.39314" lon="2.72592">
        <ele>109</ele>
        <time>2014-01-30T09:40:34Z</time>
      </trkpt>
      <trkpt lat="48.39315" lon="2.72577">
        <ele>112</ele>
        <time>2014-01-30T09:41:09Z</time>
      </trkpt>
      <trkpt lat="48.39313" lon="2.72564">
        <ele>114</ele>
        <time>2014-01-30T09:41:22Z</time>
      </trkpt>
      <trkpt lat="48.39307" lon="2.72553">
        <ele>115</ele>
        <time>2014-01-30T09:41:34Z</time>
      </trkpt>
      <trkpt lat="48.39309" lon="2.72538">
        <ele>117</ele>
        <time>2014-01-30T09:41:48Z</time>
      </trkpt>
      <trkpt lat="48.3931" lon="2.72531">
        <ele>121</ele>
        <time>2014-01-30T09:42:19Z</time>
      </trkpt>
      <trkpt lat="48.39306" lon="2.72518">
        <ele>123</ele>
        <time>2014-01-30T09:42:33Z</time>
      </trkpt>
      <trkpt lat="48.39298" lon="2.72513">
        <ele>124</ele>
        <time>2014-01-30T09:44:08Z</time>
      </trkpt>
      <trkpt lat="48.39304" lon="2.72503">
        <ele>125</ele>
        <time>2014-01-30T09:44:24Z</time>
      </trkpt>
      <trkpt lat="48.39305" lon="2.72487">
        <ele>122</ele>
        <time>2014-01-30T09:44:34Z</time>
      </trkpt>
      <trkpt lat="48.3931" lon="2.72475">
        <ele>120</ele>
        <time>2014-01-30T09:45:01Z</time>
      </trkpt>
      <trkpt lat="48.39306" lon="2.72466">
        <ele>121</ele>
        <time>2014-01-30T09:45:28Z</time>
      </trkpt>
      <trkpt lat="48.393" lon="2.72457">
        <ele>121</ele>
        <time>2014-01-30T09:45:46Z</time>
      </trkpt>
      <trkpt lat="48.39294" lon="2.72444">
        <ele>120</ele>
        <time>2014-01-30T09:46:01Z</time>
      </trkpt>
      <trkpt lat="48.39295" lon="2.72427">
        <ele>119</ele>
        <time>2014-01-30T09:46:10Z</time>
      </trkpt>
      <trkpt lat="48.39298" lon="2.72414">
        <ele>118</ele>
        <time>2014-01-30T09:46:24Z</time>
      </trkpt>
      <trkpt lat="48.39298" lon="2.72398">
        <ele>119</ele>
        <time>2014-01-30T09:46:33Z</time>
      </trkpt>
      <trkpt lat="48.393" lon="2.72383">
        <ele>120</ele>
        <time>2014-01-30T09:46:44Z</time>
      </trkpt>
      <trkpt lat="48.39304" lon="2.7237">
        <ele>121</ele>
        <time>2014-01-30T09:46:54Z</time>
      </trkpt>
      <trkpt lat="48.39302" lon="2.72364">
        <ele>122</ele>
        <time>2014-01-30T09:47:16Z</time>
      </trkpt>
      <trkpt lat="48.39302" lon="2.72354">
        <ele>121</ele>
        <time>2014-01-30T09:47:32Z</time>
      </trkpt>
      <trkpt lat="48.39304" lon="2.72338">
        <ele>121</ele>
        <time>2014-01-30T09:47:42Z</time>
      </trkpt>
      <trkpt lat="48.39306" lon="2.72322">
        <ele>121</ele>
        <time>2014-01-30T09:47:53Z</time>
      </trkpt>
      <trkpt lat="48.39312" lon="2.72315">
        <ele>123</ele>
        <time>2014-01-30T09:48:09Z</time>
      </trkpt>
      <trkpt lat="48.39321" lon="2.72324">
        <ele>124</ele>
        <time>2014-01-30T09:48:24Z</time>
      </trkpt>
      <trkpt lat="48.3933" lon="2.72325">
        <ele>126</ele>
        <time>2014-01-30T09:48:36Z</time>
      </trkpt>
      <trkpt lat="48.39338" lon="2.72333">
        <ele>126</ele>
        <time>2014-01-30T09:48:48Z</time>
      </trkpt>
      <trkpt lat="48.39348" lon="2.72332">
        <ele>124</ele>
        <time>2014-01-30T09:49:24Z</time>
      </trkpt>
      <trkpt lat="48.39353" lon="2.72323">
        <ele>122</ele>
        <time>2014-01-30T09:49:45Z</time>
      </trkpt>
      <trkpt lat="48.39354" lon="2.7231">
        <ele>120</ele>
        <time>2014-01-30T09:49:59Z</time>
      </trkpt>
      <trkpt lat="48.39349" lon="2.72296">
        <ele>119</ele>
        <time>2014-01-30T09:50:41Z</time>
      </trkpt>
      <trkpt lat="48.39347" lon="2.72288">
        <ele>118</ele>
        <time>2014-01-30T09:51:49Z</time>
      </trkpt>
      <trkpt lat="48.39348" lon="2.72273">
        <ele>115</ele>
        <time>2014-01-30T09:52:06Z</time>
      </trkpt>
      <trkpt lat="48.39349" lon="2.72254">
        <ele>112</ele>
        <time>2014-01-30T09:54:31Z</time>
      </trkpt>
      <trkpt lat="48.39354" lon="2.72256">
        <ele>112</ele>
        <time>2014-01-30T09:55:11Z</time>
      </trkpt>
      <trkpt lat="48.39363" lon="2.72256">
        <ele>110</ele>
        <time>2014-01-30T09:55:34Z</time>
      </trkpt>
      <trkpt lat="48.39365" lon="2.72247">
        <ele>108</ele>
        <time>2014-01-30T09:55:59Z</time>
      </trkpt>
      <trkpt lat="48.39372" lon="2.72239">
        <ele>107</ele>
        <time>2014-01-30T09:56:15Z</time>
      </trkpt>
      <trkpt lat="48.39379" lon="2.72232">
        <ele>104</ele>
        <time>2014-01-30T09:56:39Z</time>
      </trkpt>
      <trkpt lat="48.39377" lon="2.72223">
        <ele>103</ele>
        <time>2014-01-30T09:57:01Z</time>
      </trkpt>
      <trkpt lat="48.39381" lon="2.72212">
        <ele>100</ele>
        <time>2014-01-30T09:57:15Z</time>
      </trkpt>
      <trkpt lat="48.39382" lon="2.72204">
        <ele>100</ele>
        <time>2014-01-30T09:59:35Z</time>
      </trkpt>
      <trkpt lat="48.39373" lon="2.72199">
        <ele>100</ele>
        <time>2014-01-30T09:59:57Z</time>
      </trkpt>
      <trkpt lat="48.39362" lon="2.72193">
        <ele>100</ele>
        <time>2014-01-30T10:00:09Z</time>
      </trkpt>
      <trkpt lat="48.39352" lon="2.72197">
        <ele>98</ele>
        <time>2014-01-30T10:01:24Z</time>
      </trkpt>
      <trkpt lat="48.39352" lon="2.72179">
        <ele>99</ele>
        <time>2014-01-30T10:02:13Z</time>
      </trkpt>
      <trkpt lat="48.39358" lon="2.72168">
        <ele>103</ele>
        <time>2014-01-30T10:02:31Z</time>
      </trkpt>
      <trkpt lat="48.39357" lon="2.7215">
        <ele>103</ele>
        <time>2014-01-30T10:02:56Z</time>
      </trkpt>
      <trkpt lat="48.39358" lon="2.72134">
        <ele>106</ele>
        <time>2014-01-30T10:03:10Z</time>
      </trkpt>
      <trkpt lat="48.39357" lon="2.7212">
        <ele>108</ele>
        <time>2014-01-30T10:03:24Z</time>
      </trkpt>
      <trkpt lat="48.39358" lon="2.72106">
        <ele>109</ele>
        <time>2014-01-30T10:03:37Z</time>
      </trkpt>
      <trkpt lat="48.39363" lon="2.72093">
        <ele>110</ele>
        <time>2014-01-30T10:03:50Z</time>
      </trkpt>
      <trkpt lat="48.3937" lon="2.72085">
        <ele>109</ele>
        <time>2014-01-30T10:04:04Z</time>
      </trkpt>
      <trkpt lat="48.39376" lon="2.72081">
        <ele>107</ele>
        <time>2014-01-30T10:04:40Z</time>
      </trkpt>
      <trkpt lat="48.39376" lon="2.72069">
        <ele>106</ele>
        <time>2014-01-30T10:04:57Z</time>
      </trkpt>
      <trkpt lat="48.39382" lon="2.72057">
        <ele>105</ele>
        <time>2014-01-30T10:05:13Z</time>
      </trkpt>
      <trkpt lat="48.39387" lon="2.7205">
        <ele>103</ele>
        <time>2014-01-30T10:05:53Z</time>
      </trkpt>
      <trkpt lat="48.39395" lon="2.72041">
        <ele>103</ele>
        <time>2014-01-30T10:06:13Z</time>
      </trkpt>
      <trkpt lat="48.39397" lon="2.72028">
        <ele>100</ele>
        <time>2014-01-30T10:06:31Z</time>
      </trkpt>
      <trkpt lat="48.39404" lon="2.72022">
        <ele>99</ele>
        <time>2014-01-30T10:07:12Z</time>
      </trkpt>
      <trkpt lat="48.39414" lon="2.72019">
        <ele>97</ele>
        <time>2014-01-30T10:07:27Z</time>
      </trkpt>
      <trkpt lat="48.39412" lon="2.72008">
        <ele>95</ele>
        <time>2014-01-30T10:07:52Z</time>
      </trkpt>
      <trkpt lat="48.39402" lon="2.71998">
        <ele>95</ele>
        <time>2014-01-30T10:08:04Z</time>
      </trkpt>
      <trkpt lat="48.39397" lon="2.71986">
        <ele>96</ele>
        <time>2014-01-30T10:08:13Z</time>
      </trkpt>
      <trkpt lat="48.39401" lon="2.71975">
        <ele>98</ele>
        <time>2014-01-30T10:08:29Z</time>
      </trkpt>
      <trkpt lat="48.39402" lon="2.71969">
        <ele>100</ele>
        <time>2014-01-30T10:09:09Z</time>
      </trkpt>
      <trkpt lat="48.39408" lon="2.71959">
        <ele>100</ele>
        <time>2014-01-30T10:09:40Z</time>
      </trkpt>
      <trkpt lat="48.39414" lon="2.7195">
        <ele>99</ele>
        <time>2014-01-30T10:10:09Z</time>
      </trkpt>
      <trkpt lat="48.39411" lon="2.71945">
        <ele>99</ele>
        <time>2014-01-30T10:10:57Z</time>
      </trkpt>
      <trkpt lat="48.3942" lon="2.71933">
        <ele>99</ele>
        <time>2014-01-30T10:12:14Z</time>
      </trkpt>
      <trkpt lat="48.39418" lon="2.7192">
        <ele>101</ele>
        <time>2014-01-30T10:12:28Z</time>
      </trkpt>
      <trkpt lat="48.39418" lon="2.71908">
        <ele>103</ele>
        <time>2014-01-30T10:13:14Z</time>
      </trkpt>
      <trkpt lat="48.39414" lon="2.71895">
        <ele>105</ele>
        <time>2014-01-30T10:13:27Z</time>
      </trkpt>
      <trkpt lat="48.39407" lon="2.7189">
        <ele>108</ele>
        <time>2014-01-30T10:13:43Z</time>
      </trkpt>
      <trkpt lat="48.39409" lon="2.71903">
        <ele>110</ele>
        <time>2014-01-30T10:14:02Z</time>
      </trkpt>
      <trkpt lat="48.39406" lon="2.71907">
        <ele>112</ele>
        <time>2014-01-30T10:15:57Z</time>
      </trkpt>
      <trkpt lat="48.39403" lon="2.719">
        <ele>114</ele>
        <time>2014-01-30T10:16:15Z</time>
      </trkpt>
      <trkpt lat="48.39399" lon="2.71913">
        <ele>115</ele>
        <time>2014-01-30T10:16:40Z</time>
      </trkpt>
      <trkpt lat="48.39398" lon="2.71923">
        <ele>115</ele>
        <time>2014-01-30T10:16:53Z</time>
      </trkpt>
      <trkpt lat="48.39387" lon="2.71926">
        <ele>115</ele>
        <time>2014-01-30T10:17:04Z</time>
      </trkpt>
      <trkpt lat="48.39378" lon="2.71912">
        <ele>113</ele>
        <time>2014-01-30T10:17:41Z</time>
      </trkpt>
      <trkpt lat="48.3938" lon="2.71906">
        <ele>113</ele>
        <time>2014-01-30T10:21:40Z</time>
      </trkpt>
      <trkpt lat="48.3938" lon="2.71909">
        <ele>113</ele>
        <time>2014-01-30T10:28:27Z</time>
      </trkpt>
      <trkpt lat="48.39375" lon="2.71906">
        <ele>113</ele>
        <time>2014-01-30T10:29:05Z</time>
      </trkpt>
      <trkpt lat="48.39379" lon="2.71893">
        <ele>113</ele>
        <time>2014-01-30T10:29:17Z</time>
      </trkpt>
      <trkpt lat="48.39378" lon="2.71881">
        <ele>112</ele>
        <time>2014-01-30T10:29:32Z</time>
      </trkpt>
      <trkpt lat="48.39369" lon="2.7188">
        <ele>111</ele>
        <time>2014-01-30T10:29:45Z</time>
      </trkpt>
      <trkpt lat="48.39364" lon="2.71864">
        <ele>110</ele>
        <time>2014-01-30T10:30:01Z</time>
      </trkpt>
      <trkpt lat="48.39372" lon="2.7186">
        <ele>109</ele>
        <time>2014-01-30T10:30:22Z</time>
      </trkpt>
      <trkpt lat="48.39367" lon="2.71853">
        <ele>107</ele>
        <time>2014-01-30T10:30:34Z</time>
      </trkpt>
      <trkpt lat="48.39362" lon="2.71842">
        <ele>106</ele>
        <time>2014-01-30T10:30:45Z</time>
      </trkpt>
      <trkpt lat="48.39367" lon="2.71831">
        <ele>105</ele>
        <time>2014-01-30T10:30:56Z</time>
      </trkpt>
      <trkpt lat="48.3936" lon="2.71826">
        <ele>103</ele>
        <time>2014-01-30T10:31:09Z</time>
      </trkpt>
      <trkpt lat="48.3935" lon="2.71824">
        <ele>103</ele>
        <time>2014-01-30T10:31:20Z</time>
      </trkpt>
      <trkpt lat="48.39348" lon="2.71807">
        <ele>102</ele>
        <time>2014-01-30T10:31:31Z</time>
      </trkpt>
      <trkpt lat="48.3935" lon="2.71795">
        <ele>101</ele>
        <time>2014-01-30T10:31:44Z</time>
      </trkpt>
      <trkpt lat="48.39344" lon="2.7178">
        <ele>99</ele>
        <time>2014-01-30T10:31:58Z</time>
      </trkpt>
      <trkpt lat="48.39345" lon="2.71765">
        <ele>98</ele>
        <time>2014-01-30T10:32:08Z</time>
      </trkpt>
      <trkpt lat="48.39349" lon="2.71755">
        <ele>98</ele>
        <time>2014-01-30T10:32:21Z</time>
      </trkpt>
      <trkpt lat="48.39351" lon="2.71739">
        <ele>98</ele>
        <time>2014-01-30T10:32:35Z</time>
      </trkpt>
      <trkpt lat="48.39354" lon="2.71737">
        <ele>98</ele>
        <time>2014-01-30T10:33:09Z</time>
      </trkpt>
      <trkpt lat="48.39368" lon="2.71726">
        <ele>95</ele>
        <time>2014-01-30T10:33:59Z</time>
      </trkpt>
      <trkpt lat="48.39375" lon="2.71719">
        <ele>96</ele>
        <time>2014-01-30T10:34:28Z</time>
      </trkpt>
      <trkpt lat="48.3937" lon="2.71707">
        <ele>97</ele>
        <time>2014-01-30T10:34:43Z</time>
      </trkpt>
      <trkpt lat="48.39361" lon="2.71699">
        <ele>97</ele>
        <time>2014-01-30T10:35:02Z</time>
      </trkpt>
      <trkpt lat="48.39355" lon="2.71714">
        <ele>97</ele>
        <time>2014-01-30T10:35:13Z</time>
      </trkpt>
      <trkpt lat="48.39347" lon="2.7172">
        <ele>96</ele>
        <time>2014-01-30T10:35:23Z</time>
      </trkpt>
      <trkpt lat="48.39338" lon="2.71727">
        <ele>97</ele>
        <time>2014-01-30T10:35:33Z</time>
      </trkpt>
      <trkpt lat="48.39328" lon="2.7172">
        <ele>97</ele>
        <time>2014-01-30T10:35:44Z</time>
      </trkpt>
      <trkpt lat="48.39329" lon="2.71704">
        <ele>96</ele>
        <time>2014-01-30T10:35:56Z</time>
      </trkpt>
      <trkpt lat="48.3933" lon="2.71688">
        <ele>96</ele>
        <time>2014-01-30T10:36:05Z</time>
      </trkpt>
      <trkpt lat="48.39336" lon="2.71677">
        <ele>95</ele>
        <time>2014-01-30T10:36:15Z</time>
      </trkpt>
      <trkpt lat="48.39342" lon="2.71663">
        <ele>95</ele>
        <time>2014-01-30T10:36:27Z</time>
      </trkpt>
      <trkpt lat="48.39342" lon="2.71649">
        <ele>96</ele>
        <time>2014-01-30T10:36:37Z</time>
      </trkpt>
      <trkpt lat="48.39348" lon="2.71638">
        <ele>96</ele>
        <time>2014-01-30T10:36:53Z</time>
      </trkpt>
      <trkpt lat="48.39357" lon="2.71629">
        <ele>95</ele>
        <time>2014-01-30T10:37:10Z</time>
      </trkpt>
      <trkpt lat="48.39367" lon="2.71617">
        <ele>94</ele>
        <time>2014-01-30T10:37:22Z</time>
      </trkpt>
      <trkpt lat="48.39374" lon="2.71606">
        <ele>94</ele>
        <time>2014-01-30T10:37:32Z</time>
      </trkpt>
      <trkpt lat="48.39383" lon="2.71599">
        <ele>95</ele>
        <time>2014-01-30T10:37:44Z</time>
      </trkpt>
      <trkpt lat="48.39391" lon="2.71588">
        <ele>94</ele>
        <time>2014-01-30T10:37:54Z</time>
      </trkpt>
      <trkpt lat="48.39401" lon="2.71589">
        <ele>93</ele>
        <time>2014-01-30T10:38:10Z</time>
      </trkpt>
      <trkpt lat="48.39411" lon="2.71584">
        <ele>93</ele>
        <time>2014-01-30T10:38:49Z</time>
      </trkpt>
      <trkpt lat="48.39408" lon="2.71571">
        <ele>95</ele>
        <time>2014-01-30T10:39:00Z</time>
      </trkpt>
      <trkpt lat="48.39399" lon="2.71572">
        <ele>96</ele>
        <time>2014-01-30T10:39:10Z</time>
      </trkpt>
      <trkpt lat="48.39391" lon="2.71581">
        <ele>97</ele>
        <time>2014-01-30T10:39:24Z</time>
      </trkpt>
      <trkpt lat="48.39384" lon="2.71577">
        <ele>98</ele>
        <time>2014-01-30T10:39:45Z</time>
      </trkpt>
      <trkpt lat="48.39375" lon="2.71572">
        <ele>98</ele>
        <time>2014-01-30T10:39:59Z</time>
      </trkpt>
      <trkpt lat="48.39364" lon="2.71562">
        <ele>96</ele>
        <time>2014-01-30T10:40:11Z</time>
      </trkpt>
      <trkpt lat="48.39359" lon="2.71545">
        <ele>95</ele>
        <time>2014-01-30T10:40:21Z</time>
      </trkpt>
      <trkpt lat="48.3936" lon="2.7153">
        <ele>93</ele>
        <time>2014-01-30T10:40:34Z</time>
      </trkpt>
      <trkpt lat="48.39366" lon="2.71529">
        <ele>91</ele>
        <time>2014-01-30T10:42:55Z</time>
      </trkpt>
      <trkpt lat="48.39376" lon="2.71522">
        <ele>90</ele>
        <time>2014-01-30T10:43:07Z</time>
      </trkpt>
      <trkpt lat="48.39376" lon="2.71506">
        <ele>89</ele>
        <time>2014-01-30T10:43:19Z</time>
      </trkpt>
      <trkpt lat="48.39382" lon="2.71492">
        <ele>88</ele>
        <time>2014-01-30T10:43:29Z</time>
      </trkpt>
      <trkpt lat="48.39383" lon="2.71474">
        <ele>87</ele>
        <time>2014-01-30T10:43:39Z</time>
      </trkpt>
      <trkpt lat="48.39389" lon="2.71463">
        <ele>86</ele>
        <time>2014-01-30T10:43:48Z</time>
      </trkpt>
      <trkpt lat="48.39396" lon="2.71455">
        <ele>86</ele>
        <time>2014-01-30T10:43:56Z</time>
      </trkpt>
      <trkpt lat="48.39404" lon="2.71447">
        <ele>85</ele>
        <time>2014-01-30T10:44:04Z</time>
      </trkpt>
      <trkpt lat="48.39414" lon="2.71444">
        <ele>84</ele>
        <time>2014-01-30T10:44:13Z</time>
      </trkpt>
      <trkpt lat="48.39423" lon="2.71449">
        <ele>84</ele>
        <time>2014-01-30T10:44:26Z</time>
      </trkpt>
      <trkpt lat="48.39431" lon="2.71443">
        <ele>84</ele>
        <time>2014-01-30T10:44:36Z</time>
      </trkpt>
      <trkpt lat="48.39439" lon="2.71432">
        <ele>83</ele>
        <time>2014-01-30T10:44:45Z</time>
      </trkpt>
      <trkpt lat="48.39445" lon="2.7142">
        <ele>82</ele>
        <time>2014-01-30T10:44:54Z</time>
      </trkpt>
      <trkpt lat="48.39449" lon="2.71406">
        <ele>81</ele>
        <time>2014-01-30T10:45:03Z</time>
      </trkpt>
      <trkpt lat="48.39453" lon="2.71394">
        <ele>81</ele>
        <time>2014-01-30T10:45:11Z</time>
      </trkpt>
      <trkpt lat="48.39457" lon="2.7138">
        <ele>80</ele>
        <time>2014-01-30T10:45:21Z</time>
      </trkpt>
      <trkpt lat="48.39463" lon="2.71366">
        <ele>80</ele>
        <time>2014-01-30T10:45:30Z</time>
      </trkpt>
      <trkpt lat="48.39467" lon="2.71352">
        <ele>80</ele>
        <time>2014-01-30T10:45:42Z</time>
      </trkpt>
      <trkpt lat="48.39467" lon="2.71336">
        <ele>79</ele>
        <time>2014-01-30T10:45:52Z</time>
      </trkpt>
      <trkpt lat="48.39461" lon="2.71325">
        <ele>78</ele>
        <time>2014-01-30T10:46:01Z</time>
      </trkpt>
      <trkpt lat="48.39458" lon="2.7131">
        <ele>78</ele>
        <time>2014-01-30T10:46:10Z</time>
      </trkpt>
      <trkpt lat="48.39451" lon="2.71299">
        <ele>77</ele>
        <time>2014-01-30T10:46:22Z</time>
      </trkpt>
      <trkpt lat="48.39453" lon="2.71282">
        <ele>77</ele>
        <time>2014-01-30T10:46:31Z</time>
      </trkpt>
      <trkpt lat="48.39459" lon="2.71269">
        <ele>76</ele>
        <time>2014-01-30T10:46:39Z</time>
      </trkpt>
      <trkpt lat="48.39464" lon="2.71258">
        <ele>77</ele>
        <time>2014-01-30T10:46:49Z</time>
      </trkpt>
      <trkpt lat="48.39469" lon="2.71258">
        <ele>76</ele>
        <time>2014-01-30T10:47:14Z</time>
      </trkpt>
      <trkpt lat="48.39476" lon="2.71247">
        <ele>76</ele>
        <time>2014-01-30T10:47:24Z</time>
      </trkpt>
      <trkpt lat="48.39477" lon="2.71235">
        <ele>76</ele>
        <time>2014-01-30T10:48:25Z</time>
      </trkpt>
      <trkpt lat="48.39489" lon="2.7122">
        <ele>78</ele>
        <time>2014-01-30T11:04:33Z</time>
      </trkpt>
      <trkpt lat="48.39471" lon="2.71228">
        <ele>78</ele>
        <time>2014-01-30T11:04:43Z</time>
      </trkpt>
      <trkpt lat="48.39463" lon="2.71235">
        <ele>78</ele>
        <time>2014-01-30T11:05:16Z</time>
      </trkpt>
      <trkpt lat="48.39455" lon="2.71234">
        <ele>79</ele>
        <time>2014-01-30T11:06:06Z</time>
      </trkpt>
      <trkpt lat="48.39438" lon="2.7124">
        <ele>79</ele>
        <time>2014-01-30T11:06:57Z</time>
      </trkpt>
      <trkpt lat="48.39425" lon="2.7124">
        <ele>80</ele>
        <time>2014-01-30T11:07:06Z</time>
      </trkpt>
      <trkpt lat="48.39415" lon="2.71243">
        <ele>81</ele>
        <time>2014-01-30T11:07:17Z</time>
      </trkpt>
      <trkpt lat="48.39405" lon="2.71245">
        <ele>81</ele>
        <time>2014-01-30T11:07:28Z</time>
      </trkpt>
      <trkpt lat="48.39394" lon="2.71243">
        <ele>82</ele>
        <time>2014-01-30T11:07:38Z</time>
      </trkpt>
      <trkpt lat="48.39383" lon="2.71241">
        <ele>84</ele>
        <time>2014-01-30T11:07:48Z</time>
      </trkpt>
      <trkpt lat="48.39373" lon="2.71242">
        <ele>86</ele>
        <time>2014-01-30T11:08:01Z</time>
      </trkpt>
      <trkpt lat="48.39361" lon="2.71242">
        <ele>87</ele>
        <time>2014-01-30T11:08:16Z</time>
      </trkpt>
      <trkpt lat="48.39354" lon="2.71251">
        <ele>89</ele>
        <time>2014-01-30T11:09:02Z</time>
      </trkpt>
      <trkpt lat="48.3935" lon="2.71263">
        <ele>90</ele>
        <time>2014-01-30T11:09:13Z</time>
      </trkpt>
      <trkpt lat="48.39347" lon="2.71277">
        <ele>92</ele>
        <time>2014-01-30T11:09:31Z</time>
      </trkpt>
      <trkpt lat="48.39338" lon="2.71289">
        <ele>94</ele>
        <time>2014-01-30T11:09:43Z</time>
      </trkpt>
      <trkpt lat="48.39336" lon="2.71304">
        <ele>96</ele>
        <time>2014-01-30T11:09:54Z</time>
      </trkpt>
      <trkpt lat="48.3933" lon="2.71317">
        <ele>97</ele>
        <time>2014-01-30T11:10:04Z</time>
      </trkpt>
      <trkpt lat="48.39323" lon="2.71329">
        <ele>98</ele>
        <time>2014-01-30T11:10:14Z</time>
      </trkpt>
      <trkpt lat="48.39315" lon="2.71332">
        <ele>97</ele>
        <time>2014-01-30T11:11:18Z</time>
      </trkpt>
      <trkpt lat="48.39303" lon="2.71332">
        <ele>96</ele>
        <time>2014-01-30T11:11:46Z</time>
      </trkpt>
      <trkpt lat="48.39291" lon="2.71329">
        <ele>95</ele>
        <time>2014-01-30T11:11:55Z</time>
      </trkpt>
      <trkpt lat="48.39279" lon="2.71322">
        <ele>93</ele>
        <time>2014-01-30T11:12:07Z</time>
      </trkpt>
      <trkpt lat="48.39269" lon="2.71331">
        <ele>92</ele>
        <time>2014-01-30T11:12:20Z</time>
      </trkpt>
      <trkpt lat="48.39261" lon="2.71333">
        <ele>91</ele>
        <time>2014-01-30T11:12:35Z</time>
      </trkpt>
      <trkpt lat="48.39247" lon="2.71338">
        <ele>90</ele>
        <time>2014-01-30T11:12:46Z</time>
      </trkpt>
      <trkpt lat="48.39235" lon="2.71342">
        <ele>90</ele>
        <time>2014-01-30T11:12:57Z</time>
      </trkpt>
      <trkpt lat="48.39224" lon="2.71346">
        <ele>88</ele>
        <time>2014-01-30T11:13:07Z</time>
      </trkpt>
      <trkpt lat="48.39212" lon="2.71349">
        <ele>87</ele>
        <time>2014-01-30T11:13:16Z</time>
      </trkpt>
      <trkpt lat="48.39201" lon="2.7135">
        <ele>86</ele>
        <time>2014-01-30T11:13:25Z</time>
      </trkpt>
      <trkpt lat="48.39191" lon="2.71357">
        <ele>86</ele>
        <time>2014-01-30T11:13:33Z</time>
      </trkpt>
      <trkpt lat="48.39165" lon="2.71362">
        <ele>84</ele>
        <time>2014-01-30T11:26:25Z</time>
      </trkpt>
      <trkpt lat="48.39155" lon="2.71362">
        <ele>83</ele>
        <time>2014-01-30T11:27:34Z</time>
      </trkpt>
      <trkpt lat="48.39143" lon="2.71364">
        <ele>83</ele>
        <time>2014-01-30T11:27:42Z</time>
      </trkpt>
      <trkpt lat="48.39132" lon="2.71365">
        <ele>84</ele>
        <time>2014-01-30T11:27:50Z</time>
      </trkpt>
      <trkpt lat="48.39121" lon="2.71366">
        <ele>84</ele>
        <time>2014-01-30T11:27:57Z</time>
      </trkpt>
      <trkpt lat="48.39111" lon="2.71364">
        <ele>85</ele>
        <time>2014-01-30T11:28:07Z</time>
      </trkpt>
      <trkpt lat="48.391" lon="2.71365">
        <ele>85</ele>
        <time>2014-01-30T11:28:17Z</time>
      </trkpt>
      <trkpt lat="48.39089" lon="2.71368">
        <ele>86</ele>
        <time>2014-01-30T11:28:24Z</time>
      </trkpt>
      <trkpt lat="48.39077" lon="2.71371">
        <ele>87</ele>
        <time>2014-01-30T11:28:33Z</time>
      </trkpt>
      <trkpt lat="48.39066" lon="2.71369">
        <ele>88</ele>
        <time>2014-01-30T11:28:44Z</time>
      </trkpt>
      <trkpt lat="48.39055" lon="2.7137">
        <ele>88</ele>
        <time>2014-01-30T11:28:52Z</time>
      </trkpt>
      <trkpt lat="48.39043" lon="2.7137">
        <ele>87</ele>
        <time>2014-01-30T11:28:59Z</time>
      </trkpt>
      <trkpt lat="48.39033" lon="2.71371">
        <ele>87</ele>
        <time>2014-01-30T11:29:07Z</time>
      </trkpt>
      <trkpt lat="48.39024" lon="2.71372">
        <ele>87</ele>
        <time>2014-01-30T11:29:14Z</time>
      </trkpt>
      <trkpt lat="48.39014" lon="2.71372">
        <ele>87</ele>
        <time>2014-01-30T11:29:22Z</time>
      </trkpt>
      <trkpt lat="48.39004" lon="2.71373">
        <ele>88</ele>
        <time>2014-01-30T11:29:30Z</time>
      </trkpt>
      <trkpt lat="48.38993" lon="2.71372">
        <ele>89</ele>
        <time>2014-01-30T11:29:38Z</time>
      </trkpt>
      <trkpt lat="48.38984" lon="2.71373">
        <ele>90</ele>
        <time>2014-01-30T11:29:50Z</time>
      </trkpt>
      <trkpt lat="48.38971" lon="2.71373">
        <ele>90</ele>
        <time>2014-01-30T11:29:58Z</time>
      </trkpt>
      <trkpt lat="48.3896" lon="2.71376">
        <ele>89</ele>
        <time>2014-01-30T11:30:05Z</time>
      </trkpt>
      <trkpt lat="48.38948" lon="2.71377">
        <ele>88</ele>
        <time>2014-01-30T11:30:12Z</time>
      </trkpt>
      <trkpt lat="48.38938" lon="2.71375">
        <ele>88</ele>
        <time>2014-01-30T11:30:20Z</time>
      </trkpt>
      <trkpt lat="48.38929" lon="2.71377">
        <ele>88</ele>
        <time>2014-01-30T11:30:28Z</time>
      </trkpt>
      <trkpt lat="48.38919" lon="2.71377">
        <ele>87</ele>
        <time>2014-01-30T11:30:35Z</time>
      </trkpt>
      <trkpt lat="48.38907" lon="2.71377">
        <ele>87</ele>
        <time>2014-01-30T11:30:44Z</time>
      </trkpt>
      <trkpt lat="48.38895" lon="2.71382">
        <ele>87</ele>
        <time>2014-01-30T11:30:52Z</time>
      </trkpt>
      <trkpt lat="48.38885" lon="2.71381">
        <ele>87</ele>
        <time>2014-01-30T11:31:00Z</time>
      </trkpt>
      <trkpt lat="48.38874" lon="2.71382">
        <ele>87</ele>
        <time>2014-01-30T11:31:08Z</time>
      </trkpt>
      <trkpt lat="48.38864" lon="2.71382">
        <ele>87</ele>
        <time>2014-01-30T11:31:16Z</time>
      </trkpt>
      <trkpt lat="48.38854" lon="2.71383">
        <ele>87</ele>
        <time>2014-01-30T11:32:53Z</time>
      </trkpt>
      <trkpt lat="48.38843" lon="2.71384">
        <ele>87</ele>
        <time>2014-01-30T11:33:01Z</time>
      </trkpt>
      <trkpt lat="48.38832" lon="2.71388">
        <ele>86</ele>
        <time>2014-01-30T11:33:10Z</time>
      </trkpt>
      <trkpt lat="48.38821" lon="2.71389">
        <ele>86</ele>
        <time>2014-01-30T11:33:16Z</time>
      </trkpt>
      <trkpt lat="48.38811" lon="2.7139">
        <ele>86</ele>
        <time>2014-01-30T11:33:23Z</time>
      </trkpt>
      <trkpt lat="48.38801" lon="2.71389">
        <ele>86</ele>
        <time>2014-01-30T11:33:30Z</time>
      </trkpt>
      <trkpt lat="48.38792" lon="2.71389">
        <ele>87</ele>
        <time>2014-01-30T11:33:37Z</time>
      </trkpt>
      <trkpt lat="48.3878" lon="2.7139">
        <ele>87</ele>
        <time>2014-01-30T11:33:45Z</time>
      </trkpt>
      <trkpt lat="48.3877" lon="2.71391">
        <ele>87</ele>
        <time>2014-01-30T11:33:53Z</time>
      </trkpt>
      <trkpt lat="48.38758" lon="2.71389">
        <ele>88</ele>
        <time>2014-01-30T11:34:01Z</time>
      </trkpt>
      <trkpt lat="48.38749" lon="2.71391">
        <ele>90</ele>
        <time>2014-01-30T11:34:09Z</time>
      </trkpt>
      <trkpt lat="48.38738" lon="2.71392">
        <ele>90</ele>
        <time>2014-01-30T11:34:17Z</time>
      </trkpt>
      <trkpt lat="48.38728" lon="2.71392">
        <ele>91</ele>
        <time>2014-01-30T11:34:24Z</time>
      </trkpt>
      <trkpt lat="48.38718" lon="2.71393">
        <ele>90</ele>
        <time>2014-01-30T11:34:32Z</time>
      </trkpt>
      <trkpt lat="48.38708" lon="2.71395">
        <ele>90</ele>
        <time>2014-01-30T11:34:39Z</time>
      </trkpt>
      <trkpt lat="48.38698" lon="2.71395">
        <ele>90</ele>
        <time>2014-01-30T11:34:46Z</time>
      </trkpt>
      <trkpt lat="48.38689" lon="2.71395">
        <ele>90</ele>
        <time>2014-01-30T11:34:53Z</time>
      </trkpt>
      <trkpt lat="48.38679" lon="2.71393">
        <ele>90</ele>
        <time>2014-01-30T11:35:01Z</time>
      </trkpt>
      <trkpt lat="48.38669" lon="2.71395">
        <ele>90</ele>
        <time>2014-01-30T11:35:08Z</time>
      </trkpt>
      <trkpt lat="48.38659" lon="2.71397">
        <ele>89</ele>
        <time>2014-01-30T11:35:15Z</time>
      </trkpt>
      <trkpt lat="48.38649" lon="2.71398">
        <ele>89</ele>
        <time>2014-01-30T11:35:22Z</time>
      </trkpt>
      <trkpt lat="48.38639" lon="2.71399">
        <ele>89</ele>
        <time>2014-01-30T11:35:28Z</time>
      </trkpt>
      <trkpt lat="48.38628" lon="2.714">
        <ele>88</ele>
        <time>2014-01-30T11:35:35Z</time>
      </trkpt>
      <trkpt lat="48.38619" lon="2.71402">
        <ele>87</ele>
        <time>2014-01-30T11:35:42Z</time>
      </trkpt>
      <trkpt lat="48.3861" lon="2.71401">
        <ele>87</ele>
        <time>2014-01-30T11:35:49Z</time>
      </trkpt>
      <trkpt lat="48.38598" lon="2.71403">
        <ele>87</ele>
        <time>2014-01-30T11:35:56Z</time>
      </trkpt>
      <trkpt lat="48.38588" lon="2.71403">
        <ele>86</ele>
        <time>2014-01-30T11:36:02Z</time>
      </trkpt>
      <trkpt lat="48.38579" lon="2.71402">
        <ele>86</ele>
        <time>2014-01-30T11:36:09Z</time>
      </trkpt>
      <trkpt lat="48.3857" lon="2.71405">
        <ele>86</ele>
        <time>2014-01-30T11:36:15Z</time>
      </trkpt>
      <trkpt lat="48.38559" lon="2.71405">
        <ele>86</ele>
        <time>2014-01-30T11:36:23Z</time>
      </trkpt>
      <trkpt lat="48.38549" lon="2.71405">
        <ele>85</ele>
        <time>2014-01-30T11:36:29Z</time>
      </trkpt>
      <trkpt lat="48.38539" lon="2.71406">
        <ele>84</ele>
        <time>2014-01-30T11:36:37Z</time>
      </trkpt>
      <trkpt lat="48.38529" lon="2.71408">
        <ele>84</ele>
        <time>2014-01-30T11:36:44Z</time>
      </trkpt>
      <trkpt lat="48.38516" lon="2.71409">
        <ele>83</ele>
        <time>2014-01-30T11:36:51Z</time>
      </trkpt>
      <trkpt lat="48.38506" lon="2.71411">
        <ele>84</ele>
        <time>2014-01-30T11:36:58Z</time>
      </trkpt>
      <trkpt lat="48.38495" lon="2.71409">
        <ele>83</ele>
        <time>2014-01-30T11:37:08Z</time>
      </trkpt>
      <trkpt lat="48.38482" lon="2.71409">
        <ele>82</ele>
        <time>2014-01-30T11:37:16Z</time>
      </trkpt>
      <trkpt lat="48.38472" lon="2.71411">
        <ele>82</ele>
        <time>2014-01-30T11:37:23Z</time>
      </trkpt>
      <trkpt lat="48.3846" lon="2.7141">
        <ele>81</ele>
        <time>2014-01-30T11:37:33Z</time>
      </trkpt>
      <trkpt lat="48.38451" lon="2.71412">
        <ele>82</ele>
        <time>2014-01-30T11:38:14Z</time>
      </trkpt>
      <trkpt lat="48.38441" lon="2.71411">
        <ele>82</ele>
        <time>2014-01-30T11:38:33Z</time>
      </trkpt>
      <trkpt lat="48.3843" lon="2.7141">
        <ele>83</ele>
        <time>2014-01-30T11:38:41Z</time>
      </trkpt>
      <trkpt lat="48.3842" lon="2.71409">
        <ele>83</ele>
        <time>2014-01-30T11:38:49Z</time>
      </trkpt>
      <trkpt lat="48.38411" lon="2.71407">
        <ele>84</ele>
        <time>2014-01-30T11:38:57Z</time>
      </trkpt>
      <trkpt lat="48.38401" lon="2.71405">
        <ele>84</ele>
        <time>2014-01-30T11:39:06Z</time>
      </trkpt>
      <trkpt lat="48.38393" lon="2.7141">
        <ele>85</ele>
        <time>2014-01-30T11:39:34Z</time>
      </trkpt>
      <trkpt lat="48.3839" lon="2.71424">
        <ele>85</ele>
        <time>2014-01-30T11:39:46Z</time>
      </trkpt>
      <trkpt lat="48.3838" lon="2.71429">
        <ele>86</ele>
        <time>2014-01-30T11:39:57Z</time>
      </trkpt>
      <trkpt lat="48.38372" lon="2.71418">
        <ele>89</ele>
        <time>2014-01-30T11:40:11Z</time>
      </trkpt>
      <trkpt lat="48.38363" lon="2.71405">
        <ele>90</ele>
        <time>2014-01-30T11:40:21Z</time>
      </trkpt>
      <trkpt lat="48.38353" lon="2.71398">
        <ele>93</ele>
        <time>2014-01-30T11:40:37Z</time>
      </trkpt>
      <trkpt lat="48.38344" lon="2.71393">
        <ele>94</ele>
        <time>2014-01-30T11:41:00Z</time>
      </trkpt>
      <trkpt lat="48.3834" lon="2.7138">
        <ele>92</ele>
        <time>2014-01-30T11:41:17Z</time>
      </trkpt>
      <trkpt lat="48.38335" lon="2.71366">
        <ele>91</ele>
        <time>2014-01-30T11:41:26Z</time>
      </trkpt>
      <trkpt lat="48.38332" lon="2.71354">
        <ele>91</ele>
        <time>2014-01-30T11:41:47Z</time>
      </trkpt>
      <trkpt lat="48.38326" lon="2.7134">
        <ele>93</ele>
        <time>2014-01-30T11:41:58Z</time>
      </trkpt>
      <trkpt lat="48.38317" lon="2.71341">
        <ele>95</ele>
        <time>2014-01-30T11:42:10Z</time>
      </trkpt>
      <trkpt lat="48.38316" lon="2.71331">
        <ele>98</ele>
        <time>2014-01-30T11:42:24Z</time>
      </trkpt>
      <trkpt lat="48.38324" lon="2.71323">
        <ele>99</ele>
        <time>2014-01-30T11:42:34Z</time>
      </trkpt>
      <trkpt lat="48.38333" lon="2.71316">
        <ele>100</ele>
        <time>2014-01-30T11:42:46Z</time>
      </trkpt>
      <trkpt lat="48.38342" lon="2.7131">
        <ele>101</ele>
        <time>2014-01-30T11:42:58Z</time>
      </trkpt>
      <trkpt lat="48.3835" lon="2.71309">
        <ele>101</ele>
        <time>2014-01-30T11:43:18Z</time>
      </trkpt>
      <trkpt lat="48.38355" lon="2.71299">
        <ele>103</ele>
        <time>2014-01-30T11:43:30Z</time>
      </trkpt>
      <trkpt lat="48.38356" lon="2.71285">
        <ele>105</ele>
        <time>2014-01-30T11:43:47Z</time>
      </trkpt>
      <trkpt lat="48.38349" lon="2.71285">
        <ele>107</ele>
        <time>2014-01-30T11:44:00Z</time>
      </trkpt>
      <trkpt lat="48.38351" lon="2.71272">
        <ele>110</ele>
        <time>2014-01-30T11:44:13Z</time>
      </trkpt>
      <trkpt lat="48.38341" lon="2.71262">
        <ele>112</ele>
        <time>2014-01-30T11:44:31Z</time>
      </trkpt>
      <trkpt lat="48.38333" lon="2.71251">
        <ele>114</ele>
        <time>2014-01-30T11:44:45Z</time>
      </trkpt>
      <trkpt lat="48.38329" lon="2.7124">
        <ele>115</ele>
        <time>2014-01-30T11:45:12Z</time>
      </trkpt>
      <trkpt lat="48.38326" lon="2.71227">
        <ele>117</ele>
        <time>2014-01-30T11:45:26Z</time>
      </trkpt>
      <trkpt lat="48.38318" lon="2.71228">
        <ele>119</ele>
        <time>2014-01-30T11:45:43Z</time>
      </trkpt>
      <trkpt lat="48.38309" lon="2.71228">
        <ele>122</ele>
        <time>2014-01-30T11:46:14Z</time>
      </trkpt>
      <trkpt lat="48.38303" lon="2.71218">
        <ele>124</ele>
        <time>2014-01-30T11:46:29Z</time>
      </trkpt>
      <trkpt lat="48.38296" lon="2.7121">
        <ele>125</ele>
        <time>2014-01-30T11:46:41Z</time>
      </trkpt>
      <trkpt lat="48.38292" lon="2.71197">
        <ele>126</ele>
        <time>2014-01-30T11:47:15Z</time>
      </trkpt>
      <trkpt lat="48.38287" lon="2.71183">
        <ele>127</ele>
        <time>2014-01-30T11:47:27Z</time>
      </trkpt>
      <trkpt lat="48.38286" lon="2.7117">
        <ele>127</ele>
        <time>2014-01-30T11:47:38Z</time>
      </trkpt>
      <trkpt lat="48.38288" lon="2.71154">
        <ele>128</ele>
        <time>2014-01-30T11:47:52Z</time>
      </trkpt>
      <trkpt lat="48.38295" lon="2.71144">
        <ele>127</ele>
        <time>2014-01-30T11:48:08Z</time>
      </trkpt>
      <trkpt lat="48.38292" lon="2.71129">
        <ele>127</ele>
        <time>2014-01-30T11:48:20Z</time>
      </trkpt>
      <trkpt lat="48.38297" lon="2.71116">
        <ele>127</ele>
        <time>2014-01-30T11:48:32Z</time>
      </trkpt>
      <trkpt lat="48.38303" lon="2.71104">
        <ele>127</ele>
        <time>2014-01-30T11:48:45Z</time>
      </trkpt>
      <trkpt lat="48.38299" lon="2.71093">
        <ele>127</ele>
        <time>2014-01-30T11:48:57Z</time>
      </trkpt>
      <trkpt lat="48.383" lon="2.71077">
        <ele>127</ele>
        <time>2014-01-30T11:49:07Z</time>
      </trkpt>
      <trkpt lat="48.38299" lon="2.71063">
        <ele>127</ele>
        <time>2014-01-30T11:49:18Z</time>
      </trkpt>
      <trkpt lat="48.38301" lon="2.71054">
        <ele>126</ele>
        <time>2014-01-30T11:49:29Z</time>
      </trkpt>
      <trkpt lat="48.38311" lon="2.71048">
        <ele>126</ele>
        <time>2014-01-30T11:49:38Z</time>
      </trkpt>
      <trkpt lat="48.38315" lon="2.71033">
        <ele>125</ele>
        <time>2014-01-30T11:49:48Z</time>
      </trkpt>
      <trkpt lat="48.38314" lon="2.71017">
        <ele>125</ele>
        <time>2014-01-30T11:49:56Z</time>
      </trkpt>
      <trkpt lat="48.38318" lon="2.71003">
        <ele>125</ele>
        <time>2014-01-30T11:50:05Z</time>
      </trkpt>
      <trkpt lat="48.38318" lon="2.70987">
        <ele>125</ele>
        <time>2014-01-30T11:50:12Z</time>
      </trkpt>
      <trkpt lat="48.38324" lon="2.70976">
        <ele>126</ele>
        <time>2014-01-30T11:50:21Z</time>
      </trkpt>
      <trkpt lat="48.3833" lon="2.70967">
        <ele>126</ele>
        <time>2014-01-30T11:50:32Z</time>
      </trkpt>
      <trkpt lat="48.38335" lon="2.70955">
        <ele>125</ele>
        <time>2014-01-30T11:50:41Z</time>
      </trkpt>
      <trkpt lat="48.38341" lon="2.70943">
        <ele>124</ele>
        <time>2014-01-30T11:50:48Z</time>
      </trkpt>
      <trkpt lat="48.38345" lon="2.7093">
        <ele>126</ele>
        <time>2014-01-30T11:51:02Z</time>
      </trkpt>
      <trkpt lat="48.38345" lon="2.70915">
        <ele>126</ele>
        <time>2014-01-30T11:51:12Z</time>
      </trkpt>
      <trkpt lat="48.38343" lon="2.70901">
        <ele>126</ele>
        <time>2014-01-30T11:51:20Z</time>
      </trkpt>
      <trkpt lat="48.38351" lon="2.7089">
        <ele>126</ele>
        <time>2014-01-30T11:51:29Z</time>
      </trkpt>
      <trkpt lat="48.38357" lon="2.70876">
        <ele>126</ele>
        <time>2014-01-30T11:51:38Z</time>
      </trkpt>
      <trkpt lat="48.38359" lon="2.70858">
        <ele>125</ele>
        <time>2014-01-30T11:51:47Z</time>
      </trkpt>
      <trkpt lat="48.38358" lon="2.70844">
        <ele>126</ele>
        <time>2014-01-30T11:51:54Z</time>
      </trkpt>
      <trkpt lat="48.38359" lon="2.7083">
        <ele>125</ele>
        <time>2014-01-30T11:52:01Z</time>
      </trkpt>
      <trkpt lat="48.38365" lon="2.7082">
        <ele>125</ele>
        <time>2014-01-30T11:52:09Z</time>
      </trkpt>
      <trkpt lat="48.38374" lon="2.70812">
        <ele>125</ele>
        <time>2014-01-30T11:52:18Z</time>
      </trkpt>
      <trkpt lat="48.38379" lon="2.70803">
        <ele>125</ele>
        <time>2014-01-30T11:52:27Z</time>
      </trkpt>
      <trkpt lat="48.38385" lon="2.70795">
        <ele>124</ele>
        <time>2014-01-30T11:53:08Z</time>
      </trkpt>
      <trkpt lat="48.38383" lon="2.70775">
        <ele>125</ele>
        <time>2014-01-30T11:54:29Z</time>
      </trkpt>
      <trkpt lat="48.38381" lon="2.70757">
        <ele>123</ele>
        <time>2014-01-30T11:54:41Z</time>
      </trkpt>
      <trkpt lat="48.38381" lon="2.70741">
        <ele>123</ele>
        <time>2014-01-30T11:54:51Z</time>
      </trkpt>
      <trkpt lat="48.38384" lon="2.70727">
        <ele>124</ele>
        <time>2014-01-30T11:55:01Z</time>
      </trkpt>
      <trkpt lat="48.38392" lon="2.70715">
        <ele>124</ele>
        <time>2014-01-30T11:55:11Z</time>
      </trkpt>
      <trkpt lat="48.38394" lon="2.707">
        <ele>124</ele>
        <time>2014-01-30T11:55:19Z</time>
      </trkpt>
      <trkpt lat="48.384" lon="2.70687">
        <ele>124</ele>
        <time>2014-01-30T11:55:30Z</time>
      </trkpt>
      <trkpt lat="48.38401" lon="2.70674">
        <ele>124</ele>
        <time>2014-01-30T11:55:39Z</time>
      </trkpt>
      <trkpt lat="48.38405" lon="2.7066">
        <ele>124</ele>
        <time>2014-01-30T11:55:51Z</time>
      </trkpt>
      <trkpt lat="48.38411" lon="2.70645">
        <ele>123</ele>
        <time>2014-01-30T11:55:59Z</time>
      </trkpt>
      <trkpt lat="48.38413" lon="2.70633">
        <ele>123</ele>
        <time>2014-01-30T11:58:16Z</time>
      </trkpt>
      <trkpt lat="48.3842" lon="2.7063">
        <ele>123</ele>
        <time>2014-01-30T11:58:55Z</time>
      </trkpt>
      <trkpt lat="48.38431" lon="2.70626">
        <ele>123</ele>
        <time>2014-01-30T11:59:05Z</time>
      </trkpt>
      <trkpt lat="48.38434" lon="2.70612">
        <ele>123</ele>
        <time>2014-01-30T11:59:13Z</time>
      </trkpt>
      <trkpt lat="48.38435" lon="2.70596">
        <ele>124</ele>
        <time>2014-01-30T11:59:25Z</time>
      </trkpt>
      <trkpt lat="48.38435" lon="2.70588">
        <ele>122</ele>
        <time>2014-01-30T11:59:42Z</time>
      </trkpt>
      <trkpt lat="48.38434" lon="2.70572">
        <ele>122</ele>
        <time>2014-01-30T11:59:54Z</time>
      </trkpt>
      <trkpt lat="48.38429" lon="2.7056">
        <ele>122</ele>
        <time>2014-01-30T12:00:03Z</time>
      </trkpt>
      <trkpt lat="48.38423" lon="2.70547">
        <ele>122</ele>
        <time>2014-01-30T12:00:12Z</time>
      </trkpt>
      <trkpt lat="48.38419" lon="2.70536">
        <ele>122</ele>
        <time>2014-01-30T12:00:22Z</time>
      </trkpt>
      <trkpt lat="48.3842" lon="2.7052">
        <ele>121</ele>
        <time>2014-01-30T12:00:41Z</time>
      </trkpt>
      <trkpt lat="48.38418" lon="2.70505">
        <ele>121</ele>
        <time>2014-01-30T12:00:52Z</time>
      </trkpt>
      <trkpt lat="48.38413" lon="2.70497">
        <ele>122</ele>
        <time>2014-01-30T12:01:13Z</time>
      </trkpt>
      <trkpt lat="48.38414" lon="2.7048">
        <ele>124</ele>
        <time>2014-01-30T12:01:24Z</time>
      </trkpt>
      <trkpt lat="48.38422" lon="2.7047">
        <ele>125</ele>
        <time>2014-01-30T12:01:35Z</time>
      </trkpt>
      <trkpt lat="48.38423" lon="2.70455">
        <ele>124</ele>
        <time>2014-01-30T12:02:06Z</time>
      </trkpt>
      <trkpt lat="48.38423" lon="2.70437">
        <ele>124</ele>
        <time>2014-01-30T12:02:15Z</time>
      </trkpt>
      <trkpt lat="48.38416" lon="2.70428">
        <ele>124</ele>
        <time>2014-01-30T12:02:26Z</time>
      </trkpt>
      <trkpt lat="48.3841" lon="2.70416">
        <ele>123</ele>
        <time>2014-01-30T12:03:09Z</time>
      </trkpt>
      <trkpt lat="48.38406" lon="2.70398">
        <ele>122</ele>
        <time>2014-01-30T12:03:18Z</time>
      </trkpt>
      <trkpt lat="48.38406" lon="2.70382">
        <ele>123</ele>
        <time>2014-01-30T12:03:27Z</time>
      </trkpt>
      <trkpt lat="48.38408" lon="2.70368">
        <ele>123</ele>
        <time>2014-01-30T12:03:35Z</time>
      </trkpt>
      <trkpt lat="48.38413" lon="2.70357">
        <ele>123</ele>
        <time>2014-01-30T12:03:54Z</time>
      </trkpt>
      <trkpt lat="48.38419" lon="2.70345">
        <ele>123</ele>
        <time>2014-01-30T12:04:04Z</time>
      </trkpt>
      <trkpt lat="48.38423" lon="2.70335">
        <ele>123</ele>
        <time>2014-01-30T12:04:25Z</time>
      </trkpt>
      <trkpt lat="48.38423" lon="2.70324">
        <ele>123</ele>
        <time>2014-01-30T12:04:35Z</time>
      </trkpt>
      <trkpt lat="48.38429" lon="2.70312">
        <ele>123</ele>
        <time>2014-01-30T12:04:46Z</time>
      </trkpt>
      <trkpt lat="48.38429" lon="2.70298">
        <ele>122</ele>
        <time>2014-01-30T12:05:08Z</time>
      </trkpt>
      <trkpt lat="48.38431" lon="2.70282">
        <ele>122</ele>
        <time>2014-01-30T12:05:20Z</time>
      </trkpt>
      <trkpt lat="48.3844" lon="2.70273">
        <ele>121</ele>
        <time>2014-01-30T12:05:28Z</time>
      </trkpt>
      <trkpt lat="48.38444" lon="2.70259">
        <ele>120</ele>
        <time>2014-01-30T12:05:37Z</time>
      </trkpt>
      <trkpt lat="48.3845" lon="2.70246">
        <ele>119</ele>
        <time>2014-01-30T12:05:46Z</time>
      </trkpt>
      <trkpt lat="48.38452" lon="2.70231">
        <ele>120</ele>
        <time>2014-01-30T12:05:57Z</time>
      </trkpt>
      <trkpt lat="48.38458" lon="2.70221">
        <ele>122</ele>
        <time>2014-01-30T12:06:10Z</time>
      </trkpt>
      <trkpt lat="48.38455" lon="2.7021">
        <ele>123</ele>
        <time>2014-01-30T12:06:20Z</time>
      </trkpt>
      <trkpt lat="48.38457" lon="2.70194">
        <ele>124</ele>
        <time>2014-01-30T12:06:40Z</time>
      </trkpt>
      <trkpt lat="48.38459" lon="2.7018">
        <ele>123</ele>
        <time>2014-01-30T12:07:01Z</time>
      </trkpt>
      <trkpt lat="48.38464" lon="2.70186">
        <ele>122</ele>
        <time>2014-01-30T12:07:20Z</time>
      </trkpt>
      <trkpt lat="48.38471" lon="2.70175">
        <ele>120</ele>
        <time>2014-01-30T12:07:34Z</time>
      </trkpt>
      <trkpt lat="48.38475" lon="2.70163">
        <ele>119</ele>
        <time>2014-01-30T12:07:46Z</time>
      </trkpt>
      <trkpt lat="48.3847" lon="2.70159">
        <ele>122</ele>
        <time>2014-01-30T12:08:23Z</time>
      </trkpt>
      <trkpt lat="48.38463" lon="2.70151">
        <ele>123</ele>
        <time>2014-01-30T12:08:35Z</time>
      </trkpt>
      <trkpt lat="48.38463" lon="2.70136">
        <ele>121</ele>
        <time>2014-01-30T12:08:45Z</time>
      </trkpt>
      <trkpt lat="48.38459" lon="2.70128">
        <ele>122</ele>
        <time>2014-01-30T12:09:06Z</time>
      </trkpt>
      <trkpt lat="48.38454" lon="2.70117">
        <ele>122</ele>
        <time>2014-01-30T12:09:19Z</time>
      </trkpt>
      <trkpt lat="48.38451" lon="2.70102">
        <ele>123</ele>
        <time>2014-01-30T12:09:28Z</time>
      </trkpt>
      <trkpt lat="48.38451" lon="2.70087">
        <ele>124</ele>
        <time>2014-01-30T12:09:38Z</time>
      </trkpt>
      <trkpt lat="48.38454" lon="2.70071">
        <ele>124</ele>
        <time>2014-01-30T12:09:48Z</time>
      </trkpt>
      <trkpt lat="48.38458" lon="2.70057">
        <ele>124</ele>
        <time>2014-01-30T12:09:58Z</time>
      </trkpt>
      <trkpt lat="48.38464" lon="2.70047">
        <ele>123</ele>
        <time>2014-01-30T12:10:10Z</time>
      </trkpt>
      <trkpt lat="48.38469" lon="2.70032">
        <ele>123</ele>
        <time>2014-01-30T12:10:22Z</time>
      </trkpt>
      <trkpt lat="48.38467" lon="2.70023">
        <ele>122</ele>
        <time>2014-01-30T12:10:34Z</time>
      </trkpt>
      <trkpt lat="48.38469" lon="2.70008">
        <ele>122</ele>
        <time>2014-01-30T12:10:43Z</time>
      </trkpt>
      <trkpt lat="48.38468" lon="2.69991">
        <ele>121</ele>
        <time>2014-01-30T12:10:51Z</time>
      </trkpt>
      <trkpt lat="48.3847" lon="2.69977">
        <ele>121</ele>
        <time>2014-01-30T12:10:59Z</time>
      </trkpt>
      <trkpt lat="48.38468" lon="2.69962">
        <ele>121</ele>
        <time>2014-01-30T12:11:09Z</time>
      </trkpt>
      <trkpt lat="48.38466" lon="2.69948">
        <ele>120</ele>
        <time>2014-01-30T12:11:21Z</time>
      </trkpt>
      <trkpt lat="48.38468" lon="2.69933">
        <ele>118</ele>
        <time>2014-01-30T12:11:31Z</time>
      </trkpt>
      <trkpt lat="48.3847" lon="2.69918">
        <ele>117</ele>
        <time>2014-01-30T12:11:41Z</time>
      </trkpt>
      <trkpt lat="48.3847" lon="2.69901">
        <ele>116</ele>
        <time>2014-01-30T12:11:51Z</time>
      </trkpt>
      <trkpt lat="48.38473" lon="2.69887">
        <ele>114</ele>
        <time>2014-01-30T12:12:04Z</time>
      </trkpt>
      <trkpt lat="48.38473" lon="2.69872">
        <ele>113</ele>
        <time>2014-01-30T12:12:13Z</time>
      </trkpt>
      <trkpt lat="48.38482" lon="2.69863">
        <ele>110</ele>
        <time>2014-01-30T12:12:23Z</time>
      </trkpt>
      <trkpt lat="48.38486" lon="2.69852">
        <ele>108</ele>
        <time>2014-01-30T12:12:34Z</time>
      </trkpt>
      <trkpt lat="48.3848" lon="2.69842">
        <ele>108</ele>
        <time>2014-01-30T12:12:43Z</time>
      </trkpt>
      <trkpt lat="48.38475" lon="2.6983">
        <ele>108</ele>
        <time>2014-01-30T12:12:53Z</time>
      </trkpt>
      <trkpt lat="48.38482" lon="2.69822">
        <ele>107</ele>
        <time>2014-01-30T12:13:06Z</time>
      </trkpt>
      <trkpt lat="48.38477" lon="2.6981">
        <ele>108</ele>
        <time>2014-01-30T12:13:15Z</time>
      </trkpt>
      <trkpt lat="48.38476" lon="2.69795">
        <ele>107</ele>
        <time>2014-01-30T12:13:23Z</time>
      </trkpt>
      <trkpt lat="48.38472" lon="2.69783">
        <ele>107</ele>
        <time>2014-01-30T12:13:30Z</time>
      </trkpt>
      <trkpt lat="48.38469" lon="2.69769">
        <ele>106</ele>
        <time>2014-01-30T12:13:39Z</time>
      </trkpt>
      <trkpt lat="48.38466" lon="2.69754">
        <ele>107</ele>
        <time>2014-01-30T12:13:49Z</time>
      </trkpt>
      <trkpt lat="48.38471" lon="2.69735">
        <ele>106</ele>
        <time>2014-01-30T12:13:58Z</time>
      </trkpt>
      <trkpt lat="48.38474" lon="2.6972">
        <ele>106</ele>
        <time>2014-01-30T12:14:07Z</time>
      </trkpt>
      <trkpt lat="48.38477" lon="2.69703">
        <ele>105</ele>
        <time>2014-01-30T12:14:15Z</time>
      </trkpt>
      <trkpt lat="48.38475" lon="2.69689">
        <ele>104</ele>
        <time>2014-01-30T12:14:23Z</time>
      </trkpt>
      <trkpt lat="48.38471" lon="2.69677">
        <ele>103</ele>
        <time>2014-01-30T12:14:32Z</time>
      </trkpt>
      <trkpt lat="48.38467" lon="2.69663">
        <ele>103</ele>
        <time>2014-01-30T12:14:39Z</time>
      </trkpt>
      <trkpt lat="48.38466" lon="2.69647">
        <ele>103</ele>
        <time>2014-01-30T12:14:51Z</time>
      </trkpt>
      <trkpt lat="48.38465" lon="2.69633">
        <ele>105</ele>
        <time>2014-01-30T12:15:00Z</time>
      </trkpt>
      <trkpt lat="48.38459" lon="2.69632">
        <ele>103</ele>
        <time>2014-01-30T12:15:14Z</time>
      </trkpt>
      <trkpt lat="48.38462" lon="2.69618">
        <ele>104</ele>
        <time>2014-01-30T12:15:30Z</time>
      </trkpt>
      <trkpt lat="48.38465" lon="2.69607">
        <ele>106</ele>
        <time>2014-01-30T12:15:47Z</time>
      </trkpt>
      <trkpt lat="48.38467" lon="2.69592">
        <ele>107</ele>
        <time>2014-01-30T12:16:37Z</time>
      </trkpt>
      <trkpt lat="48.38472" lon="2.69577">
        <ele>107</ele>
        <time>2014-01-30T12:17:00Z</time>
      </trkpt>
      <trkpt lat="48.38477" lon="2.69563">
        <ele>106</ele>
        <time>2014-01-30T12:17:10Z</time>
      </trkpt>
      <trkpt lat="48.38478" lon="2.69548">
        <ele>106</ele>
        <time>2014-01-30T12:17:18Z</time>
      </trkpt>
      <trkpt lat="48.38474" lon="2.69534">
        <ele>107</ele>
        <time>2014-01-30T12:17:29Z</time>
      </trkpt>
      <trkpt lat="48.38475" lon="2.69517">
        <ele>108</ele>
        <time>2014-01-30T12:17:39Z</time>
      </trkpt>
      <trkpt lat="48.38482" lon="2.69505">
        <ele>108</ele>
        <time>2014-01-30T12:17:56Z</time>
      </trkpt>
      <trkpt lat="48.38486" lon="2.69491">
        <ele>107</ele>
        <time>2014-01-30T12:18:04Z</time>
      </trkpt>
      <trkpt lat="48.38488" lon="2.69477">
        <ele>107</ele>
        <time>2014-01-30T12:18:13Z</time>
      </trkpt>
      <trkpt lat="48.38489" lon="2.69459">
        <ele>109</ele>
        <time>2014-01-30T12:18:25Z</time>
      </trkpt>
      <trkpt lat="48.38492" lon="2.69445">
        <ele>110</ele>
        <time>2014-01-30T12:18:34Z</time>
      </trkpt>
      <trkpt lat="48.38498" lon="2.69432">
        <ele>112</ele>
        <time>2014-01-30T12:18:44Z</time>
      </trkpt>
      <trkpt lat="48.38501" lon="2.69418">
        <ele>112</ele>
        <time>2014-01-30T12:18:52Z</time>
      </trkpt>
      <trkpt lat="48.38499" lon="2.69406">
        <ele>112</ele>
        <time>2014-01-30T12:19:01Z</time>
      </trkpt>
      <trkpt lat="48.38498" lon="2.69391">
        <ele>112</ele>
        <time>2014-01-30T12:19:10Z</time>
      </trkpt>
      <trkpt lat="48.385" lon="2.69377">
        <ele>111</ele>
        <time>2014-01-30T12:19:18Z</time>
      </trkpt>
      <trkpt lat="48.38506" lon="2.69366">
        <ele>110</ele>
        <time>2014-01-30T12:19:27Z</time>
      </trkpt>
      <trkpt lat="48.38514" lon="2.69367">
        <ele>109</ele>
        <time>2014-01-30T12:19:49Z</time>
      </trkpt>
      <trkpt lat="48.38516" lon="2.69369">
        <ele>110</ele>
        <time>2014-01-30T12:24:20Z</time>
      </trkpt>
      <trkpt lat="48.38514" lon="2.6936">
        <ele>110</ele>
        <time>2014-01-30T12:25:55Z</time>
      </trkpt>
      <trkpt lat="48.38511" lon="2.69349">
        <ele>108</ele>
        <time>2014-01-30T12:26:36Z</time>
      </trkpt>
      <trkpt lat="48.38518" lon="2.69339">
        <ele>106</ele>
        <time>2014-01-30T12:26:45Z</time>
      </trkpt>
      <trkpt lat="48.38527" lon="2.6933">
        <ele>104</ele>
        <time>2014-01-30T12:26:54Z</time>
      </trkpt>
      <trkpt lat="48.38539" lon="2.69323">
        <ele>103</ele>
        <time>2014-01-30T12:27:04Z</time>
      </trkpt>
      <trkpt lat="48.38547" lon="2.69316">
        <ele>101</ele>
        <time>2014-01-30T12:27:12Z</time>
      </trkpt>
      <trkpt lat="48.38556" lon="2.69309">
        <ele>100</ele>
        <time>2014-01-30T12:27:23Z</time>
      </trkpt>
      <trkpt lat="48.38562" lon="2.69298">
        <ele>97</ele>
        <time>2014-01-30T12:27:36Z</time>
      </trkpt>
      <trkpt lat="48.38552" lon="2.69305">
        <ele>97</ele>
        <time>2014-01-30T12:27:52Z</time>
      </trkpt>
      <trkpt lat="48.38541" lon="2.69302">
        <ele>96</ele>
        <time>2014-01-30T12:28:10Z</time>
      </trkpt>
      <trkpt lat="48.38534" lon="2.6931">
        <ele>96</ele>
        <time>2014-01-30T12:28:30Z</time>
      </trkpt>
      <trkpt lat="48.38527" lon="2.69304">
        <ele>96</ele>
        <time>2014-01-30T12:29:54Z</time>
      </trkpt>
      <trkpt lat="48.38514" lon="2.69303">
        <ele>96</ele>
        <time>2014-01-30T12:30:55Z</time>
      </trkpt>
      <trkpt lat="48.38503" lon="2.69294">
        <ele>94</ele>
        <time>2014-01-30T12:31:05Z</time>
      </trkpt>
      <trkpt lat="48.38497" lon="2.69278">
        <ele>92</ele>
        <time>2014-01-30T12:31:15Z</time>
      </trkpt>
      <trkpt lat="48.38494" lon="2.69262">
        <ele>92</ele>
        <time>2014-01-30T12:31:23Z</time>
      </trkpt>
      <trkpt lat="48.38491" lon="2.69247">
        <ele>90</ele>
        <time>2014-01-30T12:31:31Z</time>
      </trkpt>
      <trkpt lat="48.38489" lon="2.69233">
        <ele>89</ele>
        <time>2014-01-30T12:31:40Z</time>
      </trkpt>
      <trkpt lat="48.38496" lon="2.6922">
        <ele>89</ele>
        <time>2014-01-30T12:31:48Z</time>
      </trkpt>
      <trkpt lat="48.38504" lon="2.6921">
        <ele>89</ele>
        <time>2014-01-30T12:31:56Z</time>
      </trkpt>
      <trkpt lat="48.38512" lon="2.69204">
        <ele>88</ele>
        <time>2014-01-30T12:32:07Z</time>
      </trkpt>
      <trkpt lat="48.38512" lon="2.69195">
        <ele>88</ele>
        <time>2014-01-30T12:34:50Z</time>
      </trkpt>
      <trkpt lat="48.38513" lon="2.6918">
        <ele>88</ele>
        <time>2014-01-30T12:34:58Z</time>
      </trkpt>
      <trkpt lat="48.38515" lon="2.69166">
        <ele>87</ele>
        <time>2014-01-30T12:35:05Z</time>
      </trkpt>
      <trkpt lat="48.38516" lon="2.69153">
        <ele>89</ele>
        <time>2014-01-30T12:35:12Z</time>
      </trkpt>
      <trkpt lat="48.38518" lon="2.69138">
        <ele>89</ele>
        <time>2014-01-30T12:35:20Z</time>
      </trkpt>
      <trkpt lat="48.38522" lon="2.69125">
        <ele>90</ele>
        <time>2014-01-30T12:35:28Z</time>
      </trkpt>
      <trkpt lat="48.38525" lon="2.69109">
        <ele>91</ele>
        <time>2014-01-30T12:35:37Z</time>
      </trkpt>
      <trkpt lat="48.38526" lon="2.69094">
        <ele>92</ele>
        <time>2014-01-30T12:35:46Z</time>
      </trkpt>
      <trkpt lat="48.38528" lon="2.69081">
        <ele>91</ele>
        <time>2014-01-30T12:35:54Z</time>
      </trkpt>
      <trkpt lat="48.38531" lon="2.69067">
        <ele>91</ele>
        <time>2014-01-30T12:36:02Z</time>
      </trkpt>
      <trkpt lat="48.38538" lon="2.69056">
        <ele>91</ele>
        <time>2014-01-30T12:36:11Z</time>
      </trkpt>
      <trkpt lat="48.38548" lon="2.69046">
        <ele>94</ele>
        <time>2014-01-30T12:36:23Z</time>
      </trkpt>
      <trkpt lat="48.38559" lon="2.69037">
        <ele>95</ele>
        <time>2014-01-30T12:36:34Z</time>
      </trkpt>
      <trkpt lat="48.38568" lon="2.69036">
        <ele>96</ele>
        <time>2014-01-30T12:36:42Z</time>
      </trkpt>
      <trkpt lat="48.38576" lon="2.69029">
        <ele>95</ele>
        <time>2014-01-30T12:36:50Z</time>
      </trkpt>
      <trkpt lat="48.38581" lon="2.69015">
        <ele>94</ele>
        <time>2014-01-30T12:36:58Z</time>
      </trkpt>
      <trkpt lat="48.38574" lon="2.69007">
        <ele>92</ele>
        <time>2014-01-30T12:37:05Z</time>
      </trkpt>
      <trkpt lat="48.38569" lon="2.68994">
        <ele>91</ele>
        <time>2014-01-30T12:37:12Z</time>
      </trkpt>
      <trkpt lat="48.38566" lon="2.68981">
        <ele>91</ele>
        <time>2014-01-30T12:37:20Z</time>
      </trkpt>
      <trkpt lat="48.38567" lon="2.68968">
        <ele>90</ele>
        <time>2014-01-30T12:37:33Z</time>
      </trkpt>
      <trkpt lat="48.38572" lon="2.68958">
        <ele>88</ele>
        <time>2014-01-30T12:37:53Z</time>
      </trkpt>
      <trkpt lat="48.38578" lon="2.68946">
        <ele>87</ele>
        <time>2014-01-30T12:38:07Z</time>
      </trkpt>
      <trkpt lat="48.38579" lon="2.68933">
        <ele>86</ele>
        <time>2014-01-30T12:38:19Z</time>
      </trkpt>
      <trkpt lat="48.38584" lon="2.68919">
        <ele>84</ele>
        <time>2014-01-30T12:38:29Z</time>
      </trkpt>
      <trkpt lat="48.38586" lon="2.68906">
        <ele>83</ele>
        <time>2014-01-30T12:38:41Z</time>
      </trkpt>
      <trkpt lat="48.38584" lon="2.68902">
        <ele>83</ele>
        <time>2014-01-30T12:39:03Z</time>
      </trkpt>
      <trkpt lat="48.38578" lon="2.68889">
        <ele>82</ele>
        <time>2014-01-30T12:42:54Z</time>
      </trkpt>
      <trkpt lat="48.3857" lon="2.68901">
        <ele>83</ele>
        <time>2014-01-30T12:43:07Z</time>
      </trkpt>
      <trkpt lat="48.38561" lon="2.68904">
        <ele>83</ele>
        <time>2014-01-30T12:43:30Z</time>
      </trkpt>
      <trkpt lat="48.38552" lon="2.68903">
        <ele>82</ele>
        <time>2014-01-30T12:43:47Z</time>
      </trkpt>
      <trkpt lat="48.38546" lon="2.6889">
        <ele>81</ele>
        <time>2014-01-30T12:44:01Z</time>
      </trkpt>
      <trkpt lat="48.38546" lon="2.68873">
        <ele>81</ele>
        <time>2014-01-30T12:46:08Z</time>
      </trkpt>
      <trkpt lat="48.38546" lon="2.68858">
        <ele>80</ele>
        <time>2014-01-30T12:46:16Z</time>
      </trkpt>
      <trkpt lat="48.38546" lon="2.68844">
        <ele>81</ele>
        <time>2014-01-30T12:46:26Z</time>
      </trkpt>
      <trkpt lat="48.38553" lon="2.68839">
        <ele>80</ele>
        <time>2014-01-30T12:46:49Z</time>
      </trkpt>
      <trkpt lat="48.38559" lon="2.68837">
        <ele>79</ele>
        <time>2014-01-30T12:47:24Z</time>
      </trkpt>
      <trkpt lat="48.38561" lon="2.68819">
        <ele>79</ele>
        <time>2014-01-30T12:47:33Z</time>
      </trkpt>
      <trkpt lat="48.38557" lon="2.68816">
        <ele>79</ele>
        <time>2014-01-30T12:47:52Z</time>
      </trkpt>
      <trkpt lat="48.38546" lon="2.68816">
        <ele>79</ele>
        <time>2014-01-30T12:48:02Z</time>
      </trkpt>
      <trkpt lat="48.3854" lon="2.68807">
        <ele>79</ele>
        <time>2014-01-30T12:48:15Z</time>
      </trkpt>
      <trkpt lat="48.38546" lon="2.68808">
        <ele>79</ele>
        <time>2014-01-30T12:48:34Z</time>
      </trkpt>
      <trkpt lat="48.38554" lon="2.68797">
        <ele>79</ele>
        <time>2014-01-30T12:48:47Z</time>
      </trkpt>
      <trkpt lat="48.38556" lon="2.6878">
        <ele>80</ele>
        <time>2014-01-30T12:48:56Z</time>
      </trkpt>
      <trkpt lat="48.38559" lon="2.68759">
        <ele>81</ele>
        <time>2014-01-30T13:24:18Z</time>
      </trkpt>
      <trkpt lat="48.38548" lon="2.68753">
        <ele>81</ele>
        <time>2014-01-30T13:24:36Z</time>
      </trkpt>
      <trkpt lat="48.3854" lon="2.68743">
        <ele>81</ele>
        <time>2014-01-30T13:24:47Z</time>
      </trkpt>
      <trkpt lat="48.38533" lon="2.68733">
        <ele>81</ele>
        <time>2014-01-30T13:24:58Z</time>
      </trkpt>
      <trkpt lat="48.38524" lon="2.68725">
        <ele>81</ele>
        <time>2014-01-30T13:25:07Z</time>
      </trkpt>
      <trkpt lat="48.38515" lon="2.68717">
        <ele>80</ele>
        <time>2014-01-30T13:25:16Z</time>
      </trkpt>
      <trkpt lat="48.38506" lon="2.6871">
        <ele>81</ele>
        <time>2014-01-30T13:25:24Z</time>
      </trkpt>
      <trkpt lat="48.38496" lon="2.68702">
        <ele>80</ele>
        <time>2014-01-30T13:25:37Z</time>
      </trkpt>
      <trkpt lat="48.38485" lon="2.68694">
        <ele>80</ele>
        <time>2014-01-30T13:25:47Z</time>
      </trkpt>
      <trkpt lat="48.38475" lon="2.68689">
        <ele>80</ele>
        <time>2014-01-30T13:25:55Z</time>
      </trkpt>
      <trkpt lat="48.38467" lon="2.6868">
        <ele>80</ele>
        <time>2014-01-30T13:26:03Z</time>
      </trkpt>
      <trkpt lat="48.38458" lon="2.68674">
        <ele>79</ele>
        <time>2014-01-30T13:26:11Z</time>
      </trkpt>
      <trkpt lat="48.38449" lon="2.68667">
        <ele>80</ele>
        <time>2014-01-30T13:26:20Z</time>
      </trkpt>
      <trkpt lat="48.38441" lon="2.68661">
        <ele>80</ele>
        <time>2014-01-30T13:27:32Z</time>
      </trkpt>
      <trkpt lat="48.38432" lon="2.68654">
        <ele>80</ele>
        <time>2014-01-30T13:27:44Z</time>
      </trkpt>
      <trkpt lat="48.38427" lon="2.68647">
        <ele>79</ele>
        <time>2014-01-30T13:28:40Z</time>
      </trkpt>
      <trkpt lat="48.38417" lon="2.6864">
        <ele>79</ele>
        <time>2014-01-30T13:28:49Z</time>
      </trkpt>
      <trkpt lat="48.38409" lon="2.68634">
        <ele>79</ele>
        <time>2014-01-30T13:28:57Z</time>
      </trkpt>
      <trkpt lat="48.384" lon="2.68628">
        <ele>80</ele>
        <time>2014-01-30T13:29:04Z</time>
      </trkpt>
      <trkpt lat="48.3839" lon="2.68622">
        <ele>79</ele>
        <time>2014-01-30T13:29:12Z</time>
      </trkpt>
      <trkpt lat="48.38382" lon="2.68615">
        <ele>79</ele>
        <time>2014-01-30T13:29:19Z</time>
      </trkpt>
      <trkpt lat="48.38374" lon="2.68608">
        <ele>80</ele>
        <time>2014-01-30T13:29:27Z</time>
      </trkpt>
      <trkpt lat="48.38365" lon="2.68602">
        <ele>80</ele>
        <time>2014-01-30T13:29:35Z</time>
      </trkpt>
      <trkpt lat="48.38355" lon="2.68596">
        <ele>80</ele>
        <time>2014-01-30T13:29:43Z</time>
      </trkpt>
      <trkpt lat="48.38346" lon="2.68589">
        <ele>80</ele>
        <time>2014-01-30T13:29:50Z</time>
      </trkpt>
      <trkpt lat="48.38337" lon="2.68582">
        <ele>80</ele>
        <time>2014-01-30T13:29:57Z</time>
      </trkpt>
      <trkpt lat="48.38329" lon="2.68575">
        <ele>80</ele>
        <time>2014-01-30T13:30:04Z</time>
      </trkpt>
      <trkpt lat="48.38319" lon="2.68569">
        <ele>80</ele>
        <time>2014-01-30T13:30:11Z</time>
      </trkpt>
      <trkpt lat="48.38311" lon="2.68562">
        <ele>80</ele>
        <time>2014-01-30T13:30:18Z</time>
      </trkpt>
      <trkpt lat="48.38302" lon="2.68555">
        <ele>80</ele>
        <time>2014-01-30T13:30:25Z</time>
      </trkpt>
      <trkpt lat="48.38294" lon="2.68547">
        <ele>80</ele>
        <time>2014-01-30T13:30:33Z</time>
      </trkpt>
      <trkpt lat="48.38285" lon="2.68539">
        <ele>81</ele>
        <time>2014-01-30T13:30:42Z</time>
      </trkpt>
      <trkpt lat="48.38277" lon="2.68526">
        <ele>81</ele>
        <time>2014-01-30T13:31:23Z</time>
      </trkpt>
      <trkpt lat="48.38268" lon="2.68524">
        <ele>80</ele>
        <time>2014-01-30T13:31:30Z</time>
      </trkpt>
      <trkpt lat="48.38258" lon="2.68517">
        <ele>81</ele>
        <time>2014-01-30T13:31:37Z</time>
      </trkpt>
      <trkpt lat="48.38249" lon="2.6851">
        <ele>81</ele>
        <time>2014-01-30T13:31:43Z</time>
      </trkpt>
      <trkpt lat="48.3824" lon="2.68502">
        <ele>81</ele>
        <time>2014-01-30T13:31:50Z</time>
      </trkpt>
      <trkpt lat="48.38231" lon="2.68496">
        <ele>81</ele>
        <time>2014-01-30T13:31:57Z</time>
      </trkpt>
      <trkpt lat="48.38223" lon="2.68489">
        <ele>81</ele>
        <time>2014-01-30T13:32:03Z</time>
      </trkpt>
      <trkpt lat="48.38214" lon="2.68483">
        <ele>81</ele>
        <time>2014-01-30T13:32:10Z</time>
      </trkpt>
      <trkpt lat="48.38206" lon="2.68475">
        <ele>81</ele>
        <time>2014-01-30T13:32:17Z</time>
      </trkpt>
      <trkpt lat="48.38197" lon="2.6847">
        <ele>81</ele>
        <time>2014-01-30T13:32:23Z</time>
      </trkpt>
      <trkpt lat="48.38189" lon="2.68464">
        <ele>81</ele>
        <time>2014-01-30T13:32:30Z</time>
      </trkpt>
      <trkpt lat="48.3818" lon="2.68458">
        <ele>81</ele>
        <time>2014-01-30T13:32:36Z</time>
      </trkpt>
      <trkpt lat="48.38171" lon="2.68451">
        <ele>82</ele>
        <time>2014-01-30T13:32:43Z</time>
      </trkpt>
      <trkpt lat="48.38162" lon="2.68444">
        <ele>82</ele>
        <time>2014-01-30T13:32:50Z</time>
      </trkpt>
      <trkpt lat="48.38154" lon="2.68434">
        <ele>81</ele>
        <time>2014-01-30T13:32:57Z</time>
      </trkpt>
      <trkpt lat="48.38145" lon="2.68428">
        <ele>82</ele>
        <time>2014-01-30T13:33:04Z</time>
      </trkpt>
      <trkpt lat="48.38137" lon="2.68421">
        <ele>82</ele>
        <time>2014-01-30T13:33:11Z</time>
      </trkpt>
      <trkpt lat="48.38128" lon="2.68414">
        <ele>82</ele>
        <time>2014-01-30T13:33:18Z</time>
      </trkpt>
      <trkpt lat="48.3812" lon="2.68407">
        <ele>82</ele>
        <time>2014-01-30T13:33:25Z</time>
      </trkpt>
      <trkpt lat="48.38111" lon="2.684">
        <ele>82</ele>
        <time>2014-01-30T13:33:32Z</time>
      </trkpt>
      <trkpt lat="48.38102" lon="2.68394">
        <ele>82</ele>
        <time>2014-01-30T13:33:38Z</time>
      </trkpt>
      <trkpt lat="48.38094" lon="2.68386">
        <ele>82</ele>
        <time>2014-01-30T13:33:45Z</time>
      </trkpt>
      <trkpt lat="48.38085" lon="2.6838">
        <ele>83</ele>
        <time>2014-01-30T13:33:52Z</time>
      </trkpt>
      <trkpt lat="48.38076" lon="2.68373">
        <ele>82</ele>
        <time>2014-01-30T13:33:59Z</time>
      </trkpt>
      <trkpt lat="48.38069" lon="2.68367">
        <ele>83</ele>
        <time>2014-01-30T13:34:05Z</time>
      </trkpt>
      <trkpt lat="48.3806" lon="2.68359">
        <ele>83</ele>
        <time>2014-01-30T13:34:12Z</time>
      </trkpt>
      <trkpt lat="48.38052" lon="2.68352">
        <ele>83</ele>
        <time>2014-01-30T13:34:19Z</time>
      </trkpt>
      <trkpt lat="48.38043" lon="2.68345">
        <ele>83</ele>
        <time>2014-01-30T13:34:26Z</time>
      </trkpt>
      <trkpt lat="48.38033" lon="2.68339">
        <ele>83</ele>
        <time>2014-01-30T13:34:33Z</time>
      </trkpt>
      <trkpt lat="48.38025" lon="2.68332">
        <ele>83</ele>
        <time>2014-01-30T13:34:40Z</time>
      </trkpt>
      <trkpt lat="48.38016" lon="2.68324">
        <ele>84</ele>
        <time>2014-01-30T13:34:47Z</time>
      </trkpt>
      <trkpt lat="48.38008" lon="2.68319">
        <ele>84</ele>
        <time>2014-01-30T13:34:53Z</time>
      </trkpt>
      <trkpt lat="48.37999" lon="2.68311">
        <ele>84</ele>
        <time>2014-01-30T13:35:00Z</time>
      </trkpt>
      <trkpt lat="48.37991" lon="2.68305">
        <ele>84</ele>
        <time>2014-01-30T13:35:07Z</time>
      </trkpt>
      <trkpt lat="48.37983" lon="2.68299">
        <ele>84</ele>
        <time>2014-01-30T13:35:13Z</time>
      </trkpt>
      <trkpt lat="48.37973" lon="2.68291">
        <ele>84</ele>
        <time>2014-01-30T13:35:20Z</time>
      </trkpt>
      <trkpt lat="48.37965" lon="2.68282">
        <ele>84</ele>
        <time>2014-01-30T13:35:27Z</time>
      </trkpt>
      <trkpt lat="48.37956" lon="2.68277">
        <ele>84</ele>
        <time>2014-01-30T13:35:34Z</time>
      </trkpt>
      <trkpt lat="48.37947" lon="2.68269">
        <ele>85</ele>
        <time>2014-01-30T13:35:41Z</time>
      </trkpt>
      <trkpt lat="48.37939" lon="2.68261">
        <ele>85</ele>
        <time>2014-01-30T13:35:47Z</time>
      </trkpt>
      <trkpt lat="48.37931" lon="2.68253">
        <ele>85</ele>
        <time>2014-01-30T13:35:54Z</time>
      </trkpt>
      <trkpt lat="48.37923" lon="2.68248">
        <ele>85</ele>
        <time>2014-01-30T13:36:00Z</time>
      </trkpt>
      <trkpt lat="48.37914" lon="2.6824">
        <ele>85</ele>
        <time>2014-01-30T13:36:07Z</time>
      </trkpt>
      <trkpt lat="48.37905" lon="2.68234">
        <ele>85</ele>
        <time>2014-01-30T13:36:14Z</time>
      </trkpt>
      <trkpt lat="48.37896" lon="2.68229">
        <ele>85</ele>
        <time>2014-01-30T13:36:21Z</time>
      </trkpt>
      <trkpt lat="48.37887" lon="2.68224">
        <ele>86</ele>
        <time>2014-01-30T13:36:31Z</time>
      </trkpt>
      <trkpt lat="48.37883" lon="2.68211">
        <ele>85</ele>
        <time>2014-01-30T13:36:41Z</time>
      </trkpt>
      <trkpt lat="48.37886" lon="2.68208">
        <ele>86</ele>
        <time>2014-01-30T13:37:49Z</time>
      </trkpt>
      <trkpt lat="48.37879" lon="2.682">
        <ele>86</ele>
        <time>2014-01-30T13:37:58Z</time>
      </trkpt>
      <trkpt lat="48.37876" lon="2.68188">
        <ele>86</ele>
        <time>2014-01-30T13:38:15Z</time>
      </trkpt>
      <trkpt lat="48.37874" lon="2.68174">
        <ele>85</ele>
        <time>2014-01-30T13:38:23Z</time>
      </trkpt>
      <trkpt lat="48.37869" lon="2.68161">
        <ele>86</ele>
        <time>2014-01-30T13:38:32Z</time>
      </trkpt>
      <trkpt lat="48.37863" lon="2.68148">
        <ele>86</ele>
        <time>2014-01-30T13:38:40Z</time>
      </trkpt>
      <trkpt lat="48.37861" lon="2.68133">
        <ele>86</ele>
        <time>2014-01-30T13:38:47Z</time>
      </trkpt>
      <trkpt lat="48.37856" lon="2.68122">
        <ele>86</ele>
        <time>2014-01-30T13:38:55Z</time>
      </trkpt>
      <trkpt lat="48.37855" lon="2.68107">
        <ele>87</ele>
        <time>2014-01-30T13:39:10Z</time>
      </trkpt>
      <trkpt lat="48.37858" lon="2.681">
        <ele>87</ele>
        <time>2014-01-30T13:39:40Z</time>
      </trkpt>
      <trkpt lat="48.37859" lon="2.68085">
        <ele>88</ele>
        <time>2014-01-30T13:39:50Z</time>
      </trkpt>
      <trkpt lat="48.37857" lon="2.68069">
        <ele>89</ele>
        <time>2014-01-30T13:39:59Z</time>
      </trkpt>
      <trkpt lat="48.37853" lon="2.68055">
        <ele>90</ele>
        <time>2014-01-30T13:40:10Z</time>
      </trkpt>
      <trkpt lat="48.37849" lon="2.68039">
        <ele>91</ele>
        <time>2014-01-30T13:40:20Z</time>
      </trkpt>
      <trkpt lat="48.37844" lon="2.68029">
        <ele>92</ele>
        <time>2014-01-30T13:40:31Z</time>
      </trkpt>
      <trkpt lat="48.37838" lon="2.68019">
        <ele>94</ele>
        <time>2014-01-30T13:40:44Z</time>
      </trkpt>
      <trkpt lat="48.37832" lon="2.68006">
        <ele>96</ele>
        <time>2014-01-30T13:40:56Z</time>
      </trkpt>
      <trkpt lat="48.37826" lon="2.67991">
        <ele>98</ele>
        <time>2014-01-30T13:41:09Z</time>
      </trkpt>
      <trkpt lat="48.37817" lon="2.67993">
        <ele>100</ele>
        <time>2014-01-30T13:41:21Z</time>
      </trkpt>
      <trkpt lat="48.37808" lon="2.67989">
        <ele>102</ele>
        <time>2014-01-30T13:41:33Z</time>
      </trkpt>
      <trkpt lat="48.37799" lon="2.67994">
        <ele>104</ele>
        <time>2014-01-30T13:41:45Z</time>
      </trkpt>
      <trkpt lat="48.37794" lon="2.67986">
        <ele>106</ele>
        <time>2014-01-30T13:41:58Z</time>
      </trkpt>
      <trkpt lat="48.37796" lon="2.67972">
        <ele>107</ele>
        <time>2014-01-30T13:42:08Z</time>
      </trkpt>
      <trkpt lat="48.37797" lon="2.67959">
        <ele>109</ele>
        <time>2014-01-30T13:42:20Z</time>
      </trkpt>
      <trkpt lat="48.37808" lon="2.67949">
        <ele>110</ele>
        <time>2014-01-30T13:42:32Z</time>
      </trkpt>
      <trkpt lat="48.37811" lon="2.67941">
        <ele>114</ele>
        <time>2014-01-30T13:42:55Z</time>
      </trkpt>
      <trkpt lat="48.37812" lon="2.6793">
        <ele>115</ele>
        <time>2014-01-30T13:43:17Z</time>
      </trkpt>
      <trkpt lat="48.37817" lon="2.67916">
        <ele>119</ele>
        <time>2014-01-30T13:43:34Z</time>
      </trkpt>
      <trkpt lat="48.37821" lon="2.67904">
        <ele>119</ele>
        <time>2014-01-30T13:43:47Z</time>
      </trkpt>
      <trkpt lat="48.37829" lon="2.6791">
        <ele>120</ele>
        <time>2014-01-30T13:44:35Z</time>
      </trkpt>
      <trkpt lat="48.37828" lon="2.67907">
        <ele>120</ele>
        <time>2014-01-30T13:46:59Z</time>
      </trkpt>
      <trkpt lat="48.37827" lon="2.67891">
        <ele>121</ele>
        <time>2014-01-30T13:47:32Z</time>
      </trkpt>
      <trkpt lat="48.37835" lon="2.67887">
        <ele>120</ele>
        <time>2014-01-30T13:47:44Z</time>
      </trkpt>
      <trkpt lat="48.37846" lon="2.67885">
        <ele>120</ele>
        <time>2014-01-30T13:47:58Z</time>
      </trkpt>
      <trkpt lat="48.37853" lon="2.67881">
        <ele>120</ele>
        <time>2014-01-30T13:48:24Z</time>
      </trkpt>
      <trkpt lat="48.37856" lon="2.67869">
        <ele>120</ele>
        <time>2014-01-30T13:48:35Z</time>
      </trkpt>
      <trkpt lat="48.37859" lon="2.67854">
        <ele>120</ele>
        <time>2014-01-30T13:48:44Z</time>
      </trkpt>
      <trkpt lat="48.37855" lon="2.67842">
        <ele>121</ele>
        <time>2014-01-30T13:48:52Z</time>
      </trkpt>
      <trkpt lat="48.37854" lon="2.67826">
        <ele>121</ele>
        <time>2014-01-30T13:49:01Z</time>
      </trkpt>
      <trkpt lat="48.37851" lon="2.6781">
        <ele>121</ele>
        <time>2014-01-30T13:49:19Z</time>
      </trkpt>
      <trkpt lat="48.37851" lon="2.67796">
        <ele>121</ele>
        <time>2014-01-30T13:49:28Z</time>
      </trkpt>
      <trkpt lat="48.37848" lon="2.67783">
        <ele>121</ele>
        <time>2014-01-30T13:49:35Z</time>
      </trkpt>
      <trkpt lat="48.37843" lon="2.67774">
        <ele>121</ele>
        <time>2014-01-30T13:49:44Z</time>
      </trkpt>
      <trkpt lat="48.37837" lon="2.67763">
        <ele>121</ele>
        <time>2014-01-30T13:49:52Z</time>
      </trkpt>
      <trkpt lat="48.37834" lon="2.6775">
        <ele>120</ele>
        <time>2014-01-30T13:50:00Z</time>
      </trkpt>
      <trkpt lat="48.37838" lon="2.67736">
        <ele>121</ele>
        <time>2014-01-30T13:50:08Z</time>
      </trkpt>
      <trkpt lat="48.37843" lon="2.67722">
        <ele>120</ele>
        <time>2014-01-30T13:50:17Z</time>
      </trkpt>
      <trkpt lat="48.37842" lon="2.67722">
        <ele>120</ele>
        <time>2014-01-30T13:51:05Z</time>
      </trkpt>
      <trkpt lat="48.3784" lon="2.67708">
        <ele>120</ele>
        <time>2014-01-30T13:51:13Z</time>
      </trkpt>
      <trkpt lat="48.37836" lon="2.67695">
        <ele>120</ele>
        <time>2014-01-30T13:51:21Z</time>
      </trkpt>
      <trkpt lat="48.37836" lon="2.67679">
        <ele>120</ele>
        <time>2014-01-30T13:51:30Z</time>
      </trkpt>
      <trkpt lat="48.37831" lon="2.67666">
        <ele>120</ele>
        <time>2014-01-30T13:51:38Z</time>
      </trkpt>
      <trkpt lat="48.37828" lon="2.6765">
        <ele>120</ele>
        <time>2014-01-30T13:51:46Z</time>
      </trkpt>
      <trkpt lat="48.37825" lon="2.67635">
        <ele>120</ele>
        <time>2014-01-30T13:51:54Z</time>
      </trkpt>
      <trkpt lat="48.37825" lon="2.67619">
        <ele>121</ele>
        <time>2014-01-30T13:52:03Z</time>
      </trkpt>
      <trkpt lat="48.37825" lon="2.67605">
        <ele>121</ele>
        <time>2014-01-30T13:52:10Z</time>
      </trkpt>
      <trkpt lat="48.37822" lon="2.67589">
        <ele>121</ele>
        <time>2014-01-30T13:52:20Z</time>
      </trkpt>
      <trkpt lat="48.37819" lon="2.67581">
        <ele>121</ele>
        <time>2014-01-30T13:52:54Z</time>
      </trkpt>
      <trkpt lat="48.37813" lon="2.67568">
        <ele>120</ele>
        <time>2014-01-30T13:53:03Z</time>
      </trkpt>
      <trkpt lat="48.37806" lon="2.67555">
        <ele>120</ele>
        <time>2014-01-30T13:53:11Z</time>
      </trkpt>
      <trkpt lat="48.37803" lon="2.67546">
        <ele>120</ele>
        <time>2014-01-30T13:53:31Z</time>
      </trkpt>
      <trkpt lat="48.37803" lon="2.67533">
        <ele>121</ele>
        <time>2014-01-30T13:53:48Z</time>
      </trkpt>
      <trkpt lat="48.37803" lon="2.67533">
        <ele>121</ele>
        <time>2014-01-30T13:54:27Z</time>
      </trkpt>
      <trkpt lat="48.37813" lon="2.67539">
        <ele>122</ele>
        <time>2014-01-30T13:54:43Z</time>
      </trkpt>
      <trkpt lat="48.37822" lon="2.67544">
        <ele>122</ele>
        <time>2014-01-30T13:54:58Z</time>
      </trkpt>
      <trkpt lat="48.3783" lon="2.67554">
        <ele>121</ele>
        <time>2014-01-30T13:55:17Z</time>
      </trkpt>
      <trkpt lat="48.3784" lon="2.67565">
        <ele>121</ele>
        <time>2014-01-30T13:55:27Z</time>
      </trkpt>
      <trkpt lat="48.37849" lon="2.67579">
        <ele>121</ele>
        <time>2014-01-30T13:55:38Z</time>
      </trkpt>
      <trkpt lat="48.37846" lon="2.67579">
        <ele>121</ele>
        <time>2014-01-30T13:55:59Z</time>
      </trkpt>
      <trkpt lat="48.37842" lon="2.67579">
        <ele>121</ele>
        <time>2014-01-30T13:58:09Z</time>
      </trkpt>
      <trkpt lat="48.37851" lon="2.67581">
        <ele>121</ele>
        <time>2014-01-30T13:58:17Z</time>
      </trkpt>
      <trkpt lat="48.3786" lon="2.67584">
        <ele>121</ele>
        <time>2014-01-30T13:58:26Z</time>
      </trkpt>
      <trkpt lat="48.3787" lon="2.67592">
        <ele>120</ele>
        <time>2014-01-30T13:58:38Z</time>
      </trkpt>
      <trkpt lat="48.3788" lon="2.67601">
        <ele>120</ele>
        <time>2014-01-30T13:58:48Z</time>
      </trkpt>
      <trkpt lat="48.37888" lon="2.67597">
        <ele>118</ele>
        <time>2014-01-30T13:59:29Z</time>
      </trkpt>
      <trkpt lat="48.37896" lon="2.6759">
        <ele>117</ele>
        <time>2014-01-30T13:59:40Z</time>
      </trkpt>
      <trkpt lat="48.37901" lon="2.67587">
        <ele>115</ele>
        <time>2014-01-30T13:59:52Z</time>
      </trkpt>
      <trkpt lat="48.37906" lon="2.67602">
        <ele>114</ele>
        <time>2014-01-30T14:00:04Z</time>
      </trkpt>
      <trkpt lat="48.3791" lon="2.67612">
        <ele>113</ele>
        <time>2014-01-30T14:00:26Z</time>
      </trkpt>
      <trkpt lat="48.37916" lon="2.67618">
        <ele>114</ele>
        <time>2014-01-30T14:00:53Z</time>
      </trkpt>
      <trkpt lat="48.37919" lon="2.67611">
        <ele>117</ele>
        <time>2014-01-30T14:01:10Z</time>
      </trkpt>
      <trkpt lat="48.37923" lon="2.67599">
        <ele>117</ele>
        <time>2014-01-30T14:01:24Z</time>
      </trkpt>
      <trkpt lat="48.37928" lon="2.67582">
        <ele>117</ele>
        <time>2014-01-30T14:01:38Z</time>
      </trkpt>
      <trkpt lat="48.37936" lon="2.67574">
        <ele>116</ele>
        <time>2014-01-30T14:01:54Z</time>
      </trkpt>
      <trkpt lat="48.3794" lon="2.67561">
        <ele>115</ele>
        <time>2014-01-30T14:02:04Z</time>
      </trkpt>
      <trkpt lat="48.37946" lon="2.67552">
        <ele>116</ele>
        <time>2014-01-30T14:02:14Z</time>
      </trkpt>
      <trkpt lat="48.37954" lon="2.67543">
        <ele>116</ele>
        <time>2014-01-30T14:02:27Z</time>
      </trkpt>
      <trkpt lat="48.37952" lon="2.67532">
        <ele>118</ele>
        <time>2014-01-30T14:02:48Z</time>
      </trkpt>
      <trkpt lat="48.37956" lon="2.67518">
        <ele>119</ele>
        <time>2014-01-30T14:03:14Z</time>
      </trkpt>
      <trkpt lat="48.3796" lon="2.6751">
        <ele>118</ele>
        <time>2014-01-30T14:03:29Z</time>
      </trkpt>
      <trkpt lat="48.37962" lon="2.67495">
        <ele>116</ele>
        <time>2014-01-30T14:03:39Z</time>
      </trkpt>
      <trkpt lat="48.37965" lon="2.6748">
        <ele>116</ele>
        <time>2014-01-30T14:03:48Z</time>
      </trkpt>
      <trkpt lat="48.37968" lon="2.67472">
        <ele>118</ele>
        <time>2014-01-30T14:04:21Z</time>
      </trkpt>
      <trkpt lat="48.37966" lon="2.67458">
        <ele>117</ele>
        <time>2014-01-30T14:04:34Z</time>
      </trkpt>
      <trkpt lat="48.37962" lon="2.67446">
        <ele>117</ele>
        <time>2014-01-30T14:04:59Z</time>
      </trkpt>
      <trkpt lat="48.37968" lon="2.67433">
        <ele>116</ele>
        <time>2014-01-30T14:05:10Z</time>
      </trkpt>
      <trkpt lat="48.3797" lon="2.6742">
        <ele>118</ele>
        <time>2014-01-30T14:05:23Z</time>
      </trkpt>
      <trkpt lat="48.37966" lon="2.67407">
        <ele>119</ele>
        <time>2014-01-30T14:05:49Z</time>
      </trkpt>
      <trkpt lat="48.37963" lon="2.67398">
        <ele>119</ele>
        <time>2014-01-30T14:06:07Z</time>
      </trkpt>
      <trkpt lat="48.37967" lon="2.67381">
        <ele>116</ele>
        <time>2014-01-30T14:06:30Z</time>
      </trkpt>
      <trkpt lat="48.37956" lon="2.67377">
        <ele>117</ele>
        <time>2014-01-30T14:06:44Z</time>
      </trkpt>
      <trkpt lat="48.37944" lon="2.67378">
        <ele>118</ele>
        <time>2014-01-30T14:06:55Z</time>
      </trkpt>
      <trkpt lat="48.37931" lon="2.67375">
        <ele>119</ele>
        <time>2014-01-30T14:07:07Z</time>
      </trkpt>
      <trkpt lat="48.37921" lon="2.6737">
        <ele>119</ele>
        <time>2014-01-30T14:07:18Z</time>
      </trkpt>
      <trkpt lat="48.37909" lon="2.67374">
        <ele>120</ele>
        <time>2014-01-30T14:07:28Z</time>
      </trkpt>
      <trkpt lat="48.37898" lon="2.6737">
        <ele>120</ele>
        <time>2014-01-30T14:07:38Z</time>
      </trkpt>
      <trkpt lat="48.37898" lon="2.67351">
        <ele>119</ele>
        <time>2014-01-30T14:07:54Z</time>
      </trkpt>
      <trkpt lat="48.37904" lon="2.67335">
        <ele>119</ele>
        <time>2014-01-30T14:08:06Z</time>
      </trkpt>
      <trkpt lat="48.37912" lon="2.67329">
        <ele>119</ele>
        <time>2014-01-30T14:08:20Z</time>
      </trkpt>
      <trkpt lat="48.37919" lon="2.6732">
        <ele>117</ele>
        <time>2014-01-30T14:08:48Z</time>
      </trkpt>
      <trkpt lat="48.37924" lon="2.67311">
        <ele>116</ele>
        <time>2014-01-30T14:09:09Z</time>
      </trkpt>
      <trkpt lat="48.37929" lon="2.67306">
        <ele>116</ele>
        <time>2014-01-30T14:09:25Z</time>
      </trkpt>
      <trkpt lat="48.37937" lon="2.67297">
        <ele>116</ele>
        <time>2014-01-30T14:09:43Z</time>
      </trkpt>
      <trkpt lat="48.3794" lon="2.67289">
        <ele>116</ele>
        <time>2014-01-30T14:10:12Z</time>
      </trkpt>
      <trkpt lat="48.37947" lon="2.6728">
        <ele>117</ele>
        <time>2014-01-30T14:10:22Z</time>
      </trkpt>
      <trkpt lat="48.37951" lon="2.6727">
        <ele>117</ele>
        <time>2014-01-30T14:10:38Z</time>
      </trkpt>
      <trkpt lat="48.37953" lon="2.67258">
        <ele>116</ele>
        <time>2014-01-30T14:10:53Z</time>
      </trkpt>
      <trkpt lat="48.37957" lon="2.67244">
        <ele>116</ele>
        <time>2014-01-30T14:11:03Z</time>
      </trkpt>
      <trkpt lat="48.3796" lon="2.67231">
        <ele>116</ele>
        <time>2014-01-30T14:11:12Z</time>
      </trkpt>
      <trkpt lat="48.37966" lon="2.67222">
        <ele>117</ele>
        <time>2014-01-30T14:11:22Z</time>
      </trkpt>
      <trkpt lat="48.37975" lon="2.67224">
        <ele>115</ele>
        <time>2014-01-30T14:11:51Z</time>
      </trkpt>
      <trkpt lat="48.37981" lon="2.67226">
        <ele>115</ele>
        <time>2014-01-30T14:12:32Z</time>
      </trkpt>
      <trkpt lat="48.37987" lon="2.67215">
        <ele>114</ele>
        <time>2014-01-30T14:12:48Z</time>
      </trkpt>
      <trkpt lat="48.3799" lon="2.67212">
        <ele>114</ele>
        <time>2014-01-30T14:13:05Z</time>
      </trkpt>
      <trkpt lat="48.37989" lon="2.672">
        <ele>112</ele>
        <time>2014-01-30T14:13:22Z</time>
      </trkpt>
      <trkpt lat="48.37985" lon="2.67187">
        <ele>111</ele>
        <time>2014-01-30T14:13:35Z</time>
      </trkpt>
      <trkpt lat="48.37993" lon="2.67174">
        <ele>107</ele>
        <time>2014-01-30T14:15:12Z</time>
      </trkpt>
      <trkpt lat="48.37987" lon="2.67164">
        <ele>107</ele>
        <time>2014-01-30T14:15:28Z</time>
      </trkpt>
      <trkpt lat="48.37986" lon="2.67163">
        <ele>107</ele>
        <time>2014-01-30T14:16:12Z</time>
      </trkpt>
      <trkpt lat="48.37985" lon="2.67153">
        <ele>105</ele>
        <time>2014-01-30T14:16:28Z</time>
      </trkpt>
      <trkpt lat="48.37979" lon="2.67151">
        <ele>102</ele>
        <time>2014-01-30T14:17:07Z</time>
      </trkpt>
      <trkpt lat="48.37976" lon="2.67144">
        <ele>100</ele>
        <time>2014-01-30T14:17:47Z</time>
      </trkpt>
      <trkpt lat="48.37972" lon="2.6713">
        <ele>98</ele>
        <time>2014-01-30T14:18:02Z</time>
      </trkpt>
      <trkpt lat="48.37972" lon="2.6712">
        <ele>97</ele>
        <time>2014-01-30T14:18:20Z</time>
      </trkpt>
      <trkpt lat="48.3797" lon="2.67112">
        <ele>99</ele>
        <time>2014-01-30T14:23:23Z</time>
      </trkpt>
      <trkpt lat="48.37981" lon="2.6711">
        <ele>98</ele>
        <time>2014-01-30T14:24:27Z</time>
      </trkpt>
      <trkpt lat="48.37991" lon="2.67104">
        <ele>97</ele>
        <time>2014-01-30T14:24:38Z</time>
      </trkpt>
      <trkpt lat="48.38003" lon="2.67104">
        <ele>95</ele>
        <time>2014-01-30T14:24:49Z</time>
      </trkpt>
      <trkpt lat="48.38014" lon="2.67107">
        <ele>93</ele>
        <time>2014-01-30T14:25:02Z</time>
      </trkpt>
      <trkpt lat="48.38024" lon="2.67113">
        <ele>91</ele>
        <time>2014-01-30T14:25:12Z</time>
      </trkpt>
      <trkpt lat="48.38034" lon="2.67114">
        <ele>90</ele>
        <time>2014-01-30T14:25:21Z</time>
      </trkpt>
      <trkpt lat="48.38044" lon="2.67118">
        <ele>90</ele>
        <time>2014-01-30T14:25:29Z</time>
      </trkpt>
      <trkpt lat="48.38054" lon="2.67122">
        <ele>89</ele>
        <time>2014-01-30T14:25:37Z</time>
      </trkpt>
      <trkpt lat="48.38063" lon="2.67125">
        <ele>88</ele>
        <time>2014-01-30T14:25:45Z</time>
      </trkpt>
      <trkpt lat="48.3807" lon="2.67121">
        <ele>88</ele>
        <time>2014-01-30T14:25:55Z</time>
      </trkpt>
      <trkpt lat="48.38071" lon="2.6712">
        <ele>88</ele>
        <time>2014-01-30T14:26:33Z</time>
      </trkpt>
      <trkpt lat="48.38079" lon="2.67122">
        <ele>87</ele>
        <time>2014-01-30T14:26:52Z</time>
      </trkpt>
      <trkpt lat="48.38088" lon="2.67116">
        <ele>87</ele>
        <time>2014-01-30T14:27:02Z</time>
      </trkpt>
      <trkpt lat="48.38097" lon="2.67111">
        <ele>88</ele>
        <time>2014-01-30T14:27:10Z</time>
      </trkpt>
      <trkpt lat="48.38105" lon="2.67106">
        <ele>88</ele>
        <time>2014-01-30T14:27:19Z</time>
      </trkpt>
      <trkpt lat="48.38116" lon="2.67101">
        <ele>88</ele>
        <time>2014-01-30T14:27:28Z</time>
      </trkpt>
      <trkpt lat="48.38125" lon="2.67098">
        <ele>89</ele>
        <time>2014-01-30T14:27:39Z</time>
      </trkpt>
      <trkpt lat="48.38133" lon="2.67095">
        <ele>89</ele>
        <time>2014-01-30T14:27:52Z</time>
      </trkpt>
      <trkpt lat="48.38141" lon="2.67092">
        <ele>89</ele>
        <time>2014-01-30T14:28:37Z</time>
      </trkpt>
      <trkpt lat="48.3815" lon="2.67085">
        <ele>89</ele>
        <time>2014-01-30T14:28:44Z</time>
      </trkpt>
      <trkpt lat="48.38159" lon="2.67082">
        <ele>89</ele>
        <time>2014-01-30T14:28:51Z</time>
      </trkpt>
      <trkpt lat="48.38168" lon="2.67078">
        <ele>89</ele>
        <time>2014-01-30T14:28:59Z</time>
      </trkpt>
      <trkpt lat="48.38178" lon="2.67073">
        <ele>89</ele>
        <time>2014-01-30T14:29:06Z</time>
      </trkpt>
      <trkpt lat="48.38188" lon="2.6707">
        <ele>89</ele>
        <time>2014-01-30T14:29:13Z</time>
      </trkpt>
      <trkpt lat="48.38197" lon="2.67065">
        <ele>89</ele>
        <time>2014-01-30T14:29:20Z</time>
      </trkpt>
      <trkpt lat="48.38207" lon="2.67061">
        <ele>89</ele>
        <time>2014-01-30T14:29:27Z</time>
      </trkpt>
      <trkpt lat="48.38217" lon="2.67056">
        <ele>89</ele>
        <time>2014-01-30T14:29:34Z</time>
      </trkpt>
      <trkpt lat="48.38227" lon="2.67051">
        <ele>89</ele>
        <time>2014-01-30T14:29:41Z</time>
      </trkpt>
      <trkpt lat="48.38237" lon="2.67049">
        <ele>89</ele>
        <time>2014-01-30T14:29:48Z</time>
      </trkpt>
      <trkpt lat="48.38246" lon="2.67044">
        <ele>90</ele>
        <time>2014-01-30T14:29:55Z</time>
      </trkpt>
      <trkpt lat="48.38256" lon="2.67038">
        <ele>90</ele>
        <time>2014-01-30T14:30:03Z</time>
      </trkpt>
      <trkpt lat="48.38266" lon="2.67035">
        <ele>90</ele>
        <time>2014-01-30T14:30:10Z</time>
      </trkpt>
      <trkpt lat="48.38276" lon="2.67029">
        <ele>90</ele>
        <time>2014-01-30T14:30:17Z</time>
      </trkpt>
      <trkpt lat="48.38287" lon="2.67024">
        <ele>90</ele>
        <time>2014-01-30T14:30:24Z</time>
      </trkpt>
      <trkpt lat="48.38297" lon="2.67022">
        <ele>90</ele>
        <time>2014-01-30T14:30:31Z</time>
      </trkpt>
      <trkpt lat="48.38306" lon="2.67025">
        <ele>90</ele>
        <time>2014-01-30T14:30:39Z</time>
      </trkpt>
      <trkpt lat="48.38318" lon="2.67033">
        <ele>90</ele>
        <time>2014-01-30T14:30:47Z</time>
      </trkpt>
      <trkpt lat="48.38326" lon="2.67039">
        <ele>90</ele>
        <time>2014-01-30T14:30:53Z</time>
      </trkpt>
      <trkpt lat="48.38336" lon="2.67042">
        <ele>90</ele>
        <time>2014-01-30T14:31:01Z</time>
      </trkpt>
      <trkpt lat="48.38347" lon="2.67049">
        <ele>90</ele>
        <time>2014-01-30T14:31:09Z</time>
      </trkpt>
      <trkpt lat="48.38357" lon="2.67053">
        <ele>90</ele>
        <time>2014-01-30T14:31:16Z</time>
      </trkpt>
      <trkpt lat="48.38367" lon="2.67062">
        <ele>90</ele>
        <time>2014-01-30T14:31:23Z</time>
      </trkpt>
      <trkpt lat="48.38376" lon="2.67068">
        <ele>90</ele>
        <time>2014-01-30T14:31:30Z</time>
      </trkpt>
      <trkpt lat="48.38386" lon="2.67074">
        <ele>90</ele>
        <time>2014-01-30T14:31:38Z</time>
      </trkpt>
      <trkpt lat="48.38397" lon="2.67077">
        <ele>90</ele>
        <time>2014-01-30T14:31:45Z</time>
      </trkpt>
      <trkpt lat="48.38407" lon="2.67082">
        <ele>89</ele>
        <time>2014-01-30T14:31:52Z</time>
      </trkpt>
      <trkpt lat="48.38417" lon="2.67086">
        <ele>89</ele>
        <time>2014-01-30T14:31:59Z</time>
      </trkpt>
      <trkpt lat="48.38428" lon="2.67091">
        <ele>88</ele>
        <time>2014-01-30T14:32:06Z</time>
      </trkpt>
      <trkpt lat="48.38437" lon="2.67094">
        <ele>88</ele>
        <time>2014-01-30T14:32:12Z</time>
      </trkpt>
      <trkpt lat="48.38446" lon="2.67099">
        <ele>88</ele>
        <time>2014-01-30T14:32:19Z</time>
      </trkpt>
      <trkpt lat="48.38455" lon="2.67103">
        <ele>88</ele>
        <time>2014-01-30T14:32:25Z</time>
      </trkpt>
      <trkpt lat="48.38462" lon="2.67108">
        <ele>88</ele>
        <time>2014-01-30T14:32:38Z</time>
      </trkpt>
      <trkpt lat="48.38469" lon="2.67102">
        <ele>87</ele>
        <time>2014-01-30T14:33:15Z</time>
      </trkpt>
      <trkpt lat="48.38472" lon="2.67112">
        <ele>88</ele>
        <time>2014-01-30T14:35:04Z</time>
      </trkpt>
      <trkpt lat="48.38477" lon="2.67134">
        <ele>87</ele>
        <time>2014-01-30T14:35:12Z</time>
      </trkpt>
      <trkpt lat="48.38485" lon="2.67151">
        <ele>88</ele>
        <time>2014-01-30T14:35:22Z</time>
      </trkpt>
      <trkpt lat="48.38493" lon="2.6717">
        <ele>88</ele>
        <time>2014-01-30T14:35:33Z</time>
      </trkpt>
      <trkpt lat="48.38501" lon="2.67187">
        <ele>88</ele>
        <time>2014-01-30T14:35:42Z</time>
      </trkpt>
      <trkpt lat="48.38509" lon="2.67201">
        <ele>88</ele>
        <time>2014-01-30T14:35:53Z</time>
      </trkpt>
      <trkpt lat="48.38518" lon="2.67219">
        <ele>87</ele>
        <time>2014-01-30T14:36:04Z</time>
      </trkpt>
      <trkpt lat="48.38525" lon="2.67235">
        <ele>87</ele>
        <time>2014-01-30T14:36:12Z</time>
      </trkpt>
      <trkpt lat="48.38534" lon="2.67249">
        <ele>88</ele>
        <time>2014-01-30T14:36:22Z</time>
      </trkpt>
      <trkpt lat="48.3854" lon="2.67264">
        <ele>88</ele>
        <time>2014-01-30T14:36:31Z</time>
      </trkpt>
      <trkpt lat="48.38546" lon="2.67277">
        <ele>88</ele>
        <time>2014-01-30T14:36:39Z</time>
      </trkpt>
      <trkpt lat="48.38553" lon="2.6729">
        <ele>88</ele>
        <time>2014-01-30T14:36:46Z</time>
      </trkpt>
      <trkpt lat="48.38561" lon="2.673">
        <ele>88</ele>
        <time>2014-01-30T14:36:54Z</time>
      </trkpt>
      <trkpt lat="48.3857" lon="2.67316">
        <ele>88</ele>
        <time>2014-01-30T14:37:02Z</time>
      </trkpt>
      <trkpt lat="48.38575" lon="2.67327">
        <ele>87</ele>
        <time>2014-01-30T14:37:09Z</time>
      </trkpt>
      <trkpt lat="48.38581" lon="2.67334">
        <ele>87</ele>
        <time>2014-01-30T14:37:27Z</time>
      </trkpt>
      <trkpt lat="48.38579" lon="2.67346">
        <ele>87</ele>
        <time>2014-01-30T14:37:56Z</time>
      </trkpt>
      <trkpt lat="48.38583" lon="2.6734">
        <ele>87</ele>
        <time>2014-01-30T14:38:36Z</time>
      </trkpt>
      <trkpt lat="48.38579" lon="2.6735">
        <ele>87</ele>
        <time>2014-01-30T14:40:12Z</time>
      </trkpt>
      <trkpt lat="48.38577" lon="2.67357">
        <ele>87</ele>
        <time>2014-01-30T14:41:31Z</time>
      </trkpt>
      <trkpt lat="48.38576" lon="2.67368">
        <ele>87</ele>
        <time>2014-01-30T14:42:16Z</time>
      </trkpt>
      <trkpt lat="48.38576" lon="2.67385">
        <ele>88</ele>
        <time>2014-01-30T14:42:24Z</time>
      </trkpt>
      <trkpt lat="48.38574" lon="2.67402">
        <ele>89</ele>
        <time>2014-01-30T14:42:33Z</time>
      </trkpt>
      <trkpt lat="48.38573" lon="2.67419">
        <ele>90</ele>
        <time>2014-01-30T14:42:42Z</time>
      </trkpt>
      <trkpt lat="48.38571" lon="2.67437">
        <ele>90</ele>
        <time>2014-01-30T14:42:51Z</time>
      </trkpt>
      <trkpt lat="48.38569" lon="2.67452">
        <ele>90</ele>
        <time>2014-01-30T14:43:21Z</time>
      </trkpt>
      <trkpt lat="48.38565" lon="2.67458">
        <ele>90</ele>
        <time>2014-01-30T14:44:24Z</time>
      </trkpt>
      <trkpt lat="48.38575" lon="2.67462">
        <ele>90</ele>
        <time>2014-01-30T14:44:32Z</time>
      </trkpt>
      <trkpt lat="48.38578" lon="2.67461">
        <ele>90</ele>
        <time>2014-01-30T14:44:58Z</time>
      </trkpt>
      <trkpt lat="48.38585" lon="2.6747">
        <ele>90</ele>
        <time>2014-01-30T14:45:35Z</time>
      </trkpt>
      <trkpt lat="48.38592" lon="2.6748">
        <ele>91</ele>
        <time>2014-01-30T14:45:43Z</time>
      </trkpt>
      <trkpt lat="48.38597" lon="2.67494">
        <ele>91</ele>
        <time>2014-01-30T14:45:51Z</time>
      </trkpt>
      <trkpt lat="48.38604" lon="2.67507">
        <ele>93</ele>
        <time>2014-01-30T14:46:00Z</time>
      </trkpt>
      <trkpt lat="48.38613" lon="2.67514">
        <ele>94</ele>
        <time>2014-01-30T14:46:09Z</time>
      </trkpt>
      <trkpt lat="48.38621" lon="2.67527">
        <ele>96</ele>
        <time>2014-01-30T14:46:20Z</time>
      </trkpt>
      <trkpt lat="48.38626" lon="2.67543">
        <ele>97</ele>
        <time>2014-01-30T14:46:30Z</time>
      </trkpt>
      <trkpt lat="48.38627" lon="2.6756">
        <ele>100</ele>
        <time>2014-01-30T14:46:42Z</time>
      </trkpt>
      <trkpt lat="48.3863" lon="2.6758">
        <ele>101</ele>
        <time>2014-01-30T14:46:57Z</time>
      </trkpt>
      <trkpt lat="48.38632" lon="2.67594">
        <ele>103</ele>
        <time>2014-01-30T14:47:11Z</time>
      </trkpt>
      <trkpt lat="48.38635" lon="2.67609">
        <ele>104</ele>
        <time>2014-01-30T14:47:21Z</time>
      </trkpt>
      <trkpt lat="48.38637" lon="2.67622">
        <ele>106</ele>
        <time>2014-01-30T14:47:33Z</time>
      </trkpt>
      <trkpt lat="48.38641" lon="2.67637">
        <ele>107</ele>
        <time>2014-01-30T14:47:44Z</time>
      </trkpt>
      <trkpt lat="48.38647" lon="2.67647">
        <ele>109</ele>
        <time>2014-01-30T14:47:54Z</time>
      </trkpt>
      <trkpt lat="48.38651" lon="2.67663">
        <ele>109</ele>
        <time>2014-01-30T14:48:05Z</time>
      </trkpt>
      <trkpt lat="48.38655" lon="2.6767">
        <ele>109</ele>
        <time>2014-01-30T14:48:24Z</time>
      </trkpt>
      <trkpt lat="48.3866" lon="2.67677">
        <ele>108</ele>
        <time>2014-01-30T14:53:52Z</time>
      </trkpt>
      <trkpt lat="48.38657" lon="2.67691">
        <ele>109</ele>
        <time>2014-01-30T14:54:26Z</time>
      </trkpt>
      <trkpt lat="48.38654" lon="2.67705">
        <ele>110</ele>
        <time>2014-01-30T14:54:39Z</time>
      </trkpt>
      <trkpt lat="48.38648" lon="2.67717">
        <ele>114</ele>
        <time>2014-01-30T14:54:58Z</time>
      </trkpt>
      <trkpt lat="48.38642" lon="2.67722">
        <ele>116</ele>
        <time>2014-01-30T14:55:11Z</time>
      </trkpt>
      <trkpt lat="48.38645" lon="2.6773">
        <ele>118</ele>
        <time>2014-01-30T14:55:26Z</time>
      </trkpt>
      <trkpt lat="48.38645" lon="2.67745">
        <ele>118</ele>
        <time>2014-01-30T14:55:36Z</time>
      </trkpt>
      <trkpt lat="48.38644" lon="2.67757">
        <ele>119</ele>
        <time>2014-01-30T14:55:47Z</time>
      </trkpt>
      <trkpt lat="48.38641" lon="2.67769">
        <ele>119</ele>
        <time>2014-01-30T14:55:58Z</time>
      </trkpt>
      <trkpt lat="48.38643" lon="2.67782">
        <ele>119</ele>
        <time>2014-01-30T14:56:09Z</time>
      </trkpt>
      <trkpt lat="48.3865" lon="2.67784">
        <ele>120</ele>
        <time>2014-01-30T14:56:35Z</time>
      </trkpt>
      <trkpt lat="48.38655" lon="2.67787">
        <ele>118</ele>
        <time>2014-01-30T14:56:49Z</time>
      </trkpt>
      <trkpt lat="48.38655" lon="2.67796">
        <ele>117</ele>
        <time>2014-01-30T14:57:18Z</time>
      </trkpt>
      <trkpt lat="48.38653" lon="2.67809">
        <ele>118</ele>
        <time>2014-01-30T14:57:32Z</time>
      </trkpt>
      <trkpt lat="48.38656" lon="2.67823">
        <ele>116</ele>
        <time>2014-01-30T14:58:06Z</time>
      </trkpt>
      <trkpt lat="48.38656" lon="2.67835">
        <ele>113</ele>
        <time>2014-01-30T14:58:27Z</time>
      </trkpt>
      <trkpt lat="48.3865" lon="2.67847">
        <ele>109</ele>
        <time>2014-01-30T14:59:00Z</time>
      </trkpt>
      <trkpt lat="48.38641" lon="2.67866">
        <ele>106</ele>
        <time>2014-01-30T14:59:30Z</time>
      </trkpt>
      <trkpt lat="48.3864" lon="2.67883">
        <ele>104</ele>
        <time>2014-01-30T14:59:42Z</time>
      </trkpt>
      <trkpt lat="48.3863" lon="2.67892">
        <ele>103</ele>
        <time>2014-01-30T15:00:11Z</time>
      </trkpt>
      <trkpt lat="48.38618" lon="2.67903">
        <ele>103</ele>
        <time>2014-01-30T15:00:23Z</time>
      </trkpt>
      <trkpt lat="48.38617" lon="2.67917">
        <ele>102</ele>
        <time>2014-01-30T15:00:32Z</time>
      </trkpt>
      <trkpt lat="48.3861" lon="2.67932">
        <ele>102</ele>
        <time>2014-01-30T15:00:55Z</time>
      </trkpt>
      <trkpt lat="48.38614" lon="2.67953">
        <ele>102</ele>
        <time>2014-01-30T15:01:06Z</time>
      </trkpt>
      <trkpt lat="48.38615" lon="2.6797">
        <ele>104</ele>
        <time>2014-01-30T15:01:19Z</time>
      </trkpt>
      <trkpt lat="48.38619" lon="2.67986">
        <ele>104</ele>
        <time>2014-01-30T15:01:35Z</time>
      </trkpt>
      <trkpt lat="48.38624" lon="2.68003">
        <ele>104</ele>
        <time>2014-01-30T15:01:45Z</time>
      </trkpt>
      <trkpt lat="48.38625" lon="2.68021">
        <ele>104</ele>
        <time>2014-01-30T15:01:57Z</time>
      </trkpt>
      <trkpt lat="48.38624" lon="2.68044">
        <ele>104</ele>
        <time>2014-01-30T15:02:11Z</time>
      </trkpt>
      <trkpt lat="48.38621" lon="2.68061">
        <ele>103</ele>
        <time>2014-01-30T15:02:22Z</time>
      </trkpt>
      <trkpt lat="48.38612" lon="2.6808">
        <ele>103</ele>
        <time>2014-01-30T15:02:34Z</time>
      </trkpt>
      <trkpt lat="48.38602" lon="2.68095">
        <ele>100</ele>
        <time>2014-01-30T15:02:47Z</time>
      </trkpt>
      <trkpt lat="48.38601" lon="2.68109">
        <ele>96</ele>
        <time>2014-01-30T15:03:13Z</time>
      </trkpt>
      <trkpt lat="48.38602" lon="2.68132">
        <ele>94</ele>
        <time>2014-01-30T15:03:26Z</time>
      </trkpt>
      <trkpt lat="48.386" lon="2.68143">
        <ele>93</ele>
        <time>2014-01-30T15:03:57Z</time>
      </trkpt>
      <trkpt lat="48.38592" lon="2.68157">
        <ele>92</ele>
        <time>2014-01-30T15:04:24Z</time>
      </trkpt>
      <trkpt lat="48.38581" lon="2.6816">
        <ele>91</ele>
        <time>2014-01-30T15:04:32Z</time>
      </trkpt>
      <trkpt lat="48.38567" lon="2.68162">
        <ele>90</ele>
        <time>2014-01-30T15:04:43Z</time>
      </trkpt>
      <trkpt lat="48.38573" lon="2.6817">
        <ele>91</ele>
        <time>2014-01-30T15:05:48Z</time>
      </trkpt>
      <trkpt lat="48.38579" lon="2.68181">
        <ele>94</ele>
        <time>2014-01-30T15:06:08Z</time>
      </trkpt>
      <trkpt lat="48.38583" lon="2.68195">
        <ele>95</ele>
        <time>2014-01-30T15:06:32Z</time>
      </trkpt>
      <trkpt lat="48.3859" lon="2.68206">
        <ele>94</ele>
        <time>2014-01-30T15:06:41Z</time>
      </trkpt>
      <trkpt lat="48.38593" lon="2.68218">
        <ele>93</ele>
        <time>2014-01-30T15:06:51Z</time>
      </trkpt>
      <trkpt lat="48.38596" lon="2.68232">
        <ele>92</ele>
        <time>2014-01-30T15:07:00Z</time>
      </trkpt>
      <trkpt lat="48.38599" lon="2.68246">
        <ele>91</ele>
        <time>2014-01-30T15:07:09Z</time>
      </trkpt>
      <trkpt lat="48.38603" lon="2.68258">
        <ele>90</ele>
        <time>2014-01-30T15:07:16Z</time>
      </trkpt>
      <trkpt lat="48.38607" lon="2.68271">
        <ele>89</ele>
        <time>2014-01-30T15:07:23Z</time>
      </trkpt>
      <trkpt lat="48.3861" lon="2.68284">
        <ele>88</ele>
        <time>2014-01-30T15:07:31Z</time>
      </trkpt>
      <trkpt lat="48.38616" lon="2.68295">
        <ele>87</ele>
        <time>2014-01-30T15:07:39Z</time>
      </trkpt>
      <trkpt lat="48.38621" lon="2.68306">
        <ele>88</ele>
        <time>2014-01-30T15:07:48Z</time>
      </trkpt>
      <trkpt lat="48.38625" lon="2.68318">
        <ele>87</ele>
        <time>2014-01-30T15:07:56Z</time>
      </trkpt>
      <trkpt lat="48.38624" lon="2.68339">
        <ele>86</ele>
        <time>2014-01-30T15:10:21Z</time>
      </trkpt>
      <trkpt lat="48.38628" lon="2.68346">
        <ele>85</ele>
        <time>2014-01-30T15:10:37Z</time>
      </trkpt>
      <trkpt lat="48.38627" lon="2.68361">
        <ele>83</ele>
        <time>2014-01-30T15:10:45Z</time>
      </trkpt>
      <trkpt lat="48.38623" lon="2.68373">
        <ele>83</ele>
        <time>2014-01-30T15:10:52Z</time>
      </trkpt>
      <trkpt lat="48.38621" lon="2.68387">
        <ele>82</ele>
        <time>2014-01-30T15:10:59Z</time>
      </trkpt>
      <trkpt lat="48.3862" lon="2.68401">
        <ele>81</ele>
        <time>2014-01-30T15:11:07Z</time>
      </trkpt>
      <trkpt lat="48.38618" lon="2.68416">
        <ele>81</ele>
        <time>2014-01-30T15:11:14Z</time>
      </trkpt>
      <trkpt lat="48.38616" lon="2.68428">
        <ele>81</ele>
        <time>2014-01-30T15:11:21Z</time>
      </trkpt>
      <trkpt lat="48.38615" lon="2.68441">
        <ele>79</ele>
        <time>2014-01-30T15:11:28Z</time>
      </trkpt>
      <trkpt lat="48.38613" lon="2.68454">
        <ele>79</ele>
        <time>2014-01-30T15:11:36Z</time>
      </trkpt>
      <trkpt lat="48.38611" lon="2.68467">
        <ele>78</ele>
        <time>2014-01-30T15:11:44Z</time>
      </trkpt>
      <trkpt lat="48.38611" lon="2.6848">
        <ele>78</ele>
        <time>2014-01-30T15:12:20Z</time>
      </trkpt>
      <trkpt lat="48.38612" lon="2.68494">
        <ele>77</ele>
        <time>2014-01-30T15:12:27Z</time>
      </trkpt>
      <trkpt lat="48.3861" lon="2.68509">
        <ele>75</ele>
        <time>2014-01-30T15:12:35Z</time>
      </trkpt>
      <trkpt lat="48.38607" lon="2.68523">
        <ele>74</ele>
        <time>2014-01-30T15:12:42Z</time>
      </trkpt>
      <trkpt lat="48.38605" lon="2.68538">
        <ele>74</ele>
        <time>2014-01-30T15:12:49Z</time>
      </trkpt>
      <trkpt lat="48.38603" lon="2.68552">
        <ele>74</ele>
        <time>2014-01-30T15:12:56Z</time>
      </trkpt>
      <trkpt lat="48.38602" lon="2.68566">
        <ele>73</ele>
        <time>2014-01-30T15:13:03Z</time>
      </trkpt>
      <trkpt lat="48.386" lon="2.6858">
        <ele>73</ele>
        <time>2014-01-30T15:13:10Z</time>
      </trkpt>
      <trkpt lat="48.38598" lon="2.68594">
        <ele>73</ele>
        <time>2014-01-30T15:13:17Z</time>
      </trkpt>
      <trkpt lat="48.38594" lon="2.68608">
        <ele>73</ele>
        <time>2014-01-30T15:13:25Z</time>
      </trkpt>
      <trkpt lat="48.38593" lon="2.68626">
        <ele>73</ele>
        <time>2014-01-30T15:13:33Z</time>
      </trkpt>
      <trkpt lat="48.38593" lon="2.68644">
        <ele>72</ele>
        <time>2014-01-30T15:13:41Z</time>
      </trkpt>
      <trkpt lat="48.38589" lon="2.68658">
        <ele>72</ele>
        <time>2014-01-30T15:13:48Z</time>
      </trkpt>
      <trkpt lat="48.38586" lon="2.68673">
        <ele>72</ele>
        <time>2014-01-30T15:13:55Z</time>
      </trkpt>
      <trkpt lat="48.38583" lon="2.68687">
        <ele>73</ele>
        <time>2014-01-30T15:14:02Z</time>
      </trkpt>
      <trkpt lat="48.38581" lon="2.68703">
        <ele>73</ele>
        <time>2014-01-30T15:14:09Z</time>
      </trkpt>
      <trkpt lat="48.38583" lon="2.68718">
        <ele>72</ele>
        <time>2014-01-30T15:14:16Z</time>
      </trkpt>
      <trkpt lat="48.3858" lon="2.68732">
        <ele>73</ele>
        <time>2014-01-30T15:14:23Z</time>
      </trkpt>
      <trkpt lat="48.38579" lon="2.68748">
        <ele>74</ele>
        <time>2014-01-30T15:14:30Z</time>
      </trkpt>
      <trkpt lat="48.38575" lon="2.68762">
        <ele>75</ele>
        <time>2014-01-30T15:14:37Z</time>
      </trkpt>
      <trkpt lat="48.38574" lon="2.68775">
        <ele>75</ele>
        <time>2014-01-30T15:14:44Z</time>
      </trkpt>
      <trkpt lat="48.38572" lon="2.68789">
        <ele>76</ele>
        <time>2014-01-30T15:14:51Z</time>
      </trkpt>
      <trkpt lat="48.38568" lon="2.68803">
        <ele>76</ele>
        <time>2014-01-30T15:14:58Z</time>
      </trkpt>
      <trkpt lat="48.38568" lon="2.68816">
        <ele>75</ele>
        <time>2014-01-30T15:15:06Z</time>
      </trkpt>
      <trkpt lat="48.38567" lon="2.68827">
        <ele>75</ele>
        <time>2014-01-30T15:15:30Z</time>
      </trkpt>
      <trkpt lat="48.38566" lon="2.68841">
        <ele>75</ele>
        <time>2014-01-30T15:15:51Z</time>
      </trkpt>
      <trkpt lat="48.38565" lon="2.6885">
        <ele>77</ele>
        <time>2014-01-30T15:16:42Z</time>
      </trkpt>
      <trkpt lat="48.38571" lon="2.68862">
        <ele>77</ele>
        <time>2014-01-30T15:16:51Z</time>
      </trkpt>
      <trkpt lat="48.38577" lon="2.68873">
        <ele>77</ele>
        <time>2014-01-30T15:17:00Z</time>
      </trkpt>
      <trkpt lat="48.38581" lon="2.68881">
        <ele>78</ele>
        <time>2014-01-30T15:17:16Z</time>
      </trkpt>
      <trkpt lat="48.38588" lon="2.68892">
        <ele>79</ele>
        <time>2014-01-30T15:17:25Z</time>
      </trkpt>
      <trkpt lat="48.38592" lon="2.68902">
        <ele>80</ele>
        <time>2014-01-30T15:17:41Z</time>
      </trkpt>
      <trkpt lat="48.38588" lon="2.68916">
        <ele>81</ele>
        <time>2014-01-30T15:18:04Z</time>
      </trkpt>
      <trkpt lat="48.38584" lon="2.68931">
        <ele>82</ele>
        <time>2014-01-30T15:18:13Z</time>
      </trkpt>
      <trkpt lat="48.38582" lon="2.68945">
        <ele>83</ele>
        <time>2014-01-30T15:18:24Z</time>
      </trkpt>
      <trkpt lat="48.3858" lon="2.68959">
        <ele>85</ele>
        <time>2014-01-30T15:18:51Z</time>
      </trkpt>
      <trkpt lat="48.38574" lon="2.68971">
        <ele>86</ele>
        <time>2014-01-30T15:19:03Z</time>
      </trkpt>
      <trkpt lat="48.38572" lon="2.68986">
        <ele>88</ele>
        <time>2014-01-30T15:19:22Z</time>
      </trkpt>
      <trkpt lat="48.38575" lon="2.68998">
        <ele>89</ele>
        <time>2014-01-30T15:19:38Z</time>
      </trkpt>
      <trkpt lat="48.38582" lon="2.6901">
        <ele>90</ele>
        <time>2014-01-30T15:20:02Z</time>
      </trkpt>
      <trkpt lat="48.38587" lon="2.69025">
        <ele>91</ele>
        <time>2014-01-30T15:20:18Z</time>
      </trkpt>
      <trkpt lat="48.38578" lon="2.6904">
        <ele>92</ele>
        <time>2014-01-30T15:20:30Z</time>
      </trkpt>
      <trkpt lat="48.38567" lon="2.69048">
        <ele>92</ele>
        <time>2014-01-30T15:20:50Z</time>
      </trkpt>
      <trkpt lat="48.38555" lon="2.6905">
        <ele>92</ele>
        <time>2014-01-30T15:21:01Z</time>
      </trkpt>
      <trkpt lat="48.38547" lon="2.69062">
        <ele>91</ele>
        <time>2014-01-30T15:21:12Z</time>
      </trkpt>
      <trkpt lat="48.38537" lon="2.69068">
        <ele>89</ele>
        <time>2014-01-30T15:21:21Z</time>
      </trkpt>
      <trkpt lat="48.38531" lon="2.69076">
        <ele>88</ele>
        <time>2014-01-30T15:21:29Z</time>
      </trkpt>
      <trkpt lat="48.3853" lon="2.6909">
        <ele>89</ele>
        <time>2014-01-30T15:21:38Z</time>
      </trkpt>
      <trkpt lat="48.3853" lon="2.69104">
        <ele>89</ele>
        <time>2014-01-30T15:21:47Z</time>
      </trkpt>
      <trkpt lat="48.3853" lon="2.6912">
        <ele>88</ele>
        <time>2014-01-30T15:21:56Z</time>
      </trkpt>
      <trkpt lat="48.38528" lon="2.69138">
        <ele>86</ele>
        <time>2014-01-30T15:22:05Z</time>
      </trkpt>
      <trkpt lat="48.38522" lon="2.69153">
        <ele>85</ele>
        <time>2014-01-30T15:22:13Z</time>
      </trkpt>
      <trkpt lat="48.3852" lon="2.69168">
        <ele>84</ele>
        <time>2014-01-30T15:22:22Z</time>
      </trkpt>
      <trkpt lat="48.38521" lon="2.69185">
        <ele>85</ele>
        <time>2014-01-30T15:22:31Z</time>
      </trkpt>
      <trkpt lat="48.3852" lon="2.69203">
        <ele>85</ele>
        <time>2014-01-30T15:22:42Z</time>
      </trkpt>
      <trkpt lat="48.38513" lon="2.69211">
        <ele>85</ele>
        <time>2014-01-30T15:24:06Z</time>
      </trkpt>
      <trkpt lat="48.38502" lon="2.69221">
        <ele>86</ele>
        <time>2014-01-30T15:24:15Z</time>
      </trkpt>
      <trkpt lat="48.38497" lon="2.69236">
        <ele>87</ele>
        <time>2014-01-30T15:24:25Z</time>
      </trkpt>
      <trkpt lat="48.38497" lon="2.69245">
        <ele>88</ele>
        <time>2014-01-30T15:25:09Z</time>
      </trkpt>
      <trkpt lat="48.385" lon="2.69259">
        <ele>90</ele>
        <time>2014-01-30T15:25:19Z</time>
      </trkpt>
      <trkpt lat="48.38508" lon="2.69276">
        <ele>90</ele>
        <time>2014-01-30T15:25:30Z</time>
      </trkpt>
      <trkpt lat="48.38513" lon="2.69286">
        <ele>91</ele>
        <time>2014-01-30T15:25:40Z</time>
      </trkpt>
      <trkpt lat="48.38518" lon="2.69299">
        <ele>92</ele>
        <time>2014-01-30T15:26:06Z</time>
      </trkpt>
      <trkpt lat="48.38526" lon="2.69299">
        <ele>93</ele>
        <time>2014-01-30T15:26:20Z</time>
      </trkpt>
      <trkpt lat="48.38534" lon="2.69304">
        <ele>94</ele>
        <time>2014-01-30T15:29:04Z</time>
      </trkpt>
      <trkpt lat="48.38541" lon="2.69293">
        <ele>93</ele>
        <time>2014-01-30T15:29:15Z</time>
      </trkpt>
      <trkpt lat="48.38553" lon="2.693">
        <ele>95</ele>
        <time>2014-01-30T15:29:26Z</time>
      </trkpt>
      <trkpt lat="48.38557" lon="2.69306">
        <ele>96</ele>
        <time>2014-01-30T15:30:23Z</time>
      </trkpt>
      <trkpt lat="48.38555" lon="2.69315">
        <ele>97</ele>
        <time>2014-01-30T15:33:17Z</time>
      </trkpt>
      <trkpt lat="48.38548" lon="2.69325">
        <ele>98</ele>
        <time>2014-01-30T15:34:03Z</time>
      </trkpt>
      <trkpt lat="48.38543" lon="2.69326">
        <ele>100</ele>
        <time>2014-01-30T15:34:25Z</time>
      </trkpt>
      <trkpt lat="48.38539" lon="2.69329">
        <ele>100</ele>
        <time>2014-01-30T15:39:03Z</time>
      </trkpt>
      <trkpt lat="48.3853" lon="2.69338">
        <ele>102</ele>
        <time>2014-01-30T15:39:15Z</time>
      </trkpt>
      <trkpt lat="48.3852" lon="2.69345">
        <ele>103</ele>
        <time>2014-01-30T15:39:29Z</time>
      </trkpt>
      <trkpt lat="48.38512" lon="2.69356">
        <ele>105</ele>
        <time>2014-01-30T15:39:42Z</time>
      </trkpt>
      <trkpt lat="48.38519" lon="2.69364">
        <ele>108</ele>
        <time>2014-01-30T15:39:56Z</time>
      </trkpt>
      <trkpt lat="48.38513" lon="2.69372">
        <ele>108</ele>
        <time>2014-01-30T15:40:22Z</time>
      </trkpt>
      <trkpt lat="48.38525" lon="2.69369">
        <ele>108</ele>
        <time>2014-01-30T15:40:37Z</time>
      </trkpt>
      <trkpt lat="48.38538" lon="2.69371">
        <ele>108</ele>
        <time>2014-01-30T15:40:49Z</time>
      </trkpt>
      <trkpt lat="48.38546" lon="2.69364">
        <ele>108</ele>
        <time>2014-01-30T15:41:01Z</time>
      </trkpt>
      <trkpt lat="48.38551" lon="2.69374">
        <ele>107</ele>
        <time>2014-01-30T15:41:15Z</time>
      </trkpt>
      <trkpt lat="48.38546" lon="2.69389">
        <ele>106</ele>
        <time>2014-01-30T15:41:24Z</time>
      </trkpt>
      <trkpt lat="48.38538" lon="2.69402">
        <ele>106</ele>
        <time>2014-01-30T15:41:32Z</time>
      </trkpt>
      <trkpt lat="48.38528" lon="2.69408">
        <ele>106</ele>
        <time>2014-01-30T15:41:41Z</time>
      </trkpt>
      <trkpt lat="48.38518" lon="2.69414">
        <ele>106</ele>
        <time>2014-01-30T15:41:49Z</time>
      </trkpt>
      <trkpt lat="48.38511" lon="2.69424">
        <ele>108</ele>
        <time>2014-01-30T15:42:00Z</time>
      </trkpt>
      <trkpt lat="48.38508" lon="2.69437">
        <ele>107</ele>
        <time>2014-01-30T15:42:08Z</time>
      </trkpt>
      <trkpt lat="48.38504" lon="2.6945">
        <ele>107</ele>
        <time>2014-01-30T15:42:15Z</time>
      </trkpt>
      <trkpt lat="48.38502" lon="2.69463">
        <ele>106</ele>
        <time>2014-01-30T15:42:30Z</time>
      </trkpt>
      <trkpt lat="48.38498" lon="2.69477">
        <ele>107</ele>
        <time>2014-01-30T15:42:38Z</time>
      </trkpt>
      <trkpt lat="48.38501" lon="2.69489">
        <ele>105</ele>
        <time>2014-01-30T15:42:46Z</time>
      </trkpt>
      <trkpt lat="48.38501" lon="2.69504">
        <ele>104</ele>
        <time>2014-01-30T15:42:53Z</time>
      </trkpt>
      <trkpt lat="48.38503" lon="2.69517">
        <ele>104</ele>
        <time>2014-01-30T15:43:15Z</time>
      </trkpt>
      <trkpt lat="48.38502" lon="2.69534">
        <ele>103</ele>
        <time>2014-01-30T15:43:32Z</time>
      </trkpt>
      <trkpt lat="48.38499" lon="2.69548">
        <ele>103</ele>
        <time>2014-01-30T15:43:40Z</time>
      </trkpt>
      <trkpt lat="48.38497" lon="2.69567">
        <ele>104</ele>
        <time>2014-01-30T15:43:50Z</time>
      </trkpt>
      <trkpt lat="48.38506" lon="2.69573">
        <ele>102</ele>
        <time>2014-01-30T15:43:59Z</time>
      </trkpt>
      <trkpt lat="48.38512" lon="2.69585">
        <ele>102</ele>
        <time>2014-01-30T15:44:06Z</time>
      </trkpt>
      <trkpt lat="48.38521" lon="2.69596">
        <ele>101</ele>
        <time>2014-01-30T15:44:14Z</time>
      </trkpt>
      <trkpt lat="48.38528" lon="2.69602">
        <ele>100</ele>
        <time>2014-01-30T15:44:23Z</time>
      </trkpt>
      <trkpt lat="48.38528" lon="2.69588">
        <ele>97</ele>
        <time>2014-01-30T15:44:44Z</time>
      </trkpt>
      <trkpt lat="48.38533" lon="2.696">
        <ele>97</ele>
        <time>2014-01-30T15:44:56Z</time>
      </trkpt>
      <trkpt lat="48.38543" lon="2.69608">
        <ele>96</ele>
        <time>2014-01-30T15:45:09Z</time>
      </trkpt>
      <trkpt lat="48.38541" lon="2.69618">
        <ele>97</ele>
        <time>2014-01-30T15:45:31Z</time>
      </trkpt>
      <trkpt lat="48.38528" lon="2.69621">
        <ele>98</ele>
        <time>2014-01-30T15:45:42Z</time>
      </trkpt>
      <trkpt lat="48.38518" lon="2.69624">
        <ele>99</ele>
        <time>2014-01-30T15:46:09Z</time>
      </trkpt>
      <trkpt lat="48.38512" lon="2.69635">
        <ele>99</ele>
        <time>2014-01-30T15:46:22Z</time>
      </trkpt>
      <trkpt lat="48.38502" lon="2.69637">
        <ele>101</ele>
        <time>2014-01-30T15:46:32Z</time>
      </trkpt>
      <trkpt lat="48.38493" lon="2.69643">
        <ele>103</ele>
        <time>2014-01-30T15:46:43Z</time>
      </trkpt>
      <trkpt lat="48.38491" lon="2.69651">
        <ele>103</ele>
        <time>2014-01-30T15:46:58Z</time>
      </trkpt>
      <trkpt lat="48.38497" lon="2.6966">
        <ele>102</ele>
        <time>2014-01-30T15:47:11Z</time>
      </trkpt>
      <trkpt lat="48.38507" lon="2.69658">
        <ele>102</ele>
        <time>2014-01-30T15:47:18Z</time>
      </trkpt>
      <trkpt lat="48.38513" lon="2.69657">
        <ele>101</ele>
        <time>2014-01-30T15:47:25Z</time>
      </trkpt>
      <trkpt lat="48.38519" lon="2.69671">
        <ele>100</ele>
        <time>2014-01-30T15:47:33Z</time>
      </trkpt>
      <trkpt lat="48.38517" lon="2.69689">
        <ele>100</ele>
        <time>2014-01-30T15:47:42Z</time>
      </trkpt>
      <trkpt lat="48.38518" lon="2.69707">
        <ele>100</ele>
        <time>2014-01-30T15:47:50Z</time>
      </trkpt>
      <trkpt lat="48.38517" lon="2.69723">
        <ele>99</ele>
        <time>2014-01-30T15:47:58Z</time>
      </trkpt>
      <trkpt lat="48.38508" lon="2.69733">
        <ele>97</ele>
        <time>2014-01-30T15:48:08Z</time>
      </trkpt>
      <trkpt lat="48.38516" lon="2.69731">
        <ele>96</ele>
        <time>2014-01-30T15:48:20Z</time>
      </trkpt>
      <trkpt lat="48.38526" lon="2.6973">
        <ele>94</ele>
        <time>2014-01-30T15:48:31Z</time>
      </trkpt>
      <trkpt lat="48.38527" lon="2.69746">
        <ele>91</ele>
        <time>2014-01-30T15:48:43Z</time>
      </trkpt>
      <trkpt lat="48.38521" lon="2.69758">
        <ele>90</ele>
        <time>2014-01-30T15:48:54Z</time>
      </trkpt>
      <trkpt lat="48.38526" lon="2.69764">
        <ele>87</ele>
        <time>2014-01-30T15:49:04Z</time>
      </trkpt>
      <trkpt lat="48.38535" lon="2.69766">
        <ele>87</ele>
        <time>2014-01-30T15:49:13Z</time>
      </trkpt>
      <trkpt lat="48.38544" lon="2.6976">
        <ele>86</ele>
        <time>2014-01-30T15:49:22Z</time>
      </trkpt>
      <trkpt lat="48.3855" lon="2.69747">
        <ele>85</ele>
        <time>2014-01-30T15:49:33Z</time>
      </trkpt>
      <trkpt lat="48.38547" lon="2.69729">
        <ele>82</ele>
        <time>2014-01-30T15:49:47Z</time>
      </trkpt>
      <trkpt lat="48.38549" lon="2.69717">
        <ele>79</ele>
        <time>2014-01-30T15:50:03Z</time>
      </trkpt>
      <trkpt lat="48.38554" lon="2.6973">
        <ele>78</ele>
        <time>2014-01-30T15:50:15Z</time>
      </trkpt>
      <trkpt lat="48.38562" lon="2.6974">
        <ele>76</ele>
        <time>2014-01-30T15:50:23Z</time>
      </trkpt>
      <trkpt lat="48.38572" lon="2.69746">
        <ele>75</ele>
        <time>2014-01-30T15:50:31Z</time>
      </trkpt>
      <trkpt lat="48.38581" lon="2.69751">
        <ele>74</ele>
        <time>2014-01-30T15:50:41Z</time>
      </trkpt>
      <trkpt lat="48.38594" lon="2.69754">
        <ele>73</ele>
        <time>2014-01-30T15:50:52Z</time>
      </trkpt>
      <trkpt lat="48.38602" lon="2.69763">
        <ele>73</ele>
        <time>2014-01-30T15:51:46Z</time>
      </trkpt>
      <trkpt lat="48.38612" lon="2.69776">
        <ele>72</ele>
        <time>2014-01-30T15:51:58Z</time>
      </trkpt>
      <trkpt lat="48.38617" lon="2.69788">
        <ele>72</ele>
        <time>2014-01-30T15:52:16Z</time>
      </trkpt>
      <trkpt lat="48.38623" lon="2.69799">
        <ele>73</ele>
        <time>2014-01-30T15:52:33Z</time>
      </trkpt>
      <trkpt lat="48.38627" lon="2.6981">
        <ele>73</ele>
        <time>2014-01-30T15:52:44Z</time>
      </trkpt>
      <trkpt lat="48.38633" lon="2.69822">
        <ele>73</ele>
        <time>2014-01-30T15:52:54Z</time>
      </trkpt>
      <trkpt lat="48.38636" lon="2.69835">
        <ele>73</ele>
        <time>2014-01-30T15:53:03Z</time>
      </trkpt>
      <trkpt lat="48.38639" lon="2.69848">
        <ele>74</ele>
        <time>2014-01-30T15:53:12Z</time>
      </trkpt>
      <trkpt lat="48.38645" lon="2.69858">
        <ele>75</ele>
        <time>2014-01-30T15:53:22Z</time>
      </trkpt>
      <trkpt lat="48.38647" lon="2.6986">
        <ele>75</ele>
        <time>2014-01-30T15:53:58Z</time>
      </trkpt>
      <trkpt lat="48.38654" lon="2.69866">
        <ele>75</ele>
        <time>2014-01-30T15:54:39Z</time>
      </trkpt>
      <trkpt lat="48.38663" lon="2.69874">
        <ele>74</ele>
        <time>2014-01-30T15:54:47Z</time>
      </trkpt>
      <trkpt lat="48.38672" lon="2.6988">
        <ele>75</ele>
        <time>2014-01-30T15:54:54Z</time>
      </trkpt>
      <trkpt lat="48.38684" lon="2.69884">
        <ele>75</ele>
        <time>2014-01-30T15:55:01Z</time>
      </trkpt>
      <trkpt lat="48.38691" lon="2.6989">
        <ele>75</ele>
        <time>2014-01-30T15:55:08Z</time>
      </trkpt>
      <trkpt lat="48.38699" lon="2.69895">
        <ele>75</ele>
        <time>2014-01-30T15:55:16Z</time>
      </trkpt>
      <trkpt lat="48.38708" lon="2.69902">
        <ele>75</ele>
        <time>2014-01-30T15:55:22Z</time>
      </trkpt>
      <trkpt lat="48.38717" lon="2.69905">
        <ele>75</ele>
        <time>2014-01-30T15:55:29Z</time>
      </trkpt>
      <trkpt lat="48.38727" lon="2.6991">
        <ele>74</ele>
        <time>2014-01-30T15:55:35Z</time>
      </trkpt>
      <trkpt lat="48.38735" lon="2.69915">
        <ele>75</ele>
        <time>2014-01-30T15:55:41Z</time>
      </trkpt>
      <trkpt lat="48.38745" lon="2.69921">
        <ele>74</ele>
        <time>2014-01-30T15:55:49Z</time>
      </trkpt>
      <trkpt lat="48.38759" lon="2.69925">
        <ele>74</ele>
        <time>2014-01-30T15:55:56Z</time>
      </trkpt>
      <trkpt lat="48.38768" lon="2.6993">
        <ele>75</ele>
        <time>2014-01-30T15:56:03Z</time>
      </trkpt>
      <trkpt lat="48.38775" lon="2.69939">
        <ele>75</ele>
        <time>2014-01-30T15:56:12Z</time>
      </trkpt>
      <trkpt lat="48.38786" lon="2.69942">
        <ele>75</ele>
        <time>2014-01-30T15:56:18Z</time>
      </trkpt>
      <trkpt lat="48.38796" lon="2.69947">
        <ele>74</ele>
        <time>2014-01-30T15:56:25Z</time>
      </trkpt>
      <trkpt lat="48.38808" lon="2.69952">
        <ele>75</ele>
        <time>2014-01-30T15:56:31Z</time>
      </trkpt>
      <trkpt lat="48.38818" lon="2.69959">
        <ele>74</ele>
        <time>2014-01-30T15:56:39Z</time>
      </trkpt>
      <trkpt lat="48.38826" lon="2.69964">
        <ele>74</ele>
        <time>2014-01-30T15:56:46Z</time>
      </trkpt>
      <trkpt lat="48.38835" lon="2.69971">
        <ele>74</ele>
        <time>2014-01-30T15:56:52Z</time>
      </trkpt>
      <trkpt lat="48.38845" lon="2.69973">
        <ele>74</ele>
        <time>2014-01-30T15:56:58Z</time>
      </trkpt>
      <trkpt lat="48.38854" lon="2.69982">
        <ele>74</ele>
        <time>2014-01-30T15:57:06Z</time>
      </trkpt>
      <trkpt lat="48.38865" lon="2.69992">
        <ele>75</ele>
        <time>2014-01-30T15:57:14Z</time>
      </trkpt>
      <trkpt lat="48.38875" lon="2.69997">
        <ele>74</ele>
        <time>2014-01-30T15:57:22Z</time>
      </trkpt>
      <trkpt lat="48.38883" lon="2.70007">
        <ele>74</ele>
        <time>2014-01-30T15:57:30Z</time>
      </trkpt>
      <trkpt lat="48.38893" lon="2.70016">
        <ele>74</ele>
        <time>2014-01-30T15:57:38Z</time>
      </trkpt>
      <trkpt lat="48.38903" lon="2.70022">
        <ele>73</ele>
        <time>2014-01-30T15:57:45Z</time>
      </trkpt>
      <trkpt lat="48.38912" lon="2.7003">
        <ele>73</ele>
        <time>2014-01-30T15:57:52Z</time>
      </trkpt>
      <trkpt lat="48.38921" lon="2.70035">
        <ele>72</ele>
        <time>2014-01-30T15:58:00Z</time>
      </trkpt>
      <trkpt lat="48.3893" lon="2.70042">
        <ele>72</ele>
        <time>2014-01-30T15:58:12Z</time>
      </trkpt>
      <trkpt lat="48.3894" lon="2.70046">
        <ele>72</ele>
        <time>2014-01-30T15:58:19Z</time>
      </trkpt>
      <trkpt lat="48.3895" lon="2.70054">
        <ele>72</ele>
        <time>2014-01-30T15:58:28Z</time>
      </trkpt>
      <trkpt lat="48.38957" lon="2.70063">
        <ele>72</ele>
        <time>2014-01-30T15:58:35Z</time>
      </trkpt>
      <trkpt lat="48.38955" lon="2.70064">
        <ele>72</ele>
        <time>2014-01-30T16:00:10Z</time>
      </trkpt>
      <trkpt lat="48.38962" lon="2.70071">
        <ele>71</ele>
        <time>2014-01-30T16:00:24Z</time>
      </trkpt>
      <trkpt lat="48.38969" lon="2.70083">
        <ele>71</ele>
        <time>2014-01-30T16:00:33Z</time>
      </trkpt>
      <trkpt lat="48.38977" lon="2.7009">
        <ele>71</ele>
        <time>2014-01-30T16:00:50Z</time>
      </trkpt>
      <trkpt lat="48.38982" lon="2.701">
        <ele>72</ele>
        <time>2014-01-30T16:01:08Z</time>
      </trkpt>
      <trkpt lat="48.3899" lon="2.70111">
        <ele>71</ele>
        <time>2014-01-30T16:01:15Z</time>
      </trkpt>
      <trkpt lat="48.38997" lon="2.70121">
        <ele>72</ele>
        <time>2014-01-30T16:01:23Z</time>
      </trkpt>
      <trkpt lat="48.39001" lon="2.7013">
        <ele>72</ele>
        <time>2014-01-30T16:01:41Z</time>
      </trkpt>
      <trkpt lat="48.39008" lon="2.70142">
        <ele>72</ele>
        <time>2014-01-30T16:01:49Z</time>
      </trkpt>
      <trkpt lat="48.39016" lon="2.70154">
        <ele>72</ele>
        <time>2014-01-30T16:01:57Z</time>
      </trkpt>
      <trkpt lat="48.39023" lon="2.70164">
        <ele>72</ele>
        <time>2014-01-30T16:02:03Z</time>
      </trkpt>
      <trkpt lat="48.39037" lon="2.70171">
        <ele>73</ele>
        <time>2014-01-30T16:02:10Z</time>
      </trkpt>
      <trkpt lat="48.39048" lon="2.70181">
        <ele>73</ele>
        <time>2014-01-30T16:02:18Z</time>
      </trkpt>
      <trkpt lat="48.39056" lon="2.70192">
        <ele>73</ele>
        <time>2014-01-30T16:02:25Z</time>
      </trkpt>
      <trkpt lat="48.39063" lon="2.70202">
        <ele>72</ele>
        <time>2014-01-30T16:02:31Z</time>
      </trkpt>
      <trkpt lat="48.39069" lon="2.70214">
        <ele>73</ele>
        <time>2014-01-30T16:02:39Z</time>
      </trkpt>
      <trkpt lat="48.39077" lon="2.70224">
        <ele>73</ele>
        <time>2014-01-30T16:02:46Z</time>
      </trkpt>
      <trkpt lat="48.39085" lon="2.70235">
        <ele>73</ele>
        <time>2014-01-30T16:02:54Z</time>
      </trkpt>
      <trkpt lat="48.39091" lon="2.70247">
        <ele>73</ele>
        <time>2014-01-30T16:03:02Z</time>
      </trkpt>
      <trkpt lat="48.391" lon="2.70257">
        <ele>73</ele>
        <time>2014-01-30T16:03:10Z</time>
      </trkpt>
      <trkpt lat="48.39105" lon="2.7027">
        <ele>73</ele>
        <time>2014-01-30T16:03:17Z</time>
      </trkpt>
      <trkpt lat="48.39114" lon="2.70281">
        <ele>73</ele>
        <time>2014-01-30T16:03:24Z</time>
      </trkpt>
      <trkpt lat="48.39121" lon="2.70291">
        <ele>73</ele>
        <time>2014-01-30T16:03:32Z</time>
      </trkpt>
      <trkpt lat="48.39129" lon="2.70301">
        <ele>73</ele>
        <time>2014-01-30T16:03:39Z</time>
      </trkpt>
      <trkpt lat="48.39136" lon="2.70312">
        <ele>73</ele>
        <time>2014-01-30T16:03:46Z</time>
      </trkpt>
      <trkpt lat="48.39142" lon="2.70323">
        <ele>73</ele>
        <time>2014-01-30T16:03:53Z</time>
      </trkpt>
      <trkpt lat="48.39149" lon="2.70331">
        <ele>73</ele>
        <time>2014-01-30T16:04:00Z</time>
      </trkpt>
      <trkpt lat="48.39155" lon="2.70343">
        <ele>73</ele>
        <time>2014-01-30T16:04:08Z</time>
      </trkpt>
      <trkpt lat="48.39161" lon="2.70355">
        <ele>73</ele>
        <time>2014-01-30T16:04:15Z</time>
      </trkpt>
      <trkpt lat="48.3917" lon="2.70364">
        <ele>74</ele>
        <time>2014-01-30T16:04:22Z</time>
      </trkpt>
      <trkpt lat="48.39172" lon="2.70373">
        <ele>73</ele>
        <time>2014-01-30T16:04:36Z</time>
      </trkpt>
      <trkpt lat="48.39181" lon="2.70373">
        <ele>74</ele>
        <time>2014-01-30T16:04:44Z</time>
      </trkpt>
      <trkpt lat="48.39184" lon="2.70373">
        <ele>74</ele>
        <time>2014-01-30T16:05:32Z</time>
      </trkpt>
      <trkpt lat="48.39192" lon="2.70376">
        <ele>75</ele>
        <time>2014-01-30T16:05:52Z</time>
      </trkpt>
      <trkpt lat="48.39201" lon="2.70371">
        <ele>74</ele>
        <time>2014-01-30T16:06:01Z</time>
      </trkpt>
      <trkpt lat="48.3921" lon="2.70366">
        <ele>74</ele>
        <time>2014-01-30T16:06:08Z</time>
      </trkpt>
      <trkpt lat="48.39219" lon="2.70363">
        <ele>74</ele>
        <time>2014-01-30T16:06:15Z</time>
      </trkpt>
      <trkpt lat="48.39229" lon="2.70361">
        <ele>74</ele>
        <time>2014-01-30T16:06:22Z</time>
      </trkpt>
      <trkpt lat="48.39238" lon="2.70358">
        <ele>74</ele>
        <time>2014-01-30T16:06:28Z</time>
      </trkpt>
      <trkpt lat="48.39248" lon="2.70355">
        <ele>74</ele>
        <time>2014-01-30T16:06:35Z</time>
      </trkpt>
      <trkpt lat="48.39259" lon="2.70354">
        <ele>73</ele>
        <time>2014-01-30T16:06:43Z</time>
      </trkpt>
      <trkpt lat="48.39269" lon="2.70355">
        <ele>73</ele>
        <time>2014-01-30T16:06:50Z</time>
      </trkpt>
      <trkpt lat="48.39278" lon="2.70352">
        <ele>73</ele>
        <time>2014-01-30T16:06:57Z</time>
      </trkpt>
      <trkpt lat="48.39286" lon="2.70346">
        <ele>73</ele>
        <time>2014-01-30T16:07:03Z</time>
      </trkpt>
      <trkpt lat="48.39297" lon="2.70341">
        <ele>73</ele>
        <time>2014-01-30T16:07:11Z</time>
      </trkpt>
      <trkpt lat="48.39306" lon="2.70339">
        <ele>73</ele>
        <time>2014-01-30T16:07:18Z</time>
      </trkpt>
      <trkpt lat="48.39316" lon="2.70336">
        <ele>73</ele>
        <time>2014-01-30T16:07:25Z</time>
      </trkpt>
      <trkpt lat="48.39325" lon="2.70334">
        <ele>73</ele>
        <time>2014-01-30T16:07:32Z</time>
      </trkpt>
      <trkpt lat="48.39334" lon="2.70331">
        <ele>72</ele>
        <time>2014-01-30T16:07:39Z</time>
      </trkpt>
      <trkpt lat="48.39344" lon="2.70327">
        <ele>72</ele>
        <time>2014-01-30T16:07:46Z</time>
      </trkpt>
      <trkpt lat="48.39353" lon="2.70322">
        <ele>72</ele>
        <time>2014-01-30T16:07:54Z</time>
      </trkpt>
      <trkpt lat="48.39362" lon="2.7032">
        <ele>72</ele>
        <time>2014-01-30T16:08:00Z</time>
      </trkpt>
      <trkpt lat="48.39372" lon="2.70318">
        <ele>72</ele>
        <time>2014-01-30T16:08:07Z</time>
      </trkpt>
      <trkpt lat="48.39379" lon="2.70308">
        <ele>72</ele>
        <time>2014-01-30T16:08:14Z</time>
      </trkpt>
      <trkpt lat="48.39389" lon="2.70305">
        <ele>72</ele>
        <time>2014-01-30T16:08:20Z</time>
      </trkpt>
      <trkpt lat="48.39399" lon="2.70302">
        <ele>72</ele>
        <time>2014-01-30T16:08:27Z</time>
      </trkpt>
      <trkpt lat="48.39408" lon="2.70298">
        <ele>72</ele>
        <time>2014-01-30T16:08:33Z</time>
      </trkpt>
      <trkpt lat="48.39418" lon="2.70295">
        <ele>71</ele>
        <time>2014-01-30T16:08:41Z</time>
      </trkpt>
      <trkpt lat="48.39428" lon="2.70294">
        <ele>72</ele>
        <time>2014-01-30T16:08:48Z</time>
      </trkpt>
      <trkpt lat="48.39438" lon="2.7029">
        <ele>71</ele>
        <time>2014-01-30T16:08:55Z</time>
      </trkpt>
      <trkpt lat="48.39448" lon="2.70288">
        <ele>71</ele>
        <time>2014-01-30T16:09:02Z</time>
      </trkpt>
      <trkpt lat="48.39458" lon="2.70287">
        <ele>71</ele>
        <time>2014-01-30T16:09:09Z</time>
      </trkpt>
      <trkpt lat="48.39468" lon="2.70281">
        <ele>71</ele>
        <time>2014-01-30T16:09:16Z</time>
      </trkpt>
      <trkpt lat="48.39478" lon="2.70276">
        <ele>71</ele>
        <time>2014-01-30T16:09:23Z</time>
      </trkpt>
      <trkpt lat="48.39487" lon="2.70274">
        <ele>70</ele>
        <time>2014-01-30T16:09:30Z</time>
      </trkpt>
      <trkpt lat="48.39498" lon="2.70272">
        <ele>70</ele>
        <time>2014-01-30T16:09:37Z</time>
      </trkpt>
      <trkpt lat="48.39507" lon="2.70271">
        <ele>70</ele>
        <time>2014-01-30T16:09:44Z</time>
      </trkpt>
      <trkpt lat="48.39517" lon="2.70267">
        <ele>70</ele>
        <time>2014-01-30T16:09:52Z</time>
      </trkpt>
      <trkpt lat="48.39528" lon="2.70263">
        <ele>69</ele>
        <time>2014-01-30T16:10:00Z</time>
      </trkpt>
      <trkpt lat="48.39539" lon="2.70261">
        <ele>69</ele>
        <time>2014-01-30T16:10:07Z</time>
      </trkpt>
      <trkpt lat="48.39548" lon="2.70258">
        <ele>69</ele>
        <time>2014-01-30T16:10:13Z</time>
      </trkpt>
      <trkpt lat="48.39557" lon="2.70256">
        <ele>68</ele>
        <time>2014-01-30T16:10:20Z</time>
      </trkpt>
      <trkpt lat="48.39566" lon="2.70254">
        <ele>68</ele>
        <time>2014-01-30T16:10:27Z</time>
      </trkpt>
      <trkpt lat="48.39576" lon="2.7025">
        <ele>68</ele>
        <time>2014-01-30T16:10:34Z</time>
      </trkpt>
      <trkpt lat="48.39586" lon="2.70244">
        <ele>68</ele>
        <time>2014-01-30T16:10:42Z</time>
      </trkpt>
      <trkpt lat="48.39597" lon="2.70241">
        <ele>68</ele>
        <time>2014-01-30T16:10:51Z</time>
      </trkpt>
      <trkpt lat="48.39607" lon="2.70239">
        <ele>68</ele>
        <time>2014-01-30T16:10:59Z</time>
      </trkpt>
      <trkpt lat="48.39616" lon="2.70235">
        <ele>68</ele>
        <time>2014-01-30T16:11:06Z</time>
      </trkpt>
      <trkpt lat="48.39627" lon="2.70229">
        <ele>68</ele>
        <time>2014-01-30T16:11:14Z</time>
      </trkpt>
      <trkpt lat="48.39635" lon="2.70225">
        <ele>68</ele>
        <time>2014-01-30T16:11:21Z</time>
      </trkpt>
      <trkpt lat="48.39641" lon="2.70214">
        <ele>68</ele>
        <time>2014-01-30T16:11:28Z</time>
      </trkpt>
      <trkpt lat="48.39645" lon="2.70208">
        <ele>68</ele>
        <time>2014-01-30T16:11:54Z</time>
      </trkpt>
    </trkseg>
  </trk>
</gpx>